<?xml version="1.0" encoding="UTF-8" standalone="no" ?>
<gpx xmlns="http://www.topografix.com/GPX/1/1" xmlns:xsi="http://www.w3.org/2001/XMLSchema-instance" xsi:schemaLocation="http://www.topografix.com/GPX/1/1 http://www.topografix.com/GPX/1/1/gpx.xsd" version="1.1" creator="VisuGPX - https://www.visugpx.com">
  <metadata>
    <name>Bargemon </name>
    <desc><![CDATA[Belle balade paysages variés
point de vue ]]></desc>
  </metadata>
  <trk>
    <name><![CDATA[Bargemon _1]]></name>
    <trkseg>
      <trkpt lat="43.62284" lon="6.51866">
        <ele>618.9</ele>
        <time>2021-02-18T12:49:14Z</time>
      </trkpt>
      <trkpt lat="43.62279" lon="6.51863">
        <ele>618.3</ele>
        <time>2021-02-18T12:51:28Z</time>
      </trkpt>
      <trkpt lat="43.62274" lon="6.51862">
        <ele>618.2</ele>
        <time>2021-02-18T12:51:36Z</time>
      </trkpt>
      <trkpt lat="43.62268" lon="6.51862">
        <ele>618.4</ele>
        <time>2021-02-18T12:51:40Z</time>
      </trkpt>
      <trkpt lat="43.62259" lon="6.5186">
        <ele>619.2</ele>
        <time>2021-02-18T12:51:53Z</time>
      </trkpt>
      <trkpt lat="43.62254" lon="6.51857">
        <ele>619.4</ele>
        <time>2021-02-18T12:51:56Z</time>
      </trkpt>
      <trkpt lat="43.62249" lon="6.51853">
        <ele>619.6</ele>
        <time>2021-02-18T12:52:00Z</time>
      </trkpt>
      <trkpt lat="43.62245" lon="6.51851">
        <ele>619.8</ele>
        <time>2021-02-18T12:52:03Z</time>
      </trkpt>
      <trkpt lat="43.6224" lon="6.5185">
        <ele>619.9</ele>
        <time>2021-02-18T12:52:07Z</time>
      </trkpt>
      <trkpt lat="43.62232" lon="6.51849">
        <ele>621.1</ele>
        <time>2021-02-18T12:52:34Z</time>
      </trkpt>
      <trkpt lat="43.62227" lon="6.51849">
        <ele>621.7</ele>
        <time>2021-02-18T12:52:37Z</time>
      </trkpt>
      <trkpt lat="43.62221" lon="6.51848">
        <ele>623.5</ele>
        <time>2021-02-18T12:52:53Z</time>
      </trkpt>
      <trkpt lat="43.62216" lon="6.51846">
        <ele>624.1</ele>
        <time>2021-02-18T12:52:56Z</time>
      </trkpt>
      <trkpt lat="43.62209" lon="6.51847">
        <ele>625.4</ele>
        <time>2021-02-18T12:53:06Z</time>
      </trkpt>
      <trkpt lat="43.62202" lon="6.51851">
        <ele>625.8</ele>
        <time>2021-02-18T12:53:08Z</time>
      </trkpt>
      <trkpt lat="43.62198" lon="6.51854">
        <ele>626.1</ele>
        <time>2021-02-18T12:53:10Z</time>
      </trkpt>
      <trkpt lat="43.62193" lon="6.51856">
        <ele>626.7</ele>
        <time>2021-02-18T12:53:14Z</time>
      </trkpt>
      <trkpt lat="43.62189" lon="6.5186">
        <ele>627.7</ele>
        <time>2021-02-18T12:53:23Z</time>
      </trkpt>
      <trkpt lat="43.62185" lon="6.5186">
        <ele>628.6</ele>
        <time>2021-02-18T12:53:31Z</time>
      </trkpt>
      <trkpt lat="43.62179" lon="6.51859">
        <ele>629.3</ele>
        <time>2021-02-18T12:53:34Z</time>
      </trkpt>
      <trkpt lat="43.62171" lon="6.51859">
        <ele>630.5</ele>
        <time>2021-02-18T12:53:43Z</time>
      </trkpt>
      <trkpt lat="43.62165" lon="6.5186">
        <ele>631</ele>
        <time>2021-02-18T12:53:46Z</time>
      </trkpt>
      <trkpt lat="43.62157" lon="6.51861">
        <ele>632.4</ele>
        <time>2021-02-18T12:53:58Z</time>
      </trkpt>
      <trkpt lat="43.62152" lon="6.51862">
        <ele>633.5</ele>
        <time>2021-02-18T12:54:03Z</time>
      </trkpt>
      <trkpt lat="43.62147" lon="6.51863">
        <ele>635.1</ele>
        <time>2021-02-18T12:54:18Z</time>
      </trkpt>
      <trkpt lat="43.62141" lon="6.51863">
        <ele>635.8</ele>
        <time>2021-02-18T12:54:21Z</time>
      </trkpt>
      <trkpt lat="43.62134" lon="6.51866">
        <ele>637.1</ele>
        <time>2021-02-18T12:54:32Z</time>
      </trkpt>
      <trkpt lat="43.62129" lon="6.5187">
        <ele>637.4</ele>
        <time>2021-02-18T12:54:35Z</time>
      </trkpt>
      <trkpt lat="43.62123" lon="6.51875">
        <ele>638.1</ele>
        <time>2021-02-18T12:54:41Z</time>
      </trkpt>
      <trkpt lat="43.62119" lon="6.5188">
        <ele>638.5</ele>
        <time>2021-02-18T12:54:44Z</time>
      </trkpt>
      <trkpt lat="43.62113" lon="6.51881">
        <ele>639.5</ele>
        <time>2021-02-18T12:54:54Z</time>
      </trkpt>
      <trkpt lat="43.62108" lon="6.51883">
        <ele>639.9</ele>
        <time>2021-02-18T12:54:57Z</time>
      </trkpt>
      <trkpt lat="43.62103" lon="6.51888">
        <ele>641</ele>
        <time>2021-02-18T12:55:07Z</time>
      </trkpt>
      <trkpt lat="43.62098" lon="6.51892">
        <ele>641.8</ele>
        <time>2021-02-18T12:55:10Z</time>
      </trkpt>
      <trkpt lat="43.62092" lon="6.51899">
        <ele>643.3</ele>
        <time>2021-02-18T12:55:21Z</time>
      </trkpt>
      <trkpt lat="43.62087" lon="6.51903">
        <ele>643.3</ele>
        <time>2021-02-18T12:55:23Z</time>
      </trkpt>
      <trkpt lat="43.62083" lon="6.51904">
        <ele>643.6</ele>
        <time>2021-02-18T12:55:28Z</time>
      </trkpt>
      <trkpt lat="43.62078" lon="6.51902">
        <ele>643.6</ele>
        <time>2021-02-18T12:55:31Z</time>
      </trkpt>
      <trkpt lat="43.62074" lon="6.519">
        <ele>643.7</ele>
        <time>2021-02-18T12:55:34Z</time>
      </trkpt>
      <trkpt lat="43.62067" lon="6.51896">
        <ele>643.7</ele>
        <time>2021-02-18T12:55:42Z</time>
      </trkpt>
      <trkpt lat="43.62063" lon="6.51894">
        <ele>643.6</ele>
        <time>2021-02-18T12:55:44Z</time>
      </trkpt>
      <trkpt lat="43.62057" lon="6.51892">
        <ele>643.5</ele>
        <time>2021-02-18T12:55:48Z</time>
      </trkpt>
      <trkpt lat="43.62051" lon="6.51891">
        <ele>643.4</ele>
        <time>2021-02-18T12:55:57Z</time>
      </trkpt>
      <trkpt lat="43.62045" lon="6.51888">
        <ele>643.4</ele>
        <time>2021-02-18T12:56:00Z</time>
      </trkpt>
      <trkpt lat="43.62038" lon="6.51883">
        <ele>643.5</ele>
        <time>2021-02-18T12:56:16Z</time>
      </trkpt>
      <trkpt lat="43.62034" lon="6.51881">
        <ele>643.6</ele>
        <time>2021-02-18T12:56:20Z</time>
      </trkpt>
      <trkpt lat="43.62029" lon="6.51885">
        <ele>643.6</ele>
        <time>2021-02-18T12:56:52Z</time>
      </trkpt>
      <trkpt lat="43.62027" lon="6.51891">
        <ele>643.3</ele>
        <time>2021-02-18T12:56:55Z</time>
      </trkpt>
      <trkpt lat="43.62026" lon="6.519">
        <ele>642.8</ele>
        <time>2021-02-18T12:57:09Z</time>
      </trkpt>
      <trkpt lat="43.62026" lon="6.51906">
        <ele>642.8</ele>
        <time>2021-02-18T12:57:12Z</time>
      </trkpt>
      <trkpt lat="43.62027" lon="6.51916">
        <ele>642.6</ele>
        <time>2021-02-18T12:57:31Z</time>
      </trkpt>
      <trkpt lat="43.62027" lon="6.51923">
        <ele>642.5</ele>
        <time>2021-02-18T12:57:33Z</time>
      </trkpt>
      <trkpt lat="43.62029" lon="6.51931">
        <ele>642.3</ele>
        <time>2021-02-18T12:57:36Z</time>
      </trkpt>
      <trkpt lat="43.62029" lon="6.51939">
        <ele>642.1</ele>
        <time>2021-02-18T12:57:39Z</time>
      </trkpt>
      <trkpt lat="43.62028" lon="6.51946">
        <ele>642</ele>
        <time>2021-02-18T12:57:43Z</time>
      </trkpt>
      <trkpt lat="43.62029" lon="6.51958">
        <ele>642.1</ele>
        <time>2021-02-18T12:57:58Z</time>
      </trkpt>
      <trkpt lat="43.62029" lon="6.51965">
        <ele>642.1</ele>
        <time>2021-02-18T12:58:01Z</time>
      </trkpt>
      <trkpt lat="43.62029" lon="6.51974">
        <ele>642.2</ele>
        <time>2021-02-18T12:58:11Z</time>
      </trkpt>
      <trkpt lat="43.62027" lon="6.51982">
        <ele>642.1</ele>
        <time>2021-02-18T12:58:14Z</time>
      </trkpt>
      <trkpt lat="43.62025" lon="6.51991">
        <ele>642</ele>
        <time>2021-02-18T12:58:23Z</time>
      </trkpt>
      <trkpt lat="43.62021" lon="6.51997">
        <ele>641.9</ele>
        <time>2021-02-18T12:58:26Z</time>
      </trkpt>
      <trkpt lat="43.6202" lon="6.52006">
        <ele>641.3</ele>
        <time>2021-02-18T12:58:41Z</time>
      </trkpt>
      <trkpt lat="43.62021" lon="6.52014">
        <ele>641</ele>
        <time>2021-02-18T12:58:44Z</time>
      </trkpt>
      <trkpt lat="43.62015" lon="6.52014">
        <ele>640.5</ele>
        <time>2021-02-18T12:59:07Z</time>
      </trkpt>
      <trkpt lat="43.62011" lon="6.52012">
        <ele>640.6</ele>
        <time>2021-02-18T12:59:15Z</time>
      </trkpt>
      <trkpt lat="43.62006" lon="6.5201">
        <ele>640.8</ele>
        <time>2021-02-18T12:59:22Z</time>
      </trkpt>
      <trkpt lat="43.62001" lon="6.52007">
        <ele>640.9</ele>
        <time>2021-02-18T12:59:25Z</time>
      </trkpt>
      <trkpt lat="43.61995" lon="6.52006">
        <ele>641</ele>
        <time>2021-02-18T12:59:30Z</time>
      </trkpt>
      <trkpt lat="43.6199" lon="6.52005">
        <ele>640.9</ele>
        <time>2021-02-18T12:59:32Z</time>
      </trkpt>
      <trkpt lat="43.61985" lon="6.52004">
        <ele>640.8</ele>
        <time>2021-02-18T12:59:37Z</time>
      </trkpt>
      <trkpt lat="43.61981" lon="6.52002">
        <ele>640.8</ele>
        <time>2021-02-18T12:59:43Z</time>
      </trkpt>
      <trkpt lat="43.61976" lon="6.52">
        <ele>640.8</ele>
        <time>2021-02-18T12:59:46Z</time>
      </trkpt>
      <trkpt lat="43.61969" lon="6.51996">
        <ele>640.7</ele>
        <time>2021-02-18T13:00:00Z</time>
      </trkpt>
      <trkpt lat="43.61965" lon="6.51992">
        <ele>640.5</ele>
        <time>2021-02-18T13:00:03Z</time>
      </trkpt>
      <trkpt lat="43.61959" lon="6.51994">
        <ele>640.5</ele>
        <time>2021-02-18T13:00:22Z</time>
      </trkpt>
      <trkpt lat="43.61955" lon="6.51998">
        <ele>640.8</ele>
        <time>2021-02-18T13:00:25Z</time>
      </trkpt>
      <trkpt lat="43.61948" lon="6.52001">
        <ele>641.8</ele>
        <time>2021-02-18T13:00:37Z</time>
      </trkpt>
      <trkpt lat="43.61943" lon="6.52003">
        <ele>642</ele>
        <time>2021-02-18T13:00:39Z</time>
      </trkpt>
      <trkpt lat="43.61939" lon="6.52005">
        <ele>642.4</ele>
        <time>2021-02-18T13:00:43Z</time>
      </trkpt>
      <trkpt lat="43.61934" lon="6.52008">
        <ele>642.5</ele>
        <time>2021-02-18T13:00:45Z</time>
      </trkpt>
      <trkpt lat="43.6193" lon="6.5201">
        <ele>642.6</ele>
        <time>2021-02-18T13:00:47Z</time>
      </trkpt>
      <trkpt lat="43.61925" lon="6.52013">
        <ele>642.7</ele>
        <time>2021-02-18T13:00:52Z</time>
      </trkpt>
      <trkpt lat="43.6192" lon="6.52015">
        <ele>642.7</ele>
        <time>2021-02-18T13:00:57Z</time>
      </trkpt>
      <trkpt lat="43.61915" lon="6.52018">
        <ele>642.7</ele>
        <time>2021-02-18T13:01:00Z</time>
      </trkpt>
      <trkpt lat="43.6191" lon="6.52021">
        <ele>642.6</ele>
        <time>2021-02-18T13:01:05Z</time>
      </trkpt>
      <trkpt lat="43.61906" lon="6.52025">
        <ele>642.5</ele>
        <time>2021-02-18T13:01:08Z</time>
      </trkpt>
      <trkpt lat="43.619" lon="6.52032">
        <ele>641.4</ele>
        <time>2021-02-18T13:01:22Z</time>
      </trkpt>
      <trkpt lat="43.61898" lon="6.52038">
        <ele>641.1</ele>
        <time>2021-02-18T13:01:25Z</time>
      </trkpt>
      <trkpt lat="43.61893" lon="6.52044">
        <ele>640.4</ele>
        <time>2021-02-18T13:01:35Z</time>
      </trkpt>
      <trkpt lat="43.6189" lon="6.52049">
        <ele>640.4</ele>
        <time>2021-02-18T13:01:38Z</time>
      </trkpt>
      <trkpt lat="43.61886" lon="6.52054">
        <ele>640.5</ele>
        <time>2021-02-18T13:01:44Z</time>
      </trkpt>
      <trkpt lat="43.61883" lon="6.52062">
        <ele>640.5</ele>
        <time>2021-02-18T13:01:48Z</time>
      </trkpt>
      <trkpt lat="43.61881" lon="6.52068">
        <ele>640.4</ele>
        <time>2021-02-18T13:01:51Z</time>
      </trkpt>
      <trkpt lat="43.6188" lon="6.52074">
        <ele>640.4</ele>
        <time>2021-02-18T13:01:54Z</time>
      </trkpt>
      <trkpt lat="43.61876" lon="6.5208">
        <ele>640.3</ele>
        <time>2021-02-18T13:01:58Z</time>
      </trkpt>
      <trkpt lat="43.61872" lon="6.52084">
        <ele>640.1</ele>
        <time>2021-02-18T13:02:04Z</time>
      </trkpt>
      <trkpt lat="43.61869" lon="6.5209">
        <ele>639.9</ele>
        <time>2021-02-18T13:02:11Z</time>
      </trkpt>
      <trkpt lat="43.61865" lon="6.52096">
        <ele>639.7</ele>
        <time>2021-02-18T13:02:14Z</time>
      </trkpt>
      <trkpt lat="43.61862" lon="6.52105">
        <ele>639.2</ele>
        <time>2021-02-18T13:02:25Z</time>
      </trkpt>
      <trkpt lat="43.6186" lon="6.52113">
        <ele>638.9</ele>
        <time>2021-02-18T13:02:28Z</time>
      </trkpt>
      <trkpt lat="43.61856" lon="6.52118">
        <ele>638.5</ele>
        <time>2021-02-18T13:02:32Z</time>
      </trkpt>
      <trkpt lat="43.61852" lon="6.52122">
        <ele>638.3</ele>
        <time>2021-02-18T13:02:36Z</time>
      </trkpt>
      <trkpt lat="43.61849" lon="6.52128">
        <ele>637.8</ele>
        <time>2021-02-18T13:02:44Z</time>
      </trkpt>
      <trkpt lat="43.61847" lon="6.52136">
        <ele>637.6</ele>
        <time>2021-02-18T13:02:47Z</time>
      </trkpt>
      <trkpt lat="43.61845" lon="6.52146">
        <ele>637.2</ele>
        <time>2021-02-18T13:02:59Z</time>
      </trkpt>
      <trkpt lat="43.61842" lon="6.52152">
        <ele>637.1</ele>
        <time>2021-02-18T13:03:02Z</time>
      </trkpt>
      <trkpt lat="43.61836" lon="6.52157">
        <ele>637</ele>
        <time>2021-02-18T13:03:09Z</time>
      </trkpt>
      <trkpt lat="43.61832" lon="6.5216">
        <ele>636.9</ele>
        <time>2021-02-18T13:03:12Z</time>
      </trkpt>
      <trkpt lat="43.61827" lon="6.52164">
        <ele>636.3</ele>
        <time>2021-02-18T13:03:25Z</time>
      </trkpt>
      <trkpt lat="43.61823" lon="6.52168">
        <ele>636.1</ele>
        <time>2021-02-18T13:03:28Z</time>
      </trkpt>
      <trkpt lat="43.61817" lon="6.52172">
        <ele>635.5</ele>
        <time>2021-02-18T13:03:36Z</time>
      </trkpt>
      <trkpt lat="43.61812" lon="6.52175">
        <ele>635.4</ele>
        <time>2021-02-18T13:03:38Z</time>
      </trkpt>
      <trkpt lat="43.61808" lon="6.52184">
        <ele>634.8</ele>
        <time>2021-02-18T13:03:49Z</time>
      </trkpt>
      <trkpt lat="43.61807" lon="6.52192">
        <ele>634.5</ele>
        <time>2021-02-18T13:03:52Z</time>
      </trkpt>
      <trkpt lat="43.61806" lon="6.52201">
        <ele>634</ele>
        <time>2021-02-18T13:03:56Z</time>
      </trkpt>
      <trkpt lat="43.61804" lon="6.52207">
        <ele>633.4</ele>
        <time>2021-02-18T13:03:59Z</time>
      </trkpt>
      <trkpt lat="43.61803" lon="6.5222">
        <ele>632</ele>
        <time>2021-02-18T13:04:14Z</time>
      </trkpt>
      <trkpt lat="43.61802" lon="6.52227">
        <ele>631.8</ele>
        <time>2021-02-18T13:04:17Z</time>
      </trkpt>
      <trkpt lat="43.61797" lon="6.5223">
        <ele>631</ele>
        <time>2021-02-18T13:04:27Z</time>
      </trkpt>
      <trkpt lat="43.61791" lon="6.52231">
        <ele>630.5</ele>
        <time>2021-02-18T13:04:30Z</time>
      </trkpt>
      <trkpt lat="43.61787" lon="6.52239">
        <ele>629.2</ele>
        <time>2021-02-18T13:04:39Z</time>
      </trkpt>
      <trkpt lat="43.61785" lon="6.52245">
        <ele>628.8</ele>
        <time>2021-02-18T13:04:42Z</time>
      </trkpt>
      <trkpt lat="43.6178" lon="6.52248">
        <ele>628.2</ele>
        <time>2021-02-18T13:04:51Z</time>
      </trkpt>
      <trkpt lat="43.61774" lon="6.52249">
        <ele>628.1</ele>
        <time>2021-02-18T13:04:54Z</time>
      </trkpt>
      <trkpt lat="43.61768" lon="6.5225">
        <ele>627.8</ele>
        <time>2021-02-18T13:05:06Z</time>
      </trkpt>
      <trkpt lat="43.61761" lon="6.52252">
        <ele>627.3</ele>
        <time>2021-02-18T13:05:09Z</time>
      </trkpt>
      <trkpt lat="43.61754" lon="6.52255">
        <ele>626.3</ele>
        <time>2021-02-18T13:05:17Z</time>
      </trkpt>
      <trkpt lat="43.61749" lon="6.52257">
        <ele>625.9</ele>
        <time>2021-02-18T13:05:20Z</time>
      </trkpt>
      <trkpt lat="43.61741" lon="6.52259">
        <ele>625</ele>
        <time>2021-02-18T13:05:32Z</time>
      </trkpt>
      <trkpt lat="43.61735" lon="6.52259">
        <ele>624.9</ele>
        <time>2021-02-18T13:05:35Z</time>
      </trkpt>
      <trkpt lat="43.61729" lon="6.52259">
        <ele>624.5</ele>
        <time>2021-02-18T13:05:42Z</time>
      </trkpt>
      <trkpt lat="43.61724" lon="6.52258">
        <ele>624.4</ele>
        <time>2021-02-18T13:05:44Z</time>
      </trkpt>
      <trkpt lat="43.6172" lon="6.52257">
        <ele>624</ele>
        <time>2021-02-18T13:05:50Z</time>
      </trkpt>
      <trkpt lat="43.61715" lon="6.52257">
        <ele>623.8</ele>
        <time>2021-02-18T13:06:01Z</time>
      </trkpt>
      <trkpt lat="43.6171" lon="6.52258">
        <ele>623.8</ele>
        <time>2021-02-18T13:06:04Z</time>
      </trkpt>
      <trkpt lat="43.61703" lon="6.52257">
        <ele>623.7</ele>
        <time>2021-02-18T13:06:15Z</time>
      </trkpt>
      <trkpt lat="43.61698" lon="6.52257">
        <ele>623.7</ele>
        <time>2021-02-18T13:06:18Z</time>
      </trkpt>
      <trkpt lat="43.61692" lon="6.52261">
        <ele>623.7</ele>
        <time>2021-02-18T13:06:36Z</time>
      </trkpt>
      <trkpt lat="43.61688" lon="6.52264">
        <ele>623.8</ele>
        <time>2021-02-18T13:06:39Z</time>
      </trkpt>
      <trkpt lat="43.61682" lon="6.52268">
        <ele>624</ele>
        <time>2021-02-18T13:06:55Z</time>
      </trkpt>
      <trkpt lat="43.61678" lon="6.52271">
        <ele>624.1</ele>
        <time>2021-02-18T13:06:59Z</time>
      </trkpt>
      <trkpt lat="43.61679" lon="6.52264">
        <ele>624.3</ele>
        <time>2021-02-18T13:07:52Z</time>
      </trkpt>
      <trkpt lat="43.61681" lon="6.52258">
        <ele>624.3</ele>
        <time>2021-02-18T13:07:55Z</time>
      </trkpt>
      <trkpt lat="43.61677" lon="6.52253">
        <ele>624.5</ele>
        <time>2021-02-18T13:08:02Z</time>
      </trkpt>
      <trkpt lat="43.61673" lon="6.52251">
        <ele>624.6</ele>
        <time>2021-02-18T13:08:04Z</time>
      </trkpt>
      <trkpt lat="43.6167" lon="6.52246">
        <ele>624.7</ele>
        <time>2021-02-18T13:08:14Z</time>
      </trkpt>
      <trkpt lat="43.61666" lon="6.52243">
        <ele>624.6</ele>
        <time>2021-02-18T13:08:21Z</time>
      </trkpt>
      <trkpt lat="43.61661" lon="6.5224">
        <ele>624.5</ele>
        <time>2021-02-18T13:08:24Z</time>
      </trkpt>
      <trkpt lat="43.61655" lon="6.52235">
        <ele>624.3</ele>
        <time>2021-02-18T13:08:36Z</time>
      </trkpt>
      <trkpt lat="43.61651" lon="6.52232">
        <ele>624.3</ele>
        <time>2021-02-18T13:08:40Z</time>
      </trkpt>
      <trkpt lat="43.61646" lon="6.52231">
        <ele>624.6</ele>
        <time>2021-02-18T13:09:04Z</time>
      </trkpt>
      <trkpt lat="43.61641" lon="6.52233">
        <ele>625.1</ele>
        <time>2021-02-18T13:09:09Z</time>
      </trkpt>
      <trkpt lat="43.61636" lon="6.52232">
        <ele>626.1</ele>
        <time>2021-02-18T13:09:29Z</time>
      </trkpt>
      <trkpt lat="43.6163" lon="6.52231">
        <ele>626.5</ele>
        <time>2021-02-18T13:09:32Z</time>
      </trkpt>
      <trkpt lat="43.61623" lon="6.5223">
        <ele>627.3</ele>
        <time>2021-02-18T13:09:38Z</time>
      </trkpt>
      <trkpt lat="43.61617" lon="6.52229">
        <ele>627.7</ele>
        <time>2021-02-18T13:09:41Z</time>
      </trkpt>
      <trkpt lat="43.61616" lon="6.52222">
        <ele>628.7</ele>
        <time>2021-02-18T13:09:59Z</time>
      </trkpt>
      <trkpt lat="43.61616" lon="6.52216">
        <ele>629.2</ele>
        <time>2021-02-18T13:10:04Z</time>
      </trkpt>
      <trkpt lat="43.61611" lon="6.52214">
        <ele>629.8</ele>
        <time>2021-02-18T13:10:20Z</time>
      </trkpt>
      <trkpt lat="43.61605" lon="6.52213">
        <ele>630</ele>
        <time>2021-02-18T13:10:22Z</time>
      </trkpt>
      <trkpt lat="43.61601" lon="6.52213">
        <ele>630.3</ele>
        <time>2021-02-18T13:10:27Z</time>
      </trkpt>
      <trkpt lat="43.61595" lon="6.52213">
        <ele>630.9</ele>
        <time>2021-02-18T13:10:36Z</time>
      </trkpt>
      <trkpt lat="43.61591" lon="6.52213">
        <ele>631.4</ele>
        <time>2021-02-18T13:10:39Z</time>
      </trkpt>
      <trkpt lat="43.61584" lon="6.52212">
        <ele>632.6</ele>
        <time>2021-02-18T13:10:58Z</time>
      </trkpt>
      <trkpt lat="43.61579" lon="6.52211">
        <ele>633.1</ele>
        <time>2021-02-18T13:11:02Z</time>
      </trkpt>
      <trkpt lat="43.6157" lon="6.52204">
        <ele>633.9</ele>
        <time>2021-02-18T13:11:15Z</time>
      </trkpt>
      <trkpt lat="43.61563" lon="6.52202">
        <ele>633.8</ele>
        <time>2021-02-18T13:11:25Z</time>
      </trkpt>
      <trkpt lat="43.61557" lon="6.52203">
        <ele>633.6</ele>
        <time>2021-02-18T13:11:28Z</time>
      </trkpt>
      <trkpt lat="43.6155" lon="6.52201">
        <ele>633.3</ele>
        <time>2021-02-18T13:11:47Z</time>
      </trkpt>
      <trkpt lat="43.61545" lon="6.52199">
        <ele>633.7</ele>
        <time>2021-02-18T13:11:50Z</time>
      </trkpt>
      <trkpt lat="43.61538" lon="6.52197">
        <ele>634.7</ele>
        <time>2021-02-18T13:12:07Z</time>
      </trkpt>
      <trkpt lat="43.61531" lon="6.52195">
        <ele>635</ele>
        <time>2021-02-18T13:12:10Z</time>
      </trkpt>
      <trkpt lat="43.61525" lon="6.52189">
        <ele>636.1</ele>
        <time>2021-02-18T13:12:26Z</time>
      </trkpt>
      <trkpt lat="43.61519" lon="6.52186">
        <ele>636.6</ele>
        <time>2021-02-18T13:12:29Z</time>
      </trkpt>
      <trkpt lat="43.61512" lon="6.52184">
        <ele>638.3</ele>
        <time>2021-02-18T13:12:41Z</time>
      </trkpt>
      <trkpt lat="43.61506" lon="6.52182">
        <ele>639.3</ele>
        <time>2021-02-18T13:12:44Z</time>
      </trkpt>
      <trkpt lat="43.61499" lon="6.5218">
        <ele>641.2</ele>
        <time>2021-02-18T13:12:57Z</time>
      </trkpt>
      <trkpt lat="43.61494" lon="6.5218">
        <ele>641.3</ele>
        <time>2021-02-18T13:12:59Z</time>
      </trkpt>
      <trkpt lat="43.61489" lon="6.52179">
        <ele>641.6</ele>
        <time>2021-02-18T13:13:04Z</time>
      </trkpt>
      <trkpt lat="43.61484" lon="6.52179">
        <ele>641.4</ele>
        <time>2021-02-18T13:14:31Z</time>
      </trkpt>
      <trkpt lat="43.61479" lon="6.5218">
        <ele>641</ele>
        <time>2021-02-18T13:14:35Z</time>
      </trkpt>
      <trkpt lat="43.61474" lon="6.52184">
        <ele>640.7</ele>
        <time>2021-02-18T13:15:07Z</time>
      </trkpt>
      <trkpt lat="43.6147" lon="6.52188">
        <ele>640.9</ele>
        <time>2021-02-18T13:15:10Z</time>
      </trkpt>
      <trkpt lat="43.61464" lon="6.52193">
        <ele>641.5</ele>
        <time>2021-02-18T13:15:22Z</time>
      </trkpt>
      <trkpt lat="43.61459" lon="6.52197">
        <ele>641.9</ele>
        <time>2021-02-18T13:15:26Z</time>
      </trkpt>
      <trkpt lat="43.61458" lon="6.52204">
        <ele>642.6</ele>
        <time>2021-02-18T13:15:35Z</time>
      </trkpt>
      <trkpt lat="43.61457" lon="6.52211">
        <ele>642.9</ele>
        <time>2021-02-18T13:15:38Z</time>
      </trkpt>
      <trkpt lat="43.61453" lon="6.52218">
        <ele>643.7</ele>
        <time>2021-02-18T13:15:49Z</time>
      </trkpt>
      <trkpt lat="43.61449" lon="6.52223">
        <ele>643.9</ele>
        <time>2021-02-18T13:15:52Z</time>
      </trkpt>
      <trkpt lat="43.61443" lon="6.52226">
        <ele>644.5</ele>
        <time>2021-02-18T13:16:01Z</time>
      </trkpt>
      <trkpt lat="43.61438" lon="6.52225">
        <ele>644.9</ele>
        <time>2021-02-18T13:16:05Z</time>
      </trkpt>
      <trkpt lat="43.61433" lon="6.52223">
        <ele>645.6</ele>
        <time>2021-02-18T13:16:16Z</time>
      </trkpt>
      <trkpt lat="43.61428" lon="6.52221">
        <ele>645.9</ele>
        <time>2021-02-18T13:16:19Z</time>
      </trkpt>
      <trkpt lat="43.61422" lon="6.52218">
        <ele>647.1</ele>
        <time>2021-02-18T13:16:33Z</time>
      </trkpt>
      <trkpt lat="43.61418" lon="6.52215">
        <ele>647.8</ele>
        <time>2021-02-18T13:16:36Z</time>
      </trkpt>
      <trkpt lat="43.61412" lon="6.52209">
        <ele>649.5</ele>
        <time>2021-02-18T13:16:49Z</time>
      </trkpt>
      <trkpt lat="43.61408" lon="6.52205">
        <ele>650</ele>
        <time>2021-02-18T13:16:52Z</time>
      </trkpt>
      <trkpt lat="43.61401" lon="6.52201">
        <ele>650.9</ele>
        <time>2021-02-18T13:17:00Z</time>
      </trkpt>
      <trkpt lat="43.61396" lon="6.52198">
        <ele>651.2</ele>
        <time>2021-02-18T13:17:03Z</time>
      </trkpt>
      <trkpt lat="43.6139" lon="6.52194">
        <ele>652</ele>
        <time>2021-02-18T13:17:15Z</time>
      </trkpt>
      <trkpt lat="43.61385" lon="6.52191">
        <ele>652.4</ele>
        <time>2021-02-18T13:17:18Z</time>
      </trkpt>
      <trkpt lat="43.6138" lon="6.52187">
        <ele>653.4</ele>
        <time>2021-02-18T13:17:33Z</time>
      </trkpt>
      <trkpt lat="43.61375" lon="6.52185">
        <ele>653.8</ele>
        <time>2021-02-18T13:17:36Z</time>
      </trkpt>
      <trkpt lat="43.61368" lon="6.52184">
        <ele>654.9</ele>
        <time>2021-02-18T13:17:46Z</time>
      </trkpt>
      <trkpt lat="43.61363" lon="6.52184">
        <ele>655.2</ele>
        <time>2021-02-18T13:17:48Z</time>
      </trkpt>
      <trkpt lat="43.61361" lon="6.52177">
        <ele>656.3</ele>
        <time>2021-02-18T13:17:58Z</time>
      </trkpt>
      <trkpt lat="43.61361" lon="6.52171">
        <ele>656.7</ele>
        <time>2021-02-18T13:18:02Z</time>
      </trkpt>
      <trkpt lat="43.61358" lon="6.52165">
        <ele>657.3</ele>
        <time>2021-02-18T13:18:14Z</time>
      </trkpt>
      <trkpt lat="43.61354" lon="6.5216">
        <ele>657.4</ele>
        <time>2021-02-18T13:18:17Z</time>
      </trkpt>
      <trkpt lat="43.61348" lon="6.52162">
        <ele>657.9</ele>
        <time>2021-02-18T13:18:31Z</time>
      </trkpt>
      <trkpt lat="43.61343" lon="6.52165">
        <ele>658.5</ele>
        <time>2021-02-18T13:18:35Z</time>
      </trkpt>
      <trkpt lat="43.61339" lon="6.52169">
        <ele>659.3</ele>
        <time>2021-02-18T13:18:47Z</time>
      </trkpt>
      <trkpt lat="43.61334" lon="6.52173">
        <ele>659.4</ele>
        <time>2021-02-18T13:18:49Z</time>
      </trkpt>
      <trkpt lat="43.6133" lon="6.52175">
        <ele>659.7</ele>
        <time>2021-02-18T13:18:52Z</time>
      </trkpt>
      <trkpt lat="43.61324" lon="6.52178">
        <ele>660.2</ele>
        <time>2021-02-18T13:19:06Z</time>
      </trkpt>
      <trkpt lat="43.61319" lon="6.5218">
        <ele>660.7</ele>
        <time>2021-02-18T13:19:10Z</time>
      </trkpt>
      <trkpt lat="43.61319" lon="6.52186">
        <ele>661.6</ele>
        <time>2021-02-18T13:19:43Z</time>
      </trkpt>
      <trkpt lat="43.6132" lon="6.52192">
        <ele>662.1</ele>
        <time>2021-02-18T13:19:47Z</time>
      </trkpt>
      <trkpt lat="43.61325" lon="6.52193">
        <ele>664.8</ele>
        <time>2021-02-18T13:21:07Z</time>
      </trkpt>
      <trkpt lat="43.6133" lon="6.52192">
        <ele>667.6</ele>
        <time>2021-02-18T13:21:13Z</time>
      </trkpt>
      <trkpt lat="43.61323" lon="6.52191">
        <ele>669.9</ele>
        <time>2021-02-18T13:22:00Z</time>
      </trkpt>
      <trkpt lat="43.61319" lon="6.5219">
        <ele>670</ele>
        <time>2021-02-18T13:22:04Z</time>
      </trkpt>
      <trkpt lat="43.61315" lon="6.52194">
        <ele>670.2</ele>
        <time>2021-02-18T13:22:22Z</time>
      </trkpt>
      <trkpt lat="43.61311" lon="6.52199">
        <ele>670.2</ele>
        <time>2021-02-18T13:22:25Z</time>
      </trkpt>
      <trkpt lat="43.6131" lon="6.52207">
        <ele>670.4</ele>
        <time>2021-02-18T13:22:37Z</time>
      </trkpt>
      <trkpt lat="43.6131" lon="6.52214">
        <ele>670.4</ele>
        <time>2021-02-18T13:22:40Z</time>
      </trkpt>
      <trkpt lat="43.6131" lon="6.52223">
        <ele>670.5</ele>
        <time>2021-02-18T13:22:51Z</time>
      </trkpt>
      <trkpt lat="43.61306" lon="6.52228">
        <ele>670.6</ele>
        <time>2021-02-18T13:22:53Z</time>
      </trkpt>
      <trkpt lat="43.613" lon="6.52236">
        <ele>670.8</ele>
        <time>2021-02-18T13:23:06Z</time>
      </trkpt>
      <trkpt lat="43.61298" lon="6.52242">
        <ele>670.9</ele>
        <time>2021-02-18T13:23:10Z</time>
      </trkpt>
      <trkpt lat="43.61299" lon="6.5225">
        <ele>671.3</ele>
        <time>2021-02-18T13:23:21Z</time>
      </trkpt>
      <trkpt lat="43.613" lon="6.52257">
        <ele>671.5</ele>
        <time>2021-02-18T13:23:25Z</time>
      </trkpt>
      <trkpt lat="43.61296" lon="6.52263">
        <ele>671.8</ele>
        <time>2021-02-18T13:23:32Z</time>
      </trkpt>
      <trkpt lat="43.6129" lon="6.52267">
        <ele>671.9</ele>
        <time>2021-02-18T13:23:34Z</time>
      </trkpt>
      <trkpt lat="43.61286" lon="6.52271">
        <ele>672.1</ele>
        <time>2021-02-18T13:23:39Z</time>
      </trkpt>
      <trkpt lat="43.61289" lon="6.52279">
        <ele>672.2</ele>
        <time>2021-02-18T13:23:41Z</time>
      </trkpt>
      <trkpt lat="43.61284" lon="6.52287">
        <ele>672.4</ele>
        <time>2021-02-18T13:23:52Z</time>
      </trkpt>
      <trkpt lat="43.61279" lon="6.52289">
        <ele>672.6</ele>
        <time>2021-02-18T13:23:55Z</time>
      </trkpt>
      <trkpt lat="43.61273" lon="6.52294">
        <ele>673.2</ele>
        <time>2021-02-18T13:24:13Z</time>
      </trkpt>
      <trkpt lat="43.61269" lon="6.52297">
        <ele>673.5</ele>
        <time>2021-02-18T13:24:15Z</time>
      </trkpt>
      <trkpt lat="43.61263" lon="6.52303">
        <ele>674.7</ele>
        <time>2021-02-18T13:24:26Z</time>
      </trkpt>
      <trkpt lat="43.61259" lon="6.52307">
        <ele>675.1</ele>
        <time>2021-02-18T13:24:29Z</time>
      </trkpt>
      <trkpt lat="43.61255" lon="6.52314">
        <ele>676.1</ele>
        <time>2021-02-18T13:24:40Z</time>
      </trkpt>
      <trkpt lat="43.61252" lon="6.52319">
        <ele>676.5</ele>
        <time>2021-02-18T13:24:43Z</time>
      </trkpt>
      <trkpt lat="43.61246" lon="6.52323">
        <ele>676.9</ele>
        <time>2021-02-18T13:24:47Z</time>
      </trkpt>
      <trkpt lat="43.6124" lon="6.52325">
        <ele>677.1</ele>
        <time>2021-02-18T13:24:49Z</time>
      </trkpt>
      <trkpt lat="43.61236" lon="6.52328">
        <ele>677.4</ele>
        <time>2021-02-18T13:24:53Z</time>
      </trkpt>
      <trkpt lat="43.61232" lon="6.52333">
        <ele>677.9</ele>
        <time>2021-02-18T13:25:11Z</time>
      </trkpt>
      <trkpt lat="43.61227" lon="6.52338">
        <ele>677.8</ele>
        <time>2021-02-18T13:25:14Z</time>
      </trkpt>
      <trkpt lat="43.61224" lon="6.52346">
        <ele>677.8</ele>
        <time>2021-02-18T13:25:29Z</time>
      </trkpt>
      <trkpt lat="43.61222" lon="6.52352">
        <ele>677.7</ele>
        <time>2021-02-18T13:25:33Z</time>
      </trkpt>
      <trkpt lat="43.61217" lon="6.52354">
        <ele>677.7</ele>
        <time>2021-02-18T13:25:42Z</time>
      </trkpt>
      <trkpt lat="43.61212" lon="6.52355">
        <ele>677.7</ele>
        <time>2021-02-18T13:25:44Z</time>
      </trkpt>
      <trkpt lat="43.61207" lon="6.52356">
        <ele>677.9</ele>
        <time>2021-02-18T13:25:47Z</time>
      </trkpt>
      <trkpt lat="43.61205" lon="6.52363">
        <ele>678.6</ele>
        <time>2021-02-18T13:26:16Z</time>
      </trkpt>
      <trkpt lat="43.61207" lon="6.5237">
        <ele>679.1</ele>
        <time>2021-02-18T13:26:19Z</time>
      </trkpt>
      <trkpt lat="43.61209" lon="6.5238">
        <ele>679.7</ele>
        <time>2021-02-18T13:26:27Z</time>
      </trkpt>
      <trkpt lat="43.6121" lon="6.52387">
        <ele>679.9</ele>
        <time>2021-02-18T13:26:30Z</time>
      </trkpt>
      <trkpt lat="43.61209" lon="6.52396">
        <ele>680.5</ele>
        <time>2021-02-18T13:26:45Z</time>
      </trkpt>
      <trkpt lat="43.61206" lon="6.52402">
        <ele>680.8</ele>
        <time>2021-02-18T13:26:48Z</time>
      </trkpt>
      <trkpt lat="43.61203" lon="6.52411">
        <ele>681.7</ele>
        <time>2021-02-18T13:26:56Z</time>
      </trkpt>
      <trkpt lat="43.61201" lon="6.52418">
        <ele>682.3</ele>
        <time>2021-02-18T13:26:59Z</time>
      </trkpt>
      <trkpt lat="43.61198" lon="6.52426">
        <ele>683.3</ele>
        <time>2021-02-18T13:27:07Z</time>
      </trkpt>
      <trkpt lat="43.61195" lon="6.52433">
        <ele>683.5</ele>
        <time>2021-02-18T13:27:10Z</time>
      </trkpt>
      <trkpt lat="43.61191" lon="6.5244">
        <ele>683.9</ele>
        <time>2021-02-18T13:27:17Z</time>
      </trkpt>
      <trkpt lat="43.61188" lon="6.52446">
        <ele>684.2</ele>
        <time>2021-02-18T13:27:20Z</time>
      </trkpt>
      <trkpt lat="43.61183" lon="6.52454">
        <ele>684.9</ele>
        <time>2021-02-18T13:27:29Z</time>
      </trkpt>
      <trkpt lat="43.6118" lon="6.5246">
        <ele>685.4</ele>
        <time>2021-02-18T13:27:32Z</time>
      </trkpt>
      <trkpt lat="43.61176" lon="6.52467">
        <ele>686.4</ele>
        <time>2021-02-18T13:27:43Z</time>
      </trkpt>
      <trkpt lat="43.61173" lon="6.52472">
        <ele>686.7</ele>
        <time>2021-02-18T13:27:46Z</time>
      </trkpt>
      <trkpt lat="43.61168" lon="6.52478">
        <ele>687.4</ele>
        <time>2021-02-18T13:27:54Z</time>
      </trkpt>
      <trkpt lat="43.61164" lon="6.52483">
        <ele>687.7</ele>
        <time>2021-02-18T13:27:57Z</time>
      </trkpt>
      <trkpt lat="43.61159" lon="6.5249">
        <ele>688.4</ele>
        <time>2021-02-18T13:28:09Z</time>
      </trkpt>
      <trkpt lat="43.61155" lon="6.52496">
        <ele>688.7</ele>
        <time>2021-02-18T13:28:12Z</time>
      </trkpt>
      <trkpt lat="43.61152" lon="6.52504">
        <ele>689.2</ele>
        <time>2021-02-18T13:28:21Z</time>
      </trkpt>
      <trkpt lat="43.6115" lon="6.52512">
        <ele>689.4</ele>
        <time>2021-02-18T13:28:24Z</time>
      </trkpt>
      <trkpt lat="43.61146" lon="6.5252">
        <ele>690</ele>
        <time>2021-02-18T13:28:35Z</time>
      </trkpt>
      <trkpt lat="43.61143" lon="6.52525">
        <ele>690.3</ele>
        <time>2021-02-18T13:28:38Z</time>
      </trkpt>
      <trkpt lat="43.61137" lon="6.52532">
        <ele>691.2</ele>
        <time>2021-02-18T13:28:50Z</time>
      </trkpt>
      <trkpt lat="43.61132" lon="6.52537">
        <ele>691.6</ele>
        <time>2021-02-18T13:28:53Z</time>
      </trkpt>
      <trkpt lat="43.61129" lon="6.52545">
        <ele>692.8</ele>
        <time>2021-02-18T13:29:08Z</time>
      </trkpt>
      <trkpt lat="43.61127" lon="6.52552">
        <ele>693.3</ele>
        <time>2021-02-18T13:29:11Z</time>
      </trkpt>
      <trkpt lat="43.61127" lon="6.52561">
        <ele>694.8</ele>
        <time>2021-02-18T13:29:20Z</time>
      </trkpt>
      <trkpt lat="43.61128" lon="6.52568">
        <ele>695.7</ele>
        <time>2021-02-18T13:29:23Z</time>
      </trkpt>
      <trkpt lat="43.61125" lon="6.52577">
        <ele>697.3</ele>
        <time>2021-02-18T13:29:34Z</time>
      </trkpt>
      <trkpt lat="43.61123" lon="6.52583">
        <ele>697.9</ele>
        <time>2021-02-18T13:29:38Z</time>
      </trkpt>
      <trkpt lat="43.61119" lon="6.52589">
        <ele>698.7</ele>
        <time>2021-02-18T13:29:48Z</time>
      </trkpt>
      <trkpt lat="43.61115" lon="6.52595">
        <ele>699</ele>
        <time>2021-02-18T13:29:51Z</time>
      </trkpt>
      <trkpt lat="43.61109" lon="6.52602">
        <ele>699.6</ele>
        <time>2021-02-18T13:30:00Z</time>
      </trkpt>
      <trkpt lat="43.61106" lon="6.52607">
        <ele>699.8</ele>
        <time>2021-02-18T13:30:03Z</time>
      </trkpt>
      <trkpt lat="43.61104" lon="6.52615">
        <ele>700.5</ele>
        <time>2021-02-18T13:30:21Z</time>
      </trkpt>
      <trkpt lat="43.61102" lon="6.52622">
        <ele>700.8</ele>
        <time>2021-02-18T13:30:24Z</time>
      </trkpt>
      <trkpt lat="43.61098" lon="6.52629">
        <ele>701.5</ele>
        <time>2021-02-18T13:30:32Z</time>
      </trkpt>
      <trkpt lat="43.61094" lon="6.52634">
        <ele>702</ele>
        <time>2021-02-18T13:30:35Z</time>
      </trkpt>
      <trkpt lat="43.61089" lon="6.5264">
        <ele>703.1</ele>
        <time>2021-02-18T13:30:43Z</time>
      </trkpt>
      <trkpt lat="43.61087" lon="6.52646">
        <ele>703.6</ele>
        <time>2021-02-18T13:30:46Z</time>
      </trkpt>
      <trkpt lat="43.61085" lon="6.52655">
        <ele>704.5</ele>
        <time>2021-02-18T13:30:53Z</time>
      </trkpt>
      <trkpt lat="43.61083" lon="6.52662">
        <ele>704.8</ele>
        <time>2021-02-18T13:30:56Z</time>
      </trkpt>
      <trkpt lat="43.6108" lon="6.5267">
        <ele>705.6</ele>
        <time>2021-02-18T13:31:09Z</time>
      </trkpt>
      <trkpt lat="43.61077" lon="6.52676">
        <ele>706</ele>
        <time>2021-02-18T13:31:12Z</time>
      </trkpt>
      <trkpt lat="43.61073" lon="6.52683">
        <ele>706.2</ele>
        <time>2021-02-18T13:31:16Z</time>
      </trkpt>
      <trkpt lat="43.61069" lon="6.52688">
        <ele>706.3</ele>
        <time>2021-02-18T13:31:18Z</time>
      </trkpt>
      <trkpt lat="43.61066" lon="6.52694">
        <ele>706.4</ele>
        <time>2021-02-18T13:31:21Z</time>
      </trkpt>
      <trkpt lat="43.61061" lon="6.52697">
        <ele>706.4</ele>
        <time>2021-02-18T13:31:24Z</time>
      </trkpt>
      <trkpt lat="43.61057" lon="6.52699">
        <ele>706.6</ele>
        <time>2021-02-18T13:31:27Z</time>
      </trkpt>
      <trkpt lat="43.61051" lon="6.52702">
        <ele>706.7</ele>
        <time>2021-02-18T13:31:31Z</time>
      </trkpt>
      <trkpt lat="43.61047" lon="6.52704">
        <ele>706.9</ele>
        <time>2021-02-18T13:31:35Z</time>
      </trkpt>
      <trkpt lat="43.61049" lon="6.52714">
        <ele>707.5</ele>
        <time>2021-02-18T13:31:46Z</time>
      </trkpt>
      <trkpt lat="43.61053" lon="6.5272">
        <ele>707.7</ele>
        <time>2021-02-18T13:31:49Z</time>
      </trkpt>
      <trkpt lat="43.61051" lon="6.52727">
        <ele>708.3</ele>
        <time>2021-02-18T13:32:01Z</time>
      </trkpt>
      <trkpt lat="43.61046" lon="6.52731">
        <ele>708.4</ele>
        <time>2021-02-18T13:32:03Z</time>
      </trkpt>
      <trkpt lat="43.61041" lon="6.52736">
        <ele>708.9</ele>
        <time>2021-02-18T13:32:07Z</time>
      </trkpt>
      <trkpt lat="43.61037" lon="6.52739">
        <ele>709.1</ele>
        <time>2021-02-18T13:32:10Z</time>
      </trkpt>
      <trkpt lat="43.61032" lon="6.52746">
        <ele>710.4</ele>
        <time>2021-02-18T13:32:31Z</time>
      </trkpt>
      <trkpt lat="43.6103" lon="6.52752">
        <ele>711.7</ele>
        <time>2021-02-18T13:32:36Z</time>
      </trkpt>
      <trkpt lat="43.61028" lon="6.52759">
        <ele>713.2</ele>
        <time>2021-02-18T13:33:23Z</time>
      </trkpt>
      <trkpt lat="43.61024" lon="6.52765">
        <ele>713.4</ele>
        <time>2021-02-18T13:33:26Z</time>
      </trkpt>
      <trkpt lat="43.61018" lon="6.5277">
        <ele>713.9</ele>
        <time>2021-02-18T13:33:40Z</time>
      </trkpt>
      <trkpt lat="43.61013" lon="6.52774">
        <ele>714</ele>
        <time>2021-02-18T13:33:45Z</time>
      </trkpt>
      <trkpt lat="43.61009" lon="6.52777">
        <ele>714.1</ele>
        <time>2021-02-18T13:33:57Z</time>
      </trkpt>
      <trkpt lat="43.61004" lon="6.52779">
        <ele>714.2</ele>
        <time>2021-02-18T13:34:00Z</time>
      </trkpt>
      <trkpt lat="43.60998" lon="6.52783">
        <ele>714.3</ele>
        <time>2021-02-18T13:34:09Z</time>
      </trkpt>
      <trkpt lat="43.60992" lon="6.52787">
        <ele>714.3</ele>
        <time>2021-02-18T13:34:12Z</time>
      </trkpt>
      <trkpt lat="43.60987" lon="6.52789">
        <ele>714.4</ele>
        <time>2021-02-18T13:34:16Z</time>
      </trkpt>
      <trkpt lat="43.60982" lon="6.52792">
        <ele>714.5</ele>
        <time>2021-02-18T13:34:20Z</time>
      </trkpt>
      <trkpt lat="43.60976" lon="6.52796">
        <ele>714.7</ele>
        <time>2021-02-18T13:34:32Z</time>
      </trkpt>
      <trkpt lat="43.60972" lon="6.52799">
        <ele>714.9</ele>
        <time>2021-02-18T13:34:35Z</time>
      </trkpt>
      <trkpt lat="43.60965" lon="6.52802">
        <ele>715.1</ele>
        <time>2021-02-18T13:34:47Z</time>
      </trkpt>
      <trkpt lat="43.60961" lon="6.52805">
        <ele>715.3</ele>
        <time>2021-02-18T13:34:50Z</time>
      </trkpt>
      <trkpt lat="43.60955" lon="6.5281">
        <ele>715.4</ele>
        <time>2021-02-18T13:34:55Z</time>
      </trkpt>
      <trkpt lat="43.60949" lon="6.52815">
        <ele>715.6</ele>
        <time>2021-02-18T13:34:58Z</time>
      </trkpt>
      <trkpt lat="43.60943" lon="6.52821">
        <ele>715.7</ele>
        <time>2021-02-18T13:35:05Z</time>
      </trkpt>
      <trkpt lat="43.6094" lon="6.52826">
        <ele>715.8</ele>
        <time>2021-02-18T13:35:09Z</time>
      </trkpt>
      <trkpt lat="43.60935" lon="6.5283">
        <ele>716.1</ele>
        <time>2021-02-18T13:35:31Z</time>
      </trkpt>
      <trkpt lat="43.60931" lon="6.52832">
        <ele>716.4</ele>
        <time>2021-02-18T13:35:34Z</time>
      </trkpt>
      <trkpt lat="43.60926" lon="6.52838">
        <ele>716.9</ele>
        <time>2021-02-18T13:37:04Z</time>
      </trkpt>
      <trkpt lat="43.60923" lon="6.52843">
        <ele>716.8</ele>
        <time>2021-02-18T13:37:08Z</time>
      </trkpt>
      <trkpt lat="43.60919" lon="6.52848">
        <ele>716.8</ele>
        <time>2021-02-18T13:37:16Z</time>
      </trkpt>
      <trkpt lat="43.60915" lon="6.52853">
        <ele>716.8</ele>
        <time>2021-02-18T13:37:19Z</time>
      </trkpt>
      <trkpt lat="43.60912" lon="6.5286">
        <ele>716.9</ele>
        <time>2021-02-18T13:37:39Z</time>
      </trkpt>
      <trkpt lat="43.60909" lon="6.52866">
        <ele>717</ele>
        <time>2021-02-18T13:37:42Z</time>
      </trkpt>
      <trkpt lat="43.60905" lon="6.52873">
        <ele>717.1</ele>
        <time>2021-02-18T13:37:52Z</time>
      </trkpt>
      <trkpt lat="43.60901" lon="6.52879">
        <ele>717.2</ele>
        <time>2021-02-18T13:37:55Z</time>
      </trkpt>
      <trkpt lat="43.60896" lon="6.52886">
        <ele>717.4</ele>
        <time>2021-02-18T13:38:03Z</time>
      </trkpt>
      <trkpt lat="43.60893" lon="6.5289">
        <ele>717.5</ele>
        <time>2021-02-18T13:38:05Z</time>
      </trkpt>
      <trkpt lat="43.60889" lon="6.52895">
        <ele>717.7</ele>
        <time>2021-02-18T13:38:08Z</time>
      </trkpt>
      <trkpt lat="43.60886" lon="6.529">
        <ele>717.9</ele>
        <time>2021-02-18T13:38:11Z</time>
      </trkpt>
      <trkpt lat="43.60881" lon="6.52905">
        <ele>718.1</ele>
        <time>2021-02-18T13:38:15Z</time>
      </trkpt>
      <trkpt lat="43.60877" lon="6.52908">
        <ele>718.1</ele>
        <time>2021-02-18T13:38:18Z</time>
      </trkpt>
      <trkpt lat="43.60873" lon="6.52913">
        <ele>718.2</ele>
        <time>2021-02-18T13:38:23Z</time>
      </trkpt>
      <trkpt lat="43.60867" lon="6.52916">
        <ele>718.5</ele>
        <time>2021-02-18T13:38:36Z</time>
      </trkpt>
      <trkpt lat="43.60862" lon="6.52917">
        <ele>718.7</ele>
        <time>2021-02-18T13:38:39Z</time>
      </trkpt>
      <trkpt lat="43.60855" lon="6.52918">
        <ele>719.1</ele>
        <time>2021-02-18T13:38:49Z</time>
      </trkpt>
      <trkpt lat="43.60849" lon="6.5292">
        <ele>719.3</ele>
        <time>2021-02-18T13:38:51Z</time>
      </trkpt>
      <trkpt lat="43.60843" lon="6.52921">
        <ele>719.6</ele>
        <time>2021-02-18T13:38:53Z</time>
      </trkpt>
      <trkpt lat="43.60838" lon="6.52921">
        <ele>719.9</ele>
        <time>2021-02-18T13:38:56Z</time>
      </trkpt>
      <trkpt lat="43.60833" lon="6.52921">
        <ele>720.5</ele>
        <time>2021-02-18T13:39:01Z</time>
      </trkpt>
      <trkpt lat="43.60828" lon="6.5292">
        <ele>721.2</ele>
        <time>2021-02-18T13:39:07Z</time>
      </trkpt>
      <trkpt lat="43.60823" lon="6.5292">
        <ele>721.7</ele>
        <time>2021-02-18T13:39:13Z</time>
      </trkpt>
      <trkpt lat="43.60818" lon="6.52921">
        <ele>722.4</ele>
        <time>2021-02-18T13:39:26Z</time>
      </trkpt>
      <trkpt lat="43.60813" lon="6.52922">
        <ele>722.7</ele>
        <time>2021-02-18T13:39:30Z</time>
      </trkpt>
      <trkpt lat="43.60807" lon="6.52921">
        <ele>723.3</ele>
        <time>2021-02-18T13:39:40Z</time>
      </trkpt>
      <trkpt lat="43.60799" lon="6.5292">
        <ele>723.3</ele>
        <time>2021-02-18T13:39:42Z</time>
      </trkpt>
      <trkpt lat="43.60793" lon="6.5292">
        <ele>723.3</ele>
        <time>2021-02-18T13:39:44Z</time>
      </trkpt>
      <trkpt lat="43.60789" lon="6.52922">
        <ele>723.5</ele>
        <time>2021-02-18T13:39:53Z</time>
      </trkpt>
      <trkpt lat="43.60787" lon="6.52916">
        <ele>724.3</ele>
        <time>2021-02-18T13:41:26Z</time>
      </trkpt>
      <trkpt lat="43.60783" lon="6.52911">
        <ele>725.1</ele>
        <time>2021-02-18T13:41:30Z</time>
      </trkpt>
      <trkpt lat="43.60779" lon="6.52907">
        <ele>726.2</ele>
        <time>2021-02-18T13:41:40Z</time>
      </trkpt>
      <trkpt lat="43.60775" lon="6.52904">
        <ele>726.6</ele>
        <time>2021-02-18T13:41:44Z</time>
      </trkpt>
      <trkpt lat="43.6077" lon="6.52901">
        <ele>726.9</ele>
        <time>2021-02-18T13:41:48Z</time>
      </trkpt>
      <trkpt lat="43.60762" lon="6.52897">
        <ele>727.4</ele>
        <time>2021-02-18T13:42:04Z</time>
      </trkpt>
      <trkpt lat="43.60757" lon="6.52895">
        <ele>727.6</ele>
        <time>2021-02-18T13:42:07Z</time>
      </trkpt>
      <trkpt lat="43.60751" lon="6.52893">
        <ele>728.2</ele>
        <time>2021-02-18T13:42:22Z</time>
      </trkpt>
      <trkpt lat="43.60745" lon="6.52891">
        <ele>728.5</ele>
        <time>2021-02-18T13:42:25Z</time>
      </trkpt>
      <trkpt lat="43.60741" lon="6.52889">
        <ele>729</ele>
        <time>2021-02-18T13:42:29Z</time>
      </trkpt>
      <trkpt lat="43.60734" lon="6.52888">
        <ele>730</ele>
        <time>2021-02-18T13:42:38Z</time>
      </trkpt>
      <trkpt lat="43.60729" lon="6.52887">
        <ele>730.9</ele>
        <time>2021-02-18T13:42:42Z</time>
      </trkpt>
      <trkpt lat="43.60724" lon="6.52883">
        <ele>731.9</ele>
        <time>2021-02-18T13:42:46Z</time>
      </trkpt>
      <trkpt lat="43.6072" lon="6.52878">
        <ele>733.2</ele>
        <time>2021-02-18T13:42:51Z</time>
      </trkpt>
      <trkpt lat="43.60715" lon="6.52873">
        <ele>734.3</ele>
        <time>2021-02-18T13:42:56Z</time>
      </trkpt>
      <trkpt lat="43.60712" lon="6.52868">
        <ele>735.2</ele>
        <time>2021-02-18T13:43:01Z</time>
      </trkpt>
      <trkpt lat="43.60708" lon="6.52862">
        <ele>736.3</ele>
        <time>2021-02-18T13:43:11Z</time>
      </trkpt>
      <trkpt lat="43.60705" lon="6.52858">
        <ele>736.4</ele>
        <time>2021-02-18T13:43:13Z</time>
      </trkpt>
      <trkpt lat="43.607" lon="6.52847">
        <ele>737.5</ele>
        <time>2021-02-18T13:43:24Z</time>
      </trkpt>
      <trkpt lat="43.60699" lon="6.52841">
        <ele>737.8</ele>
        <time>2021-02-18T13:43:26Z</time>
      </trkpt>
      <trkpt lat="43.60696" lon="6.52835">
        <ele>738.2</ele>
        <time>2021-02-18T13:43:29Z</time>
      </trkpt>
      <trkpt lat="43.60695" lon="6.52829">
        <ele>738.5</ele>
        <time>2021-02-18T13:43:32Z</time>
      </trkpt>
      <trkpt lat="43.60695" lon="6.52822">
        <ele>738.9</ele>
        <time>2021-02-18T13:43:37Z</time>
      </trkpt>
      <trkpt lat="43.60691" lon="6.52816">
        <ele>739.3</ele>
        <time>2021-02-18T13:43:43Z</time>
      </trkpt>
      <trkpt lat="43.60688" lon="6.52811">
        <ele>739.6</ele>
        <time>2021-02-18T13:43:45Z</time>
      </trkpt>
      <trkpt lat="43.60686" lon="6.52804">
        <ele>740.1</ele>
        <time>2021-02-18T13:43:49Z</time>
      </trkpt>
      <trkpt lat="43.60685" lon="6.52797">
        <ele>740.5</ele>
        <time>2021-02-18T13:43:53Z</time>
      </trkpt>
      <trkpt lat="43.60682" lon="6.52788">
        <ele>741.7</ele>
        <time>2021-02-18T13:44:10Z</time>
      </trkpt>
      <trkpt lat="43.60678" lon="6.52783">
        <ele>742</ele>
        <time>2021-02-18T13:44:12Z</time>
      </trkpt>
      <trkpt lat="43.60675" lon="6.52778">
        <ele>742.6</ele>
        <time>2021-02-18T13:44:19Z</time>
      </trkpt>
      <trkpt lat="43.60674" lon="6.52771">
        <ele>743.5</ele>
        <time>2021-02-18T13:44:25Z</time>
      </trkpt>
      <trkpt lat="43.60674" lon="6.52765">
        <ele>744.1</ele>
        <time>2021-02-18T13:44:28Z</time>
      </trkpt>
      <trkpt lat="43.60674" lon="6.52756">
        <ele>745.5</ele>
        <time>2021-02-18T13:44:39Z</time>
      </trkpt>
      <trkpt lat="43.60673" lon="6.52749">
        <ele>746</ele>
        <time>2021-02-18T13:44:42Z</time>
      </trkpt>
      <trkpt lat="43.60671" lon="6.5274">
        <ele>746.8</ele>
        <time>2021-02-18T13:44:48Z</time>
      </trkpt>
      <trkpt lat="43.6067" lon="6.52734">
        <ele>747.1</ele>
        <time>2021-02-18T13:44:50Z</time>
      </trkpt>
      <trkpt lat="43.60668" lon="6.52728">
        <ele>747.5</ele>
        <time>2021-02-18T13:44:53Z</time>
      </trkpt>
      <trkpt lat="43.60664" lon="6.52722">
        <ele>748.3</ele>
        <time>2021-02-18T13:44:59Z</time>
      </trkpt>
      <trkpt lat="43.6066" lon="6.52717">
        <ele>749.1</ele>
        <time>2021-02-18T13:45:05Z</time>
      </trkpt>
      <trkpt lat="43.60655" lon="6.52717">
        <ele>749.5</ele>
        <time>2021-02-18T13:45:09Z</time>
      </trkpt>
      <trkpt lat="43.6065" lon="6.52716">
        <ele>750</ele>
        <time>2021-02-18T13:45:14Z</time>
      </trkpt>
      <trkpt lat="43.60646" lon="6.52712">
        <ele>750.5</ele>
        <time>2021-02-18T13:45:19Z</time>
      </trkpt>
      <trkpt lat="43.60642" lon="6.52708">
        <ele>751.3</ele>
        <time>2021-02-18T13:45:26Z</time>
      </trkpt>
      <trkpt lat="43.60639" lon="6.52703">
        <ele>751.9</ele>
        <time>2021-02-18T13:45:33Z</time>
      </trkpt>
      <trkpt lat="43.60635" lon="6.52698">
        <ele>752</ele>
        <time>2021-02-18T13:45:35Z</time>
      </trkpt>
      <trkpt lat="43.60631" lon="6.52694">
        <ele>752.3</ele>
        <time>2021-02-18T13:45:38Z</time>
      </trkpt>
      <trkpt lat="43.60627" lon="6.52691">
        <ele>752.5</ele>
        <time>2021-02-18T13:45:42Z</time>
      </trkpt>
      <trkpt lat="43.60623" lon="6.52684">
        <ele>753.1</ele>
        <time>2021-02-18T13:45:54Z</time>
      </trkpt>
      <trkpt lat="43.60621" lon="6.52678">
        <ele>753.4</ele>
        <time>2021-02-18T13:45:57Z</time>
      </trkpt>
      <trkpt lat="43.60619" lon="6.52669">
        <ele>754.3</ele>
        <time>2021-02-18T13:46:10Z</time>
      </trkpt>
      <trkpt lat="43.60618" lon="6.52663">
        <ele>754.4</ele>
        <time>2021-02-18T13:46:12Z</time>
      </trkpt>
      <trkpt lat="43.60615" lon="6.52651">
        <ele>754.7</ele>
        <time>2021-02-18T13:46:20Z</time>
      </trkpt>
      <trkpt lat="43.60614" lon="6.52643">
        <ele>754.5</ele>
        <time>2021-02-18T13:46:23Z</time>
      </trkpt>
      <trkpt lat="43.60616" lon="6.52637">
        <ele>754.2</ele>
        <time>2021-02-18T13:46:28Z</time>
      </trkpt>
      <trkpt lat="43.60622" lon="6.5263">
        <ele>754</ele>
        <time>2021-02-18T13:46:47Z</time>
      </trkpt>
      <trkpt lat="43.60625" lon="6.52625">
        <ele>754.1</ele>
        <time>2021-02-18T13:46:51Z</time>
      </trkpt>
      <trkpt lat="43.60626" lon="6.52618">
        <ele>754.3</ele>
        <time>2021-02-18T13:47:47Z</time>
      </trkpt>
      <trkpt lat="43.60626" lon="6.52611">
        <ele>754.5</ele>
        <time>2021-02-18T13:47:52Z</time>
      </trkpt>
      <trkpt lat="43.60631" lon="6.52612">
        <ele>754.5</ele>
        <time>2021-02-18T13:48:02Z</time>
      </trkpt>
      <trkpt lat="43.60636" lon="6.52613">
        <ele>754.5</ele>
        <time>2021-02-18T13:48:05Z</time>
      </trkpt>
      <trkpt lat="43.60641" lon="6.52609">
        <ele>753.9</ele>
        <time>2021-02-18T13:48:39Z</time>
      </trkpt>
      <trkpt lat="43.60645" lon="6.52605">
        <ele>753.3</ele>
        <time>2021-02-18T13:48:42Z</time>
      </trkpt>
      <trkpt lat="43.60649" lon="6.52597">
        <ele>751.9</ele>
        <time>2021-02-18T13:48:58Z</time>
      </trkpt>
      <trkpt lat="43.60652" lon="6.52592">
        <ele>751.5</ele>
        <time>2021-02-18T13:49:01Z</time>
      </trkpt>
      <trkpt lat="43.60657" lon="6.52585">
        <ele>750.3</ele>
        <time>2021-02-18T13:49:17Z</time>
      </trkpt>
      <trkpt lat="43.6066" lon="6.5258">
        <ele>749.7</ele>
        <time>2021-02-18T13:49:21Z</time>
      </trkpt>
      <trkpt lat="43.60663" lon="6.52574">
        <ele>748.9</ele>
        <time>2021-02-18T13:49:32Z</time>
      </trkpt>
      <trkpt lat="43.60667" lon="6.52568">
        <ele>748.7</ele>
        <time>2021-02-18T13:49:35Z</time>
      </trkpt>
      <trkpt lat="43.60672" lon="6.52562">
        <ele>748.1</ele>
        <time>2021-02-18T13:49:46Z</time>
      </trkpt>
      <trkpt lat="43.60677" lon="6.52557">
        <ele>747.8</ele>
        <time>2021-02-18T13:49:49Z</time>
      </trkpt>
      <trkpt lat="43.60682" lon="6.52549">
        <ele>747.3</ele>
        <time>2021-02-18T13:50:00Z</time>
      </trkpt>
      <trkpt lat="43.60685" lon="6.52544">
        <ele>747.2</ele>
        <time>2021-02-18T13:50:02Z</time>
      </trkpt>
      <trkpt lat="43.60691" lon="6.52536">
        <ele>747.1</ele>
        <time>2021-02-18T13:50:10Z</time>
      </trkpt>
      <trkpt lat="43.60695" lon="6.52531">
        <ele>747.1</ele>
        <time>2021-02-18T13:50:13Z</time>
      </trkpt>
      <trkpt lat="43.60699" lon="6.52523">
        <ele>747.2</ele>
        <time>2021-02-18T13:50:24Z</time>
      </trkpt>
      <trkpt lat="43.60701" lon="6.52518">
        <ele>747.2</ele>
        <time>2021-02-18T13:50:27Z</time>
      </trkpt>
      <trkpt lat="43.60705" lon="6.5251">
        <ele>747</ele>
        <time>2021-02-18T13:50:37Z</time>
      </trkpt>
      <trkpt lat="43.60707" lon="6.52504">
        <ele>746.9</ele>
        <time>2021-02-18T13:50:40Z</time>
      </trkpt>
      <trkpt lat="43.60709" lon="6.52496">
        <ele>746.6</ele>
        <time>2021-02-18T13:50:48Z</time>
      </trkpt>
      <trkpt lat="43.60711" lon="6.52488">
        <ele>746.6</ele>
        <time>2021-02-18T13:50:51Z</time>
      </trkpt>
      <trkpt lat="43.60713" lon="6.52479">
        <ele>746.6</ele>
        <time>2021-02-18T13:51:02Z</time>
      </trkpt>
      <trkpt lat="43.60714" lon="6.52471">
        <ele>746.7</ele>
        <time>2021-02-18T13:51:05Z</time>
      </trkpt>
      <trkpt lat="43.60716" lon="6.5246">
        <ele>747</ele>
        <time>2021-02-18T13:51:19Z</time>
      </trkpt>
      <trkpt lat="43.60717" lon="6.52452">
        <ele>747.2</ele>
        <time>2021-02-18T13:51:22Z</time>
      </trkpt>
      <trkpt lat="43.60718" lon="6.52443">
        <ele>747.4</ele>
        <time>2021-02-18T13:51:32Z</time>
      </trkpt>
      <trkpt lat="43.60719" lon="6.52434">
        <ele>747.5</ele>
        <time>2021-02-18T13:51:34Z</time>
      </trkpt>
      <trkpt lat="43.60721" lon="6.52427">
        <ele>747.9</ele>
        <time>2021-02-18T13:51:38Z</time>
      </trkpt>
      <trkpt lat="43.60721" lon="6.52421">
        <ele>748.7</ele>
        <time>2021-02-18T13:51:45Z</time>
      </trkpt>
      <trkpt lat="43.60723" lon="6.52412">
        <ele>749.4</ele>
        <time>2021-02-18T13:51:58Z</time>
      </trkpt>
      <trkpt lat="43.60725" lon="6.52405">
        <ele>749.7</ele>
        <time>2021-02-18T13:52:01Z</time>
      </trkpt>
      <trkpt lat="43.60727" lon="6.52396">
        <ele>750.7</ele>
        <time>2021-02-18T13:52:12Z</time>
      </trkpt>
      <trkpt lat="43.60728" lon="6.52389">
        <ele>751.2</ele>
        <time>2021-02-18T13:52:15Z</time>
      </trkpt>
      <trkpt lat="43.60728" lon="6.5238">
        <ele>752.2</ele>
        <time>2021-02-18T13:52:27Z</time>
      </trkpt>
      <trkpt lat="43.60727" lon="6.52373">
        <ele>752.6</ele>
        <time>2021-02-18T13:52:30Z</time>
      </trkpt>
      <trkpt lat="43.60728" lon="6.52363">
        <ele>753.2</ele>
        <time>2021-02-18T13:52:39Z</time>
      </trkpt>
      <trkpt lat="43.6073" lon="6.52356">
        <ele>753.4</ele>
        <time>2021-02-18T13:52:41Z</time>
      </trkpt>
      <trkpt lat="43.6073" lon="6.52349">
        <ele>753.7</ele>
        <time>2021-02-18T13:52:44Z</time>
      </trkpt>
      <trkpt lat="43.60731" lon="6.52339">
        <ele>754.6</ele>
        <time>2021-02-18T13:52:56Z</time>
      </trkpt>
      <trkpt lat="43.60731" lon="6.52332">
        <ele>755</ele>
        <time>2021-02-18T13:52:59Z</time>
      </trkpt>
      <trkpt lat="43.60731" lon="6.52325">
        <ele>755.8</ele>
        <time>2021-02-18T13:53:05Z</time>
      </trkpt>
      <trkpt lat="43.60731" lon="6.52318">
        <ele>756.4</ele>
        <time>2021-02-18T13:53:09Z</time>
      </trkpt>
      <trkpt lat="43.60729" lon="6.52311">
        <ele>757</ele>
        <time>2021-02-18T13:53:16Z</time>
      </trkpt>
      <trkpt lat="43.60728" lon="6.52304">
        <ele>757.3</ele>
        <time>2021-02-18T13:53:19Z</time>
      </trkpt>
      <trkpt lat="43.60728" lon="6.52296">
        <ele>758.5</ele>
        <time>2021-02-18T13:53:31Z</time>
      </trkpt>
      <trkpt lat="43.60729" lon="6.52289">
        <ele>759.3</ele>
        <time>2021-02-18T13:53:34Z</time>
      </trkpt>
      <trkpt lat="43.60729" lon="6.52279">
        <ele>760.6</ele>
        <time>2021-02-18T13:53:43Z</time>
      </trkpt>
      <trkpt lat="43.60727" lon="6.52271">
        <ele>760.9</ele>
        <time>2021-02-18T13:53:46Z</time>
      </trkpt>
      <trkpt lat="43.60727" lon="6.52262">
        <ele>761.7</ele>
        <time>2021-02-18T13:53:57Z</time>
      </trkpt>
      <trkpt lat="43.60726" lon="6.52255">
        <ele>762.1</ele>
        <time>2021-02-18T13:54:00Z</time>
      </trkpt>
      <trkpt lat="43.60727" lon="6.52248">
        <ele>763.1</ele>
        <time>2021-02-18T13:54:05Z</time>
      </trkpt>
      <trkpt lat="43.60728" lon="6.5224">
        <ele>764.6</ele>
        <time>2021-02-18T13:54:10Z</time>
      </trkpt>
      <trkpt lat="43.60727" lon="6.52232">
        <ele>766.4</ele>
        <time>2021-02-18T13:54:19Z</time>
      </trkpt>
      <trkpt lat="43.60724" lon="6.52227">
        <ele>767</ele>
        <time>2021-02-18T13:54:22Z</time>
      </trkpt>
      <trkpt lat="43.60722" lon="6.52221">
        <ele>768</ele>
        <time>2021-02-18T13:54:27Z</time>
      </trkpt>
      <trkpt lat="43.60721" lon="6.52213">
        <ele>769</ele>
        <time>2021-02-18T13:54:32Z</time>
      </trkpt>
      <trkpt lat="43.6072" lon="6.52205">
        <ele>770.5</ele>
        <time>2021-02-18T13:54:44Z</time>
      </trkpt>
      <trkpt lat="43.60718" lon="6.52199">
        <ele>771.2</ele>
        <time>2021-02-18T13:54:47Z</time>
      </trkpt>
      <trkpt lat="43.60715" lon="6.52191">
        <ele>772.6</ele>
        <time>2021-02-18T13:54:57Z</time>
      </trkpt>
      <trkpt lat="43.60713" lon="6.52184">
        <ele>773.1</ele>
        <time>2021-02-18T13:55:00Z</time>
      </trkpt>
      <trkpt lat="43.60711" lon="6.52178">
        <ele>774</ele>
        <time>2021-02-18T13:55:05Z</time>
      </trkpt>
      <trkpt lat="43.6071" lon="6.52172">
        <ele>774.9</ele>
        <time>2021-02-18T13:55:09Z</time>
      </trkpt>
      <trkpt lat="43.60707" lon="6.52164">
        <ele>776.3</ele>
        <time>2021-02-18T13:55:22Z</time>
      </trkpt>
      <trkpt lat="43.60704" lon="6.52158">
        <ele>776.8</ele>
        <time>2021-02-18T13:55:25Z</time>
      </trkpt>
      <trkpt lat="43.607" lon="6.52152">
        <ele>777.9</ele>
        <time>2021-02-18T13:55:36Z</time>
      </trkpt>
      <trkpt lat="43.60696" lon="6.52147">
        <ele>778.4</ele>
        <time>2021-02-18T13:55:39Z</time>
      </trkpt>
      <trkpt lat="43.60693" lon="6.52141">
        <ele>779.2</ele>
        <time>2021-02-18T13:55:45Z</time>
      </trkpt>
      <trkpt lat="43.60691" lon="6.52135">
        <ele>779.6</ele>
        <time>2021-02-18T13:55:48Z</time>
      </trkpt>
      <trkpt lat="43.60688" lon="6.5213">
        <ele>780.3</ele>
        <time>2021-02-18T13:55:51Z</time>
      </trkpt>
      <trkpt lat="43.60683" lon="6.52121">
        <ele>781.9</ele>
        <time>2021-02-18T13:56:01Z</time>
      </trkpt>
      <trkpt lat="43.60679" lon="6.52117">
        <ele>782.8</ele>
        <time>2021-02-18T13:56:04Z</time>
      </trkpt>
      <trkpt lat="43.60677" lon="6.52112">
        <ele>783.9</ele>
        <time>2021-02-18T13:56:09Z</time>
      </trkpt>
      <trkpt lat="43.60675" lon="6.52105">
        <ele>784.6</ele>
        <time>2021-02-18T13:56:13Z</time>
      </trkpt>
      <trkpt lat="43.60673" lon="6.52099">
        <ele>785.5</ele>
        <time>2021-02-18T13:56:18Z</time>
      </trkpt>
      <trkpt lat="43.60671" lon="6.52092">
        <ele>786.4</ele>
        <time>2021-02-18T13:56:24Z</time>
      </trkpt>
      <trkpt lat="43.60668" lon="6.52087">
        <ele>787</ele>
        <time>2021-02-18T13:56:29Z</time>
      </trkpt>
      <trkpt lat="43.60666" lon="6.52082">
        <ele>787.6</ele>
        <time>2021-02-18T13:56:35Z</time>
      </trkpt>
      <trkpt lat="43.60662" lon="6.52075">
        <ele>788.4</ele>
        <time>2021-02-18T13:56:46Z</time>
      </trkpt>
      <trkpt lat="43.60659" lon="6.52069">
        <ele>788.9</ele>
        <time>2021-02-18T13:56:49Z</time>
      </trkpt>
      <trkpt lat="43.60657" lon="6.52064">
        <ele>789.4</ele>
        <time>2021-02-18T13:56:53Z</time>
      </trkpt>
      <trkpt lat="43.60655" lon="6.52057">
        <ele>789.9</ele>
        <time>2021-02-18T13:57:01Z</time>
      </trkpt>
      <trkpt lat="43.60655" lon="6.52049">
        <ele>790.2</ele>
        <time>2021-02-18T13:57:04Z</time>
      </trkpt>
      <trkpt lat="43.60654" lon="6.52039">
        <ele>790.9</ele>
        <time>2021-02-18T13:57:14Z</time>
      </trkpt>
      <trkpt lat="43.60654" lon="6.52032">
        <ele>791.2</ele>
        <time>2021-02-18T13:57:17Z</time>
      </trkpt>
      <trkpt lat="43.60654" lon="6.52023">
        <ele>792.1</ele>
        <time>2021-02-18T13:57:28Z</time>
      </trkpt>
      <trkpt lat="43.60654" lon="6.52017">
        <ele>792.5</ele>
        <time>2021-02-18T13:57:31Z</time>
      </trkpt>
      <trkpt lat="43.60656" lon="6.52008">
        <ele>793.6</ele>
        <time>2021-02-18T13:57:43Z</time>
      </trkpt>
      <trkpt lat="43.60658" lon="6.52002">
        <ele>794</ele>
        <time>2021-02-18T13:57:46Z</time>
      </trkpt>
      <trkpt lat="43.60662" lon="6.51994">
        <ele>795</ele>
        <time>2021-02-18T13:57:57Z</time>
      </trkpt>
      <trkpt lat="43.60665" lon="6.51988">
        <ele>795.4</ele>
        <time>2021-02-18T13:58:00Z</time>
      </trkpt>
      <trkpt lat="43.60669" lon="6.51981">
        <ele>796.6</ele>
        <time>2021-02-18T13:58:11Z</time>
      </trkpt>
      <trkpt lat="43.60672" lon="6.51973">
        <ele>797.1</ele>
        <time>2021-02-18T13:58:14Z</time>
      </trkpt>
      <trkpt lat="43.60676" lon="6.51964">
        <ele>798.5</ele>
        <time>2021-02-18T13:58:28Z</time>
      </trkpt>
      <trkpt lat="43.60679" lon="6.51959">
        <ele>798.9</ele>
        <time>2021-02-18T13:58:32Z</time>
      </trkpt>
      <trkpt lat="43.60681" lon="6.51952">
        <ele>800.1</ele>
        <time>2021-02-18T14:02:14Z</time>
      </trkpt>
      <trkpt lat="43.60679" lon="6.51946">
        <ele>800.8</ele>
        <time>2021-02-18T14:02:18Z</time>
      </trkpt>
      <trkpt lat="43.60679" lon="6.51938">
        <ele>801.9</ele>
        <time>2021-02-18T14:02:33Z</time>
      </trkpt>
      <trkpt lat="43.6068" lon="6.51932">
        <ele>802.3</ele>
        <time>2021-02-18T14:02:36Z</time>
      </trkpt>
      <trkpt lat="43.60681" lon="6.51923">
        <ele>803.2</ele>
        <time>2021-02-18T14:02:47Z</time>
      </trkpt>
      <trkpt lat="43.60681" lon="6.51915">
        <ele>803.4</ele>
        <time>2021-02-18T14:02:50Z</time>
      </trkpt>
      <trkpt lat="43.60681" lon="6.51905">
        <ele>803.9</ele>
        <time>2021-02-18T14:02:58Z</time>
      </trkpt>
      <trkpt lat="43.60682" lon="6.51898">
        <ele>804.1</ele>
        <time>2021-02-18T14:03:01Z</time>
      </trkpt>
      <trkpt lat="43.60685" lon="6.5189">
        <ele>804.5</ele>
        <time>2021-02-18T14:03:13Z</time>
      </trkpt>
      <trkpt lat="43.60688" lon="6.51885">
        <ele>804.7</ele>
        <time>2021-02-18T14:03:16Z</time>
      </trkpt>
      <trkpt lat="43.60693" lon="6.51879">
        <ele>805</ele>
        <time>2021-02-18T14:03:25Z</time>
      </trkpt>
      <trkpt lat="43.60697" lon="6.51873">
        <ele>805.1</ele>
        <time>2021-02-18T14:03:28Z</time>
      </trkpt>
      <trkpt lat="43.60701" lon="6.51866">
        <ele>805.4</ele>
        <time>2021-02-18T14:03:37Z</time>
      </trkpt>
      <trkpt lat="43.60704" lon="6.51861">
        <ele>805.6</ele>
        <time>2021-02-18T14:03:40Z</time>
      </trkpt>
      <trkpt lat="43.60706" lon="6.51853">
        <ele>806</ele>
        <time>2021-02-18T14:03:49Z</time>
      </trkpt>
      <trkpt lat="43.60709" lon="6.51847">
        <ele>806.2</ele>
        <time>2021-02-18T14:03:52Z</time>
      </trkpt>
      <trkpt lat="43.6071" lon="6.5184">
        <ele>806.5</ele>
        <time>2021-02-18T14:03:56Z</time>
      </trkpt>
      <trkpt lat="43.60711" lon="6.51834">
        <ele>806.7</ele>
        <time>2021-02-18T14:04:00Z</time>
      </trkpt>
      <trkpt lat="43.60715" lon="6.51828">
        <ele>806.6</ele>
        <time>2021-02-18T14:04:03Z</time>
      </trkpt>
      <trkpt lat="43.60717" lon="6.51823">
        <ele>806.6</ele>
        <time>2021-02-18T14:04:06Z</time>
      </trkpt>
      <trkpt lat="43.60718" lon="6.51816">
        <ele>806.6</ele>
        <time>2021-02-18T14:04:11Z</time>
      </trkpt>
      <trkpt lat="43.60719" lon="6.5181">
        <ele>806.9</ele>
        <time>2021-02-18T14:04:17Z</time>
      </trkpt>
      <trkpt lat="43.6072" lon="6.51801">
        <ele>807.3</ele>
        <time>2021-02-18T14:04:28Z</time>
      </trkpt>
      <trkpt lat="43.60721" lon="6.51795">
        <ele>807.6</ele>
        <time>2021-02-18T14:04:31Z</time>
      </trkpt>
      <trkpt lat="43.60723" lon="6.51786">
        <ele>808.3</ele>
        <time>2021-02-18T14:04:43Z</time>
      </trkpt>
      <trkpt lat="43.60725" lon="6.5178">
        <ele>808.6</ele>
        <time>2021-02-18T14:04:46Z</time>
      </trkpt>
      <trkpt lat="43.60727" lon="6.51771">
        <ele>809.6</ele>
        <time>2021-02-18T14:04:58Z</time>
      </trkpt>
      <trkpt lat="43.60728" lon="6.51764">
        <ele>809.9</ele>
        <time>2021-02-18T14:05:01Z</time>
      </trkpt>
      <trkpt lat="43.60732" lon="6.51755">
        <ele>810.6</ele>
        <time>2021-02-18T14:05:12Z</time>
      </trkpt>
      <trkpt lat="43.60734" lon="6.51748">
        <ele>810.7</ele>
        <time>2021-02-18T14:05:15Z</time>
      </trkpt>
      <trkpt lat="43.60735" lon="6.51739">
        <ele>811</ele>
        <time>2021-02-18T14:05:25Z</time>
      </trkpt>
      <trkpt lat="43.60736" lon="6.51732">
        <ele>811.1</ele>
        <time>2021-02-18T14:05:28Z</time>
      </trkpt>
      <trkpt lat="43.60736" lon="6.51723">
        <ele>811.5</ele>
        <time>2021-02-18T14:05:38Z</time>
      </trkpt>
      <trkpt lat="43.60736" lon="6.51715">
        <ele>811.7</ele>
        <time>2021-02-18T14:05:41Z</time>
      </trkpt>
      <trkpt lat="43.60736" lon="6.51706">
        <ele>812.2</ele>
        <time>2021-02-18T14:05:51Z</time>
      </trkpt>
      <trkpt lat="43.60736" lon="6.51698">
        <ele>812.4</ele>
        <time>2021-02-18T14:05:54Z</time>
      </trkpt>
      <trkpt lat="43.60736" lon="6.5169">
        <ele>812.8</ele>
        <time>2021-02-18T14:05:58Z</time>
      </trkpt>
      <trkpt lat="43.60735" lon="6.51684">
        <ele>813.1</ele>
        <time>2021-02-18T14:06:02Z</time>
      </trkpt>
      <trkpt lat="43.60735" lon="6.51678">
        <ele>813.5</ele>
        <time>2021-02-18T14:06:08Z</time>
      </trkpt>
      <trkpt lat="43.60736" lon="6.51671">
        <ele>813.4</ele>
        <time>2021-02-18T14:06:12Z</time>
      </trkpt>
      <trkpt lat="43.60735" lon="6.51658">
        <ele>813.3</ele>
        <time>2021-02-18T14:06:24Z</time>
      </trkpt>
      <trkpt lat="43.60735" lon="6.51652">
        <ele>813.3</ele>
        <time>2021-02-18T14:06:26Z</time>
      </trkpt>
      <trkpt lat="43.60733" lon="6.51644">
        <ele>813.3</ele>
        <time>2021-02-18T14:06:29Z</time>
      </trkpt>
      <trkpt lat="43.60731" lon="6.51638">
        <ele>813.3</ele>
        <time>2021-02-18T14:06:33Z</time>
      </trkpt>
      <trkpt lat="43.60728" lon="6.51631">
        <ele>813.5</ele>
        <time>2021-02-18T14:06:38Z</time>
      </trkpt>
      <trkpt lat="43.60727" lon="6.51625">
        <ele>813.6</ele>
        <time>2021-02-18T14:06:43Z</time>
      </trkpt>
      <trkpt lat="43.60725" lon="6.51617">
        <ele>813.8</ele>
        <time>2021-02-18T14:06:54Z</time>
      </trkpt>
      <trkpt lat="43.60723" lon="6.51609">
        <ele>813.9</ele>
        <time>2021-02-18T14:06:57Z</time>
      </trkpt>
      <trkpt lat="43.60721" lon="6.51601">
        <ele>814.1</ele>
        <time>2021-02-18T14:07:01Z</time>
      </trkpt>
      <trkpt lat="43.60722" lon="6.51595">
        <ele>814.4</ele>
        <time>2021-02-18T14:07:06Z</time>
      </trkpt>
      <trkpt lat="43.60723" lon="6.51588">
        <ele>814.6</ele>
        <time>2021-02-18T14:07:11Z</time>
      </trkpt>
      <trkpt lat="43.60724" lon="6.51579">
        <ele>814.6</ele>
        <time>2021-02-18T14:07:16Z</time>
      </trkpt>
      <trkpt lat="43.60726" lon="6.51572">
        <ele>814.5</ele>
        <time>2021-02-18T14:07:20Z</time>
      </trkpt>
      <trkpt lat="43.60727" lon="6.51566">
        <ele>814.5</ele>
        <time>2021-02-18T14:07:24Z</time>
      </trkpt>
      <trkpt lat="43.60728" lon="6.51559">
        <ele>814.7</ele>
        <time>2021-02-18T14:07:29Z</time>
      </trkpt>
      <trkpt lat="43.60729" lon="6.51552">
        <ele>815.1</ele>
        <time>2021-02-18T14:07:34Z</time>
      </trkpt>
      <trkpt lat="43.60728" lon="6.51546">
        <ele>815.8</ele>
        <time>2021-02-18T14:07:41Z</time>
      </trkpt>
      <trkpt lat="43.60727" lon="6.5154">
        <ele>816.2</ele>
        <time>2021-02-18T14:07:44Z</time>
      </trkpt>
      <trkpt lat="43.60726" lon="6.51533">
        <ele>816.6</ele>
        <time>2021-02-18T14:07:48Z</time>
      </trkpt>
      <trkpt lat="43.60727" lon="6.51526">
        <ele>817.5</ele>
        <time>2021-02-18T14:07:52Z</time>
      </trkpt>
      <trkpt lat="43.60726" lon="6.51514">
        <ele>819.1</ele>
        <time>2021-02-18T14:08:04Z</time>
      </trkpt>
      <trkpt lat="43.60724" lon="6.51506">
        <ele>819.5</ele>
        <time>2021-02-18T14:08:07Z</time>
      </trkpt>
      <trkpt lat="43.60726" lon="6.51497">
        <ele>820.3</ele>
        <time>2021-02-18T14:08:19Z</time>
      </trkpt>
      <trkpt lat="43.60726" lon="6.5149">
        <ele>820.5</ele>
        <time>2021-02-18T14:08:21Z</time>
      </trkpt>
      <trkpt lat="43.60729" lon="6.5148">
        <ele>821</ele>
        <time>2021-02-18T14:08:28Z</time>
      </trkpt>
      <trkpt lat="43.6073" lon="6.51472">
        <ele>820.9</ele>
        <time>2021-02-18T14:08:31Z</time>
      </trkpt>
      <trkpt lat="43.60732" lon="6.51465">
        <ele>821.1</ele>
        <time>2021-02-18T14:08:34Z</time>
      </trkpt>
      <trkpt lat="43.60734" lon="6.51459">
        <ele>821.2</ele>
        <time>2021-02-18T14:08:37Z</time>
      </trkpt>
      <trkpt lat="43.60737" lon="6.51453">
        <ele>821.2</ele>
        <time>2021-02-18T14:08:40Z</time>
      </trkpt>
      <trkpt lat="43.60738" lon="6.51447">
        <ele>821.2</ele>
        <time>2021-02-18T14:08:43Z</time>
      </trkpt>
      <trkpt lat="43.60738" lon="6.51439">
        <ele>821.2</ele>
        <time>2021-02-18T14:08:47Z</time>
      </trkpt>
      <trkpt lat="43.60739" lon="6.51432">
        <ele>821.2</ele>
        <time>2021-02-18T14:08:52Z</time>
      </trkpt>
      <trkpt lat="43.60739" lon="6.51425">
        <ele>821.4</ele>
        <time>2021-02-18T14:08:57Z</time>
      </trkpt>
      <trkpt lat="43.60738" lon="6.51419">
        <ele>821.9</ele>
        <time>2021-02-18T14:09:03Z</time>
      </trkpt>
      <trkpt lat="43.60739" lon="6.51406">
        <ele>823.4</ele>
        <time>2021-02-18T14:09:18Z</time>
      </trkpt>
      <trkpt lat="43.6074" lon="6.51399">
        <ele>823.7</ele>
        <time>2021-02-18T14:09:21Z</time>
      </trkpt>
      <trkpt lat="43.60743" lon="6.51392">
        <ele>824.2</ele>
        <time>2021-02-18T14:09:26Z</time>
      </trkpt>
      <trkpt lat="43.60745" lon="6.51386">
        <ele>824.5</ele>
        <time>2021-02-18T14:09:29Z</time>
      </trkpt>
      <trkpt lat="43.60746" lon="6.51379">
        <ele>824.9</ele>
        <time>2021-02-18T14:09:34Z</time>
      </trkpt>
      <trkpt lat="43.60747" lon="6.51371">
        <ele>825.3</ele>
        <time>2021-02-18T14:09:38Z</time>
      </trkpt>
      <trkpt lat="43.60747" lon="6.51365">
        <ele>825.6</ele>
        <time>2021-02-18T14:09:41Z</time>
      </trkpt>
      <trkpt lat="43.60748" lon="6.51358">
        <ele>825.9</ele>
        <time>2021-02-18T14:09:45Z</time>
      </trkpt>
      <trkpt lat="43.6075" lon="6.51351">
        <ele>826.2</ele>
        <time>2021-02-18T14:09:49Z</time>
      </trkpt>
      <trkpt lat="43.6075" lon="6.51344">
        <ele>826.4</ele>
        <time>2021-02-18T14:09:54Z</time>
      </trkpt>
      <trkpt lat="43.60751" lon="6.51337">
        <ele>826.9</ele>
        <time>2021-02-18T14:10:00Z</time>
      </trkpt>
      <trkpt lat="43.60751" lon="6.51329">
        <ele>827.5</ele>
        <time>2021-02-18T14:10:10Z</time>
      </trkpt>
      <trkpt lat="43.60751" lon="6.51322">
        <ele>827.6</ele>
        <time>2021-02-18T14:10:12Z</time>
      </trkpt>
      <trkpt lat="43.60751" lon="6.51315">
        <ele>827.9</ele>
        <time>2021-02-18T14:10:15Z</time>
      </trkpt>
      <trkpt lat="43.60751" lon="6.51308">
        <ele>828.2</ele>
        <time>2021-02-18T14:10:19Z</time>
      </trkpt>
      <trkpt lat="43.60752" lon="6.51301">
        <ele>828.4</ele>
        <time>2021-02-18T14:10:24Z</time>
      </trkpt>
      <trkpt lat="43.60753" lon="6.51294">
        <ele>828.6</ele>
        <time>2021-02-18T14:10:30Z</time>
      </trkpt>
      <trkpt lat="43.60754" lon="6.51287">
        <ele>828.4</ele>
        <time>2021-02-18T14:10:33Z</time>
      </trkpt>
      <trkpt lat="43.60754" lon="6.5128">
        <ele>828.2</ele>
        <time>2021-02-18T14:10:38Z</time>
      </trkpt>
      <trkpt lat="43.60755" lon="6.51273">
        <ele>828</ele>
        <time>2021-02-18T14:10:45Z</time>
      </trkpt>
      <trkpt lat="43.60756" lon="6.51266">
        <ele>828</ele>
        <time>2021-02-18T14:10:48Z</time>
      </trkpt>
      <trkpt lat="43.60756" lon="6.51258">
        <ele>828</ele>
        <time>2021-02-18T14:10:54Z</time>
      </trkpt>
      <trkpt lat="43.60757" lon="6.51252">
        <ele>827.9</ele>
        <time>2021-02-18T14:10:57Z</time>
      </trkpt>
      <trkpt lat="43.6076" lon="6.51247">
        <ele>827.7</ele>
        <time>2021-02-18T14:11:01Z</time>
      </trkpt>
      <trkpt lat="43.6076" lon="6.51239">
        <ele>827.7</ele>
        <time>2021-02-18T14:11:07Z</time>
      </trkpt>
      <trkpt lat="43.60759" lon="6.51232">
        <ele>827.7</ele>
        <time>2021-02-18T14:11:11Z</time>
      </trkpt>
      <trkpt lat="43.60757" lon="6.51225">
        <ele>827.7</ele>
        <time>2021-02-18T14:11:15Z</time>
      </trkpt>
      <trkpt lat="43.60756" lon="6.51218">
        <ele>827.9</ele>
        <time>2021-02-18T14:11:20Z</time>
      </trkpt>
      <trkpt lat="43.60754" lon="6.51211">
        <ele>827.9</ele>
        <time>2021-02-18T14:11:24Z</time>
      </trkpt>
      <trkpt lat="43.60751" lon="6.51206">
        <ele>827.9</ele>
        <time>2021-02-18T14:11:33Z</time>
      </trkpt>
      <trkpt lat="43.60746" lon="6.51205">
        <ele>827.4</ele>
        <time>2021-02-18T14:13:06Z</time>
      </trkpt>
      <trkpt lat="43.60741" lon="6.51204">
        <ele>827.1</ele>
        <time>2021-02-18T14:13:08Z</time>
      </trkpt>
      <trkpt lat="43.60734" lon="6.51209">
        <ele>825.6</ele>
        <time>2021-02-18T14:14:36Z</time>
      </trkpt>
      <trkpt lat="43.6073" lon="6.51213">
        <ele>825.2</ele>
        <time>2021-02-18T14:14:40Z</time>
      </trkpt>
      <trkpt lat="43.60725" lon="6.51218">
        <ele>824.2</ele>
        <time>2021-02-18T14:15:45Z</time>
      </trkpt>
      <trkpt lat="43.60721" lon="6.51222">
        <ele>823.8</ele>
        <time>2021-02-18T14:15:48Z</time>
      </trkpt>
      <trkpt lat="43.60726" lon="6.51217">
        <ele>822.2</ele>
        <time>2021-02-18T14:16:37Z</time>
      </trkpt>
      <trkpt lat="43.60733" lon="6.51212">
        <ele>821.6</ele>
        <time>2021-02-18T14:16:48Z</time>
      </trkpt>
      <trkpt lat="43.60737" lon="6.51208">
        <ele>821.4</ele>
        <time>2021-02-18T14:16:50Z</time>
      </trkpt>
      <trkpt lat="43.60742" lon="6.51202">
        <ele>821.2</ele>
        <time>2021-02-18T14:16:52Z</time>
      </trkpt>
      <trkpt lat="43.60746" lon="6.51199">
        <ele>820.9</ele>
        <time>2021-02-18T14:16:55Z</time>
      </trkpt>
      <trkpt lat="43.6075" lon="6.51197">
        <ele>820.5</ele>
        <time>2021-02-18T14:17:00Z</time>
      </trkpt>
      <trkpt lat="43.60756" lon="6.51196">
        <ele>819.8</ele>
        <time>2021-02-18T14:17:13Z</time>
      </trkpt>
      <trkpt lat="43.60761" lon="6.51195">
        <ele>819.4</ele>
        <time>2021-02-18T14:17:17Z</time>
      </trkpt>
      <trkpt lat="43.60765" lon="6.5119">
        <ele>818.9</ele>
        <time>2021-02-18T14:17:27Z</time>
      </trkpt>
      <trkpt lat="43.60767" lon="6.51184">
        <ele>818.7</ele>
        <time>2021-02-18T14:17:30Z</time>
      </trkpt>
      <trkpt lat="43.6077" lon="6.51178">
        <ele>818.4</ele>
        <time>2021-02-18T14:17:35Z</time>
      </trkpt>
      <trkpt lat="43.60775" lon="6.51169">
        <ele>817.8</ele>
        <time>2021-02-18T14:17:54Z</time>
      </trkpt>
      <trkpt lat="43.60778" lon="6.51164">
        <ele>817.6</ele>
        <time>2021-02-18T14:17:57Z</time>
      </trkpt>
      <trkpt lat="43.60783" lon="6.51157">
        <ele>817.2</ele>
        <time>2021-02-18T14:18:08Z</time>
      </trkpt>
      <trkpt lat="43.60787" lon="6.51153">
        <ele>816.9</ele>
        <time>2021-02-18T14:18:11Z</time>
      </trkpt>
      <trkpt lat="43.60791" lon="6.51147">
        <ele>816.3</ele>
        <time>2021-02-18T14:18:19Z</time>
      </trkpt>
      <trkpt lat="43.60794" lon="6.51141">
        <ele>815.9</ele>
        <time>2021-02-18T14:18:22Z</time>
      </trkpt>
      <trkpt lat="43.60799" lon="6.51133">
        <ele>815.2</ele>
        <time>2021-02-18T14:18:32Z</time>
      </trkpt>
      <trkpt lat="43.60801" lon="6.51127">
        <ele>814.9</ele>
        <time>2021-02-18T14:18:35Z</time>
      </trkpt>
      <trkpt lat="43.60804" lon="6.51122">
        <ele>814.4</ele>
        <time>2021-02-18T14:18:39Z</time>
      </trkpt>
      <trkpt lat="43.60808" lon="6.51115">
        <ele>813.6</ele>
        <time>2021-02-18T14:18:46Z</time>
      </trkpt>
      <trkpt lat="43.60811" lon="6.5111">
        <ele>813.2</ele>
        <time>2021-02-18T14:18:50Z</time>
      </trkpt>
      <trkpt lat="43.60814" lon="6.51104">
        <ele>812.5</ele>
        <time>2021-02-18T14:18:55Z</time>
      </trkpt>
      <trkpt lat="43.60815" lon="6.51098">
        <ele>812</ele>
        <time>2021-02-18T14:18:58Z</time>
      </trkpt>
      <trkpt lat="43.60817" lon="6.51092">
        <ele>811.6</ele>
        <time>2021-02-18T14:19:01Z</time>
      </trkpt>
      <trkpt lat="43.6082" lon="6.51087">
        <ele>810.8</ele>
        <time>2021-02-18T14:19:06Z</time>
      </trkpt>
      <trkpt lat="43.60825" lon="6.5108">
        <ele>810.1</ele>
        <time>2021-02-18T14:19:15Z</time>
      </trkpt>
      <trkpt lat="43.60828" lon="6.51076">
        <ele>810</ele>
        <time>2021-02-18T14:19:18Z</time>
      </trkpt>
      <trkpt lat="43.60833" lon="6.51074">
        <ele>809.8</ele>
        <time>2021-02-18T14:19:23Z</time>
      </trkpt>
      <trkpt lat="43.60837" lon="6.51068">
        <ele>809.5</ele>
        <time>2021-02-18T14:19:30Z</time>
      </trkpt>
      <trkpt lat="43.6084" lon="6.51064">
        <ele>809.2</ele>
        <time>2021-02-18T14:19:35Z</time>
      </trkpt>
      <trkpt lat="43.60844" lon="6.5106">
        <ele>809.1</ele>
        <time>2021-02-18T14:19:37Z</time>
      </trkpt>
      <trkpt lat="43.60847" lon="6.51055">
        <ele>809</ele>
        <time>2021-02-18T14:19:41Z</time>
      </trkpt>
      <trkpt lat="43.6085" lon="6.51049">
        <ele>808.8</ele>
        <time>2021-02-18T14:19:46Z</time>
      </trkpt>
      <trkpt lat="43.60852" lon="6.51042">
        <ele>808.5</ele>
        <time>2021-02-18T14:19:51Z</time>
      </trkpt>
      <trkpt lat="43.60854" lon="6.51036">
        <ele>808.3</ele>
        <time>2021-02-18T14:19:55Z</time>
      </trkpt>
      <trkpt lat="43.60857" lon="6.51031">
        <ele>808.1</ele>
        <time>2021-02-18T14:20:00Z</time>
      </trkpt>
      <trkpt lat="43.6086" lon="6.51024">
        <ele>807.7</ele>
        <time>2021-02-18T14:20:07Z</time>
      </trkpt>
      <trkpt lat="43.60863" lon="6.5102">
        <ele>807.4</ele>
        <time>2021-02-18T14:20:11Z</time>
      </trkpt>
      <trkpt lat="43.60866" lon="6.51012">
        <ele>807</ele>
        <time>2021-02-18T14:20:21Z</time>
      </trkpt>
      <trkpt lat="43.60867" lon="6.51006">
        <ele>806.9</ele>
        <time>2021-02-18T14:20:24Z</time>
      </trkpt>
      <trkpt lat="43.6087" lon="6.50998">
        <ele>806.8</ele>
        <time>2021-02-18T14:20:36Z</time>
      </trkpt>
      <trkpt lat="43.60873" lon="6.5099">
        <ele>806.7</ele>
        <time>2021-02-18T14:20:39Z</time>
      </trkpt>
      <trkpt lat="43.60875" lon="6.50981">
        <ele>806.6</ele>
        <time>2021-02-18T14:20:47Z</time>
      </trkpt>
      <trkpt lat="43.60878" lon="6.50974">
        <ele>806.5</ele>
        <time>2021-02-18T14:20:50Z</time>
      </trkpt>
      <trkpt lat="43.6088" lon="6.50965">
        <ele>806.4</ele>
        <time>2021-02-18T14:20:58Z</time>
      </trkpt>
      <trkpt lat="43.60881" lon="6.50959">
        <ele>806.5</ele>
        <time>2021-02-18T14:21:00Z</time>
      </trkpt>
      <trkpt lat="43.60883" lon="6.50951">
        <ele>806.6</ele>
        <time>2021-02-18T14:21:03Z</time>
      </trkpt>
      <trkpt lat="43.60884" lon="6.50944">
        <ele>806.7</ele>
        <time>2021-02-18T14:21:07Z</time>
      </trkpt>
      <trkpt lat="43.60884" lon="6.50938">
        <ele>806.9</ele>
        <time>2021-02-18T14:21:13Z</time>
      </trkpt>
      <trkpt lat="43.60884" lon="6.50931">
        <ele>807</ele>
        <time>2021-02-18T14:21:16Z</time>
      </trkpt>
      <trkpt lat="43.60887" lon="6.5092">
        <ele>807.2</ele>
        <time>2021-02-18T14:21:29Z</time>
      </trkpt>
      <trkpt lat="43.60889" lon="6.50914">
        <ele>807.1</ele>
        <time>2021-02-18T14:21:31Z</time>
      </trkpt>
      <trkpt lat="43.60894" lon="6.50903">
        <ele>806.9</ele>
        <time>2021-02-18T14:21:41Z</time>
      </trkpt>
      <trkpt lat="43.60897" lon="6.50898">
        <ele>806.9</ele>
        <time>2021-02-18T14:21:44Z</time>
      </trkpt>
      <trkpt lat="43.60901" lon="6.5089">
        <ele>806.8</ele>
        <time>2021-02-18T14:21:51Z</time>
      </trkpt>
      <trkpt lat="43.60904" lon="6.50885">
        <ele>806.6</ele>
        <time>2021-02-18T14:21:53Z</time>
      </trkpt>
      <trkpt lat="43.60908" lon="6.50874">
        <ele>806.3</ele>
        <time>2021-02-18T14:22:11Z</time>
      </trkpt>
      <trkpt lat="43.60909" lon="6.50868">
        <ele>806.4</ele>
        <time>2021-02-18T14:22:14Z</time>
      </trkpt>
      <trkpt lat="43.6091" lon="6.50859">
        <ele>806.3</ele>
        <time>2021-02-18T14:22:26Z</time>
      </trkpt>
      <trkpt lat="43.60912" lon="6.50851">
        <ele>806.1</ele>
        <time>2021-02-18T14:22:29Z</time>
      </trkpt>
      <trkpt lat="43.60917" lon="6.50845">
        <ele>805.4</ele>
        <time>2021-02-18T14:22:53Z</time>
      </trkpt>
      <trkpt lat="43.60922" lon="6.50842">
        <ele>805.1</ele>
        <time>2021-02-18T14:22:56Z</time>
      </trkpt>
      <trkpt lat="43.60927" lon="6.50846">
        <ele>804.9</ele>
        <time>2021-02-18T14:23:09Z</time>
      </trkpt>
      <trkpt lat="43.60929" lon="6.50852">
        <ele>805</ele>
        <time>2021-02-18T14:23:11Z</time>
      </trkpt>
      <trkpt lat="43.6093" lon="6.50863">
        <ele>805.8</ele>
        <time>2021-02-18T14:23:31Z</time>
      </trkpt>
      <trkpt lat="43.6093" lon="6.50869">
        <ele>805.9</ele>
        <time>2021-02-18T14:23:34Z</time>
      </trkpt>
      <trkpt lat="43.60931" lon="6.50877">
        <ele>806</ele>
        <time>2021-02-18T14:23:44Z</time>
      </trkpt>
      <trkpt lat="43.60932" lon="6.50884">
        <ele>805.9</ele>
        <time>2021-02-18T14:23:47Z</time>
      </trkpt>
      <trkpt lat="43.60931" lon="6.50892">
        <ele>806.1</ele>
        <time>2021-02-18T14:23:59Z</time>
      </trkpt>
      <trkpt lat="43.6093" lon="6.50899">
        <ele>806.5</ele>
        <time>2021-02-18T14:24:03Z</time>
      </trkpt>
      <trkpt lat="43.60929" lon="6.50907">
        <ele>807.1</ele>
        <time>2021-02-18T14:24:44Z</time>
      </trkpt>
      <trkpt lat="43.60929" lon="6.50913">
        <ele>807</ele>
        <time>2021-02-18T14:24:49Z</time>
      </trkpt>
      <trkpt lat="43.60924" lon="6.50909">
        <ele>806.9</ele>
        <time>2021-02-18T14:25:03Z</time>
      </trkpt>
      <trkpt lat="43.60921" lon="6.50904">
        <ele>806.8</ele>
        <time>2021-02-18T14:25:08Z</time>
      </trkpt>
      <trkpt lat="43.60918" lon="6.50899">
        <ele>806.7</ele>
        <time>2021-02-18T14:25:20Z</time>
      </trkpt>
      <trkpt lat="43.60914" lon="6.50894">
        <ele>806.7</ele>
        <time>2021-02-18T14:25:23Z</time>
      </trkpt>
      <trkpt lat="43.60913" lon="6.50885">
        <ele>806.6</ele>
        <time>2021-02-18T14:25:37Z</time>
      </trkpt>
      <trkpt lat="43.60912" lon="6.50878">
        <ele>806.6</ele>
        <time>2021-02-18T14:25:40Z</time>
      </trkpt>
      <trkpt lat="43.6091" lon="6.50869">
        <ele>806.4</ele>
        <time>2021-02-18T14:25:58Z</time>
      </trkpt>
      <trkpt lat="43.60909" lon="6.50863">
        <ele>806.1</ele>
        <time>2021-02-18T14:26:02Z</time>
      </trkpt>
      <trkpt lat="43.6091" lon="6.50855">
        <ele>805.1</ele>
        <time>2021-02-18T14:27:39Z</time>
      </trkpt>
      <trkpt lat="43.60905" lon="6.50852">
        <ele>803.2</ele>
        <time>2021-02-18T14:28:45Z</time>
      </trkpt>
      <trkpt lat="43.6091" lon="6.50849">
        <ele>801.4</ele>
        <time>2021-02-18T14:34:26Z</time>
      </trkpt>
      <trkpt lat="43.60914" lon="6.50856">
        <ele>800.5</ele>
        <time>2021-02-18T14:34:37Z</time>
      </trkpt>
      <trkpt lat="43.60915" lon="6.50862">
        <ele>800.4</ele>
        <time>2021-02-18T14:34:40Z</time>
      </trkpt>
      <trkpt lat="43.60916" lon="6.50871">
        <ele>800.1</ele>
        <time>2021-02-18T14:34:54Z</time>
      </trkpt>
      <trkpt lat="43.60917" lon="6.50877">
        <ele>799.9</ele>
        <time>2021-02-18T14:34:58Z</time>
      </trkpt>
      <trkpt lat="43.6092" lon="6.50884">
        <ele>799.6</ele>
        <time>2021-02-18T14:35:08Z</time>
      </trkpt>
      <trkpt lat="43.60923" lon="6.50889">
        <ele>799.4</ele>
        <time>2021-02-18T14:35:11Z</time>
      </trkpt>
      <trkpt lat="43.60925" lon="6.50898">
        <ele>799.1</ele>
        <time>2021-02-18T14:35:20Z</time>
      </trkpt>
      <trkpt lat="43.60928" lon="6.50904">
        <ele>799</ele>
        <time>2021-02-18T14:35:23Z</time>
      </trkpt>
      <trkpt lat="43.60933" lon="6.50909">
        <ele>798.8</ele>
        <time>2021-02-18T14:35:38Z</time>
      </trkpt>
      <trkpt lat="43.60938" lon="6.50912">
        <ele>798.7</ele>
        <time>2021-02-18T14:35:41Z</time>
      </trkpt>
      <trkpt lat="43.60945" lon="6.50915">
        <ele>798.5</ele>
        <time>2021-02-18T14:35:55Z</time>
      </trkpt>
      <trkpt lat="43.60949" lon="6.50916">
        <ele>798.3</ele>
        <time>2021-02-18T14:35:58Z</time>
      </trkpt>
      <trkpt lat="43.60956" lon="6.50915">
        <ele>798</ele>
        <time>2021-02-18T14:36:12Z</time>
      </trkpt>
      <trkpt lat="43.6096" lon="6.50913">
        <ele>797.9</ele>
        <time>2021-02-18T14:36:15Z</time>
      </trkpt>
      <trkpt lat="43.60966" lon="6.50912">
        <ele>797.5</ele>
        <time>2021-02-18T14:36:24Z</time>
      </trkpt>
      <trkpt lat="43.60972" lon="6.50912">
        <ele>797.3</ele>
        <time>2021-02-18T14:36:27Z</time>
      </trkpt>
      <trkpt lat="43.60978" lon="6.50916">
        <ele>797</ele>
        <time>2021-02-18T14:36:35Z</time>
      </trkpt>
      <trkpt lat="43.60982" lon="6.50921">
        <ele>796.9</ele>
        <time>2021-02-18T14:36:37Z</time>
      </trkpt>
      <trkpt lat="43.60988" lon="6.50929">
        <ele>796.6</ele>
        <time>2021-02-18T14:36:47Z</time>
      </trkpt>
      <trkpt lat="43.60991" lon="6.50934">
        <ele>796.5</ele>
        <time>2021-02-18T14:36:50Z</time>
      </trkpt>
      <trkpt lat="43.60995" lon="6.50942">
        <ele>796</ele>
        <time>2021-02-18T14:37:02Z</time>
      </trkpt>
      <trkpt lat="43.60998" lon="6.50948">
        <ele>795.8</ele>
        <time>2021-02-18T14:37:05Z</time>
      </trkpt>
      <trkpt lat="43.61003" lon="6.50955">
        <ele>795.4</ele>
        <time>2021-02-18T14:37:17Z</time>
      </trkpt>
      <trkpt lat="43.61006" lon="6.50959">
        <ele>795.2</ele>
        <time>2021-02-18T14:37:20Z</time>
      </trkpt>
      <trkpt lat="43.6101" lon="6.50967">
        <ele>795</ele>
        <time>2021-02-18T14:37:31Z</time>
      </trkpt>
      <trkpt lat="43.61013" lon="6.50973">
        <ele>794.9</ele>
        <time>2021-02-18T14:37:33Z</time>
      </trkpt>
      <trkpt lat="43.61016" lon="6.50979">
        <ele>794.9</ele>
        <time>2021-02-18T14:37:38Z</time>
      </trkpt>
      <trkpt lat="43.61018" lon="6.50986">
        <ele>794.6</ele>
        <time>2021-02-18T14:37:47Z</time>
      </trkpt>
      <trkpt lat="43.6102" lon="6.50993">
        <ele>794.4</ele>
        <time>2021-02-18T14:37:50Z</time>
      </trkpt>
      <trkpt lat="43.61024" lon="6.51001">
        <ele>794</ele>
        <time>2021-02-18T14:38:04Z</time>
      </trkpt>
      <trkpt lat="43.61027" lon="6.51007">
        <ele>793.9</ele>
        <time>2021-02-18T14:38:06Z</time>
      </trkpt>
      <trkpt lat="43.61032" lon="6.51018">
        <ele>793.7</ele>
        <time>2021-02-18T14:38:16Z</time>
      </trkpt>
      <trkpt lat="43.61035" lon="6.51024">
        <ele>793.5</ele>
        <time>2021-02-18T14:38:19Z</time>
      </trkpt>
      <trkpt lat="43.61037" lon="6.51033">
        <ele>793.1</ele>
        <time>2021-02-18T14:38:32Z</time>
      </trkpt>
      <trkpt lat="43.61038" lon="6.51039">
        <ele>793</ele>
        <time>2021-02-18T14:38:34Z</time>
      </trkpt>
      <trkpt lat="43.6104" lon="6.51051">
        <ele>792.7</ele>
        <time>2021-02-18T14:38:44Z</time>
      </trkpt>
      <trkpt lat="43.61041" lon="6.51058">
        <ele>792.7</ele>
        <time>2021-02-18T14:38:47Z</time>
      </trkpt>
      <trkpt lat="43.6104" lon="6.51068">
        <ele>792.7</ele>
        <time>2021-02-18T14:38:56Z</time>
      </trkpt>
      <trkpt lat="43.61039" lon="6.51073">
        <ele>792.7</ele>
        <time>2021-02-18T14:38:58Z</time>
      </trkpt>
      <trkpt lat="43.61037" lon="6.51079">
        <ele>793</ele>
        <time>2021-02-18T14:39:04Z</time>
      </trkpt>
      <trkpt lat="43.61036" lon="6.51086">
        <ele>793</ele>
        <time>2021-02-18T14:39:07Z</time>
      </trkpt>
      <trkpt lat="43.61036" lon="6.51092">
        <ele>793</ele>
        <time>2021-02-18T14:39:09Z</time>
      </trkpt>
      <trkpt lat="43.61036" lon="6.51105">
        <ele>792.8</ele>
        <time>2021-02-18T14:39:20Z</time>
      </trkpt>
      <trkpt lat="43.61037" lon="6.51112">
        <ele>792.7</ele>
        <time>2021-02-18T14:39:23Z</time>
      </trkpt>
      <trkpt lat="43.6104" lon="6.5112">
        <ele>792.4</ele>
        <time>2021-02-18T14:39:34Z</time>
      </trkpt>
      <trkpt lat="43.61041" lon="6.51128">
        <ele>792.4</ele>
        <time>2021-02-18T14:39:37Z</time>
      </trkpt>
      <trkpt lat="43.61039" lon="6.51137">
        <ele>792</ele>
        <time>2021-02-18T14:39:45Z</time>
      </trkpt>
      <trkpt lat="43.61036" lon="6.51143">
        <ele>791.8</ele>
        <time>2021-02-18T14:39:47Z</time>
      </trkpt>
      <trkpt lat="43.61033" lon="6.51148">
        <ele>791.3</ele>
        <time>2021-02-18T14:39:52Z</time>
      </trkpt>
      <trkpt lat="43.61035" lon="6.51155">
        <ele>791</ele>
        <time>2021-02-18T14:39:58Z</time>
      </trkpt>
      <trkpt lat="43.61037" lon="6.51161">
        <ele>790.9</ele>
        <time>2021-02-18T14:40:00Z</time>
      </trkpt>
      <trkpt lat="43.6104" lon="6.51166">
        <ele>790.6</ele>
        <time>2021-02-18T14:40:05Z</time>
      </trkpt>
      <trkpt lat="43.61041" lon="6.51173">
        <ele>790.5</ele>
        <time>2021-02-18T14:40:09Z</time>
      </trkpt>
      <trkpt lat="43.61043" lon="6.51179">
        <ele>790.5</ele>
        <time>2021-02-18T14:40:12Z</time>
      </trkpt>
      <trkpt lat="43.61045" lon="6.51187">
        <ele>790.5</ele>
        <time>2021-02-18T14:40:22Z</time>
      </trkpt>
      <trkpt lat="43.61047" lon="6.51193">
        <ele>790.4</ele>
        <time>2021-02-18T14:40:25Z</time>
      </trkpt>
      <trkpt lat="43.61047" lon="6.51202">
        <ele>790</ele>
        <time>2021-02-18T14:40:34Z</time>
      </trkpt>
      <trkpt lat="43.61047" lon="6.51209">
        <ele>789.9</ele>
        <time>2021-02-18T14:40:36Z</time>
      </trkpt>
      <trkpt lat="43.61048" lon="6.51216">
        <ele>789.6</ele>
        <time>2021-02-18T14:40:44Z</time>
      </trkpt>
      <trkpt lat="43.61049" lon="6.51222">
        <ele>789.2</ele>
        <time>2021-02-18T14:40:50Z</time>
      </trkpt>
      <trkpt lat="43.61051" lon="6.5123">
        <ele>788.8</ele>
        <time>2021-02-18T14:40:53Z</time>
      </trkpt>
      <trkpt lat="43.61055" lon="6.51238">
        <ele>787.8</ele>
        <time>2021-02-18T14:41:03Z</time>
      </trkpt>
      <trkpt lat="43.61059" lon="6.51244">
        <ele>787.2</ele>
        <time>2021-02-18T14:41:07Z</time>
      </trkpt>
      <trkpt lat="43.6106" lon="6.51251">
        <ele>786</ele>
        <time>2021-02-18T14:41:20Z</time>
      </trkpt>
      <trkpt lat="43.61062" lon="6.51257">
        <ele>785.3</ele>
        <time>2021-02-18T14:41:24Z</time>
      </trkpt>
      <trkpt lat="43.61063" lon="6.51265">
        <ele>784.3</ele>
        <time>2021-02-18T14:41:33Z</time>
      </trkpt>
      <trkpt lat="43.61065" lon="6.51271">
        <ele>783.9</ele>
        <time>2021-02-18T14:41:35Z</time>
      </trkpt>
      <trkpt lat="43.61067" lon="6.51283">
        <ele>781.9</ele>
        <time>2021-02-18T14:42:14Z</time>
      </trkpt>
      <trkpt lat="43.61065" lon="6.51289">
        <ele>781.5</ele>
        <time>2021-02-18T14:42:17Z</time>
      </trkpt>
      <trkpt lat="43.61065" lon="6.51298">
        <ele>780.5</ele>
        <time>2021-02-18T14:42:35Z</time>
      </trkpt>
      <trkpt lat="43.61067" lon="6.51305">
        <ele>780.4</ele>
        <time>2021-02-18T14:42:38Z</time>
      </trkpt>
      <trkpt lat="43.6107" lon="6.51313">
        <ele>779.9</ele>
        <time>2021-02-18T14:42:49Z</time>
      </trkpt>
      <trkpt lat="43.61072" lon="6.51318">
        <ele>779.7</ele>
        <time>2021-02-18T14:42:52Z</time>
      </trkpt>
      <trkpt lat="43.61073" lon="6.51328">
        <ele>779.2</ele>
        <time>2021-02-18T14:43:00Z</time>
      </trkpt>
      <trkpt lat="43.61073" lon="6.51335">
        <ele>779</ele>
        <time>2021-02-18T14:43:03Z</time>
      </trkpt>
      <trkpt lat="43.61073" lon="6.51345">
        <ele>778.4</ele>
        <time>2021-02-18T14:43:15Z</time>
      </trkpt>
      <trkpt lat="43.61074" lon="6.51351">
        <ele>778.2</ele>
        <time>2021-02-18T14:43:19Z</time>
      </trkpt>
      <trkpt lat="43.61075" lon="6.51359">
        <ele>777.9</ele>
        <time>2021-02-18T14:43:41Z</time>
      </trkpt>
      <trkpt lat="43.61077" lon="6.51367">
        <ele>778</ele>
        <time>2021-02-18T14:43:44Z</time>
      </trkpt>
      <trkpt lat="43.6108" lon="6.51375">
        <ele>778.2</ele>
        <time>2021-02-18T14:43:51Z</time>
      </trkpt>
      <trkpt lat="43.61084" lon="6.51382">
        <ele>778.4</ele>
        <time>2021-02-18T14:43:54Z</time>
      </trkpt>
      <trkpt lat="43.61087" lon="6.51392">
        <ele>778.7</ele>
        <time>2021-02-18T14:44:03Z</time>
      </trkpt>
      <trkpt lat="43.61089" lon="6.51398">
        <ele>778.8</ele>
        <time>2021-02-18T14:44:06Z</time>
      </trkpt>
      <trkpt lat="43.61092" lon="6.51407">
        <ele>779</ele>
        <time>2021-02-18T14:44:17Z</time>
      </trkpt>
      <trkpt lat="43.61095" lon="6.51413">
        <ele>778.9</ele>
        <time>2021-02-18T14:44:20Z</time>
      </trkpt>
      <trkpt lat="43.61096" lon="6.51423">
        <ele>778.6</ele>
        <time>2021-02-18T14:44:29Z</time>
      </trkpt>
      <trkpt lat="43.61097" lon="6.5143">
        <ele>778.3</ele>
        <time>2021-02-18T14:44:32Z</time>
      </trkpt>
      <trkpt lat="43.61095" lon="6.5144">
        <ele>777.8</ele>
        <time>2021-02-18T14:44:39Z</time>
      </trkpt>
      <trkpt lat="43.61094" lon="6.51448">
        <ele>777.5</ele>
        <time>2021-02-18T14:44:42Z</time>
      </trkpt>
      <trkpt lat="43.61095" lon="6.51458">
        <ele>776.8</ele>
        <time>2021-02-18T14:44:51Z</time>
      </trkpt>
      <trkpt lat="43.61097" lon="6.51464">
        <ele>776.4</ele>
        <time>2021-02-18T14:44:54Z</time>
      </trkpt>
      <trkpt lat="43.61102" lon="6.51471">
        <ele>775.7</ele>
        <time>2021-02-18T14:45:02Z</time>
      </trkpt>
      <trkpt lat="43.61106" lon="6.51475">
        <ele>775.1</ele>
        <time>2021-02-18T14:45:06Z</time>
      </trkpt>
      <trkpt lat="43.61109" lon="6.51481">
        <ele>774.4</ele>
        <time>2021-02-18T14:45:12Z</time>
      </trkpt>
      <trkpt lat="43.6111" lon="6.51488">
        <ele>773.8</ele>
        <time>2021-02-18T14:45:15Z</time>
      </trkpt>
      <trkpt lat="43.61112" lon="6.51496">
        <ele>772.7</ele>
        <time>2021-02-18T14:45:28Z</time>
      </trkpt>
      <trkpt lat="43.61114" lon="6.51503">
        <ele>772.5</ele>
        <time>2021-02-18T14:45:31Z</time>
      </trkpt>
      <trkpt lat="43.61116" lon="6.51512">
        <ele>772.1</ele>
        <time>2021-02-18T14:45:42Z</time>
      </trkpt>
      <trkpt lat="43.61118" lon="6.51518">
        <ele>772.1</ele>
        <time>2021-02-18T14:45:45Z</time>
      </trkpt>
      <trkpt lat="43.61119" lon="6.51527">
        <ele>771.7</ele>
        <time>2021-02-18T14:45:55Z</time>
      </trkpt>
      <trkpt lat="43.61119" lon="6.51533">
        <ele>771.5</ele>
        <time>2021-02-18T14:45:57Z</time>
      </trkpt>
      <trkpt lat="43.6112" lon="6.51545">
        <ele>770.7</ele>
        <time>2021-02-18T14:46:06Z</time>
      </trkpt>
      <trkpt lat="43.61121" lon="6.51552">
        <ele>770.4</ele>
        <time>2021-02-18T14:46:09Z</time>
      </trkpt>
      <trkpt lat="43.6112" lon="6.51562">
        <ele>769.8</ele>
        <time>2021-02-18T14:46:18Z</time>
      </trkpt>
      <trkpt lat="43.61119" lon="6.51568">
        <ele>769.6</ele>
        <time>2021-02-18T14:46:21Z</time>
      </trkpt>
      <trkpt lat="43.61116" lon="6.51576">
        <ele>768.9</ele>
        <time>2021-02-18T14:46:54Z</time>
      </trkpt>
      <trkpt lat="43.61114" lon="6.51582">
        <ele>768.5</ele>
        <time>2021-02-18T14:46:57Z</time>
      </trkpt>
      <trkpt lat="43.61113" lon="6.51591">
        <ele>767.2</ele>
        <time>2021-02-18T14:47:35Z</time>
      </trkpt>
      <trkpt lat="43.61112" lon="6.51598">
        <ele>766.7</ele>
        <time>2021-02-18T14:47:38Z</time>
      </trkpt>
      <trkpt lat="43.61112" lon="6.51607">
        <ele>765.1</ele>
        <time>2021-02-18T14:49:31Z</time>
      </trkpt>
      <trkpt lat="43.61112" lon="6.51613">
        <ele>764.4</ele>
        <time>2021-02-18T14:49:35Z</time>
      </trkpt>
      <trkpt lat="43.61112" lon="6.51621">
        <ele>763</ele>
        <time>2021-02-18T14:49:55Z</time>
      </trkpt>
      <trkpt lat="43.61112" lon="6.51627">
        <ele>762.8</ele>
        <time>2021-02-18T14:49:58Z</time>
      </trkpt>
      <trkpt lat="43.61112" lon="6.51636">
        <ele>762.4</ele>
        <time>2021-02-18T14:50:11Z</time>
      </trkpt>
      <trkpt lat="43.61112" lon="6.51644">
        <ele>762.4</ele>
        <time>2021-02-18T14:50:14Z</time>
      </trkpt>
      <trkpt lat="43.61115" lon="6.51653">
        <ele>762.3</ele>
        <time>2021-02-18T14:50:28Z</time>
      </trkpt>
      <trkpt lat="43.61118" lon="6.51658">
        <ele>762.3</ele>
        <time>2021-02-18T14:50:32Z</time>
      </trkpt>
      <trkpt lat="43.61116" lon="6.51664">
        <ele>762.1</ele>
        <time>2021-02-18T14:50:38Z</time>
      </trkpt>
      <trkpt lat="43.61114" lon="6.51671">
        <ele>761.8</ele>
        <time>2021-02-18T14:50:41Z</time>
      </trkpt>
      <trkpt lat="43.61114" lon="6.5168">
        <ele>760.9</ele>
        <time>2021-02-18T14:50:49Z</time>
      </trkpt>
      <trkpt lat="43.61113" lon="6.51688">
        <ele>760.4</ele>
        <time>2021-02-18T14:50:52Z</time>
      </trkpt>
      <trkpt lat="43.61115" lon="6.51697">
        <ele>757.9</ele>
        <time>2021-02-18T14:51:14Z</time>
      </trkpt>
      <trkpt lat="43.61118" lon="6.51703">
        <ele>756.7</ele>
        <time>2021-02-18T14:51:17Z</time>
      </trkpt>
      <trkpt lat="43.61122" lon="6.5171">
        <ele>753.9</ele>
        <time>2021-02-18T14:51:28Z</time>
      </trkpt>
      <trkpt lat="43.61123" lon="6.51716">
        <ele>752.7</ele>
        <time>2021-02-18T14:51:32Z</time>
      </trkpt>
      <trkpt lat="43.61126" lon="6.51722">
        <ele>751.4</ele>
        <time>2021-02-18T14:51:47Z</time>
      </trkpt>
      <trkpt lat="43.6113" lon="6.51727">
        <ele>751.2</ele>
        <time>2021-02-18T14:51:51Z</time>
      </trkpt>
      <trkpt lat="43.61135" lon="6.51729">
        <ele>750.9</ele>
        <time>2021-02-18T14:52:04Z</time>
      </trkpt>
      <trkpt lat="43.61139" lon="6.51733">
        <ele>750.5</ele>
        <time>2021-02-18T14:52:09Z</time>
      </trkpt>
      <trkpt lat="43.61143" lon="6.51738">
        <ele>749.5</ele>
        <time>2021-02-18T14:52:24Z</time>
      </trkpt>
      <trkpt lat="43.61146" lon="6.51742">
        <ele>748.9</ele>
        <time>2021-02-18T14:52:27Z</time>
      </trkpt>
      <trkpt lat="43.61151" lon="6.51748">
        <ele>746.5</ele>
        <time>2021-02-18T14:52:55Z</time>
      </trkpt>
      <trkpt lat="43.61154" lon="6.51752">
        <ele>745.5</ele>
        <time>2021-02-18T14:52:59Z</time>
      </trkpt>
      <trkpt lat="43.61159" lon="6.51757">
        <ele>743.9</ele>
        <time>2021-02-18T14:53:15Z</time>
      </trkpt>
      <trkpt lat="43.61163" lon="6.51763">
        <ele>743.5</ele>
        <time>2021-02-18T14:53:18Z</time>
      </trkpt>
      <trkpt lat="43.61168" lon="6.5177">
        <ele>742.6</ele>
        <time>2021-02-18T14:53:28Z</time>
      </trkpt>
      <trkpt lat="43.61171" lon="6.51773">
        <ele>742.1</ele>
        <time>2021-02-18T14:53:31Z</time>
      </trkpt>
      <trkpt lat="43.61176" lon="6.51779">
        <ele>740.9</ele>
        <time>2021-02-18T14:53:48Z</time>
      </trkpt>
      <trkpt lat="43.61181" lon="6.51783">
        <ele>740.5</ele>
        <time>2021-02-18T14:53:51Z</time>
      </trkpt>
      <trkpt lat="43.61185" lon="6.51791">
        <ele>739.3</ele>
        <time>2021-02-18T14:54:05Z</time>
      </trkpt>
      <trkpt lat="43.61186" lon="6.51798">
        <ele>738.8</ele>
        <time>2021-02-18T14:54:09Z</time>
      </trkpt>
      <trkpt lat="43.61189" lon="6.51805">
        <ele>737.9</ele>
        <time>2021-02-18T14:54:18Z</time>
      </trkpt>
      <trkpt lat="43.61191" lon="6.51811">
        <ele>737.3</ele>
        <time>2021-02-18T14:54:21Z</time>
      </trkpt>
      <trkpt lat="43.61196" lon="6.51816">
        <ele>736</ele>
        <time>2021-02-18T14:54:35Z</time>
      </trkpt>
      <trkpt lat="43.61201" lon="6.51819">
        <ele>735.7</ele>
        <time>2021-02-18T14:54:38Z</time>
      </trkpt>
      <trkpt lat="43.61206" lon="6.51824">
        <ele>735.2</ele>
        <time>2021-02-18T14:54:43Z</time>
      </trkpt>
      <trkpt lat="43.6121" lon="6.51828">
        <ele>735</ele>
        <time>2021-02-18T14:54:45Z</time>
      </trkpt>
      <trkpt lat="43.61214" lon="6.51831">
        <ele>734.5</ele>
        <time>2021-02-18T14:54:51Z</time>
      </trkpt>
      <trkpt lat="43.61217" lon="6.51836">
        <ele>734.1</ele>
        <time>2021-02-18T14:54:56Z</time>
      </trkpt>
      <trkpt lat="43.6122" lon="6.51841">
        <ele>733.6</ele>
        <time>2021-02-18T14:55:00Z</time>
      </trkpt>
      <trkpt lat="43.61222" lon="6.51849">
        <ele>732.8</ele>
        <time>2021-02-18T14:55:07Z</time>
      </trkpt>
      <trkpt lat="43.61224" lon="6.51857">
        <ele>732.3</ele>
        <time>2021-02-18T14:55:10Z</time>
      </trkpt>
      <trkpt lat="43.61229" lon="6.51865">
        <ele>731.1</ele>
        <time>2021-02-18T14:55:20Z</time>
      </trkpt>
      <trkpt lat="43.61234" lon="6.51869">
        <ele>730.6</ele>
        <time>2021-02-18T14:55:23Z</time>
      </trkpt>
      <trkpt lat="43.61237" lon="6.51878">
        <ele>729.4</ele>
        <time>2021-02-18T14:55:36Z</time>
      </trkpt>
      <trkpt lat="43.61238" lon="6.51884">
        <ele>729</ele>
        <time>2021-02-18T14:55:39Z</time>
      </trkpt>
      <trkpt lat="43.6124" lon="6.51893">
        <ele>728</ele>
        <time>2021-02-18T14:55:51Z</time>
      </trkpt>
      <trkpt lat="43.61241" lon="6.519">
        <ele>727.7</ele>
        <time>2021-02-18T14:55:54Z</time>
      </trkpt>
      <trkpt lat="43.61242" lon="6.51909">
        <ele>726.8</ele>
        <time>2021-02-18T14:56:08Z</time>
      </trkpt>
      <trkpt lat="43.61244" lon="6.51915">
        <ele>726.4</ele>
        <time>2021-02-18T14:56:11Z</time>
      </trkpt>
      <trkpt lat="43.61248" lon="6.51922">
        <ele>724.8</ele>
        <time>2021-02-18T14:56:36Z</time>
      </trkpt>
      <trkpt lat="43.61251" lon="6.51927">
        <ele>723.8</ele>
        <time>2021-02-18T14:56:40Z</time>
      </trkpt>
      <trkpt lat="43.61253" lon="6.51934">
        <ele>721.5</ele>
        <time>2021-02-18T14:57:05Z</time>
      </trkpt>
      <trkpt lat="43.61255" lon="6.5194">
        <ele>719.7</ele>
        <time>2021-02-18T14:57:17Z</time>
      </trkpt>
      <trkpt lat="43.6126" lon="6.51939">
        <ele>717.1</ele>
        <time>2021-02-18T14:59:21Z</time>
      </trkpt>
      <trkpt lat="43.61265" lon="6.51938">
        <ele>716.1</ele>
        <time>2021-02-18T14:59:23Z</time>
      </trkpt>
      <trkpt lat="43.61269" lon="6.51937">
        <ele>713.7</ele>
        <time>2021-02-18T14:59:28Z</time>
      </trkpt>
      <trkpt lat="43.61269" lon="6.51931">
        <ele>711.9</ele>
        <time>2021-02-18T14:59:37Z</time>
      </trkpt>
      <trkpt lat="43.61269" lon="6.51924">
        <ele>711.4</ele>
        <time>2021-02-18T14:59:40Z</time>
      </trkpt>
      <trkpt lat="43.61271" lon="6.51914">
        <ele>710.6</ele>
        <time>2021-02-18T14:59:54Z</time>
      </trkpt>
      <trkpt lat="43.61272" lon="6.51908">
        <ele>710.5</ele>
        <time>2021-02-18T14:59:56Z</time>
      </trkpt>
      <trkpt lat="43.61273" lon="6.51896">
        <ele>710.2</ele>
        <time>2021-02-18T15:00:09Z</time>
      </trkpt>
      <trkpt lat="43.61276" lon="6.51891">
        <ele>709.9</ele>
        <time>2021-02-18T15:00:12Z</time>
      </trkpt>
      <trkpt lat="43.61279" lon="6.51882">
        <ele>709.4</ele>
        <time>2021-02-18T15:00:21Z</time>
      </trkpt>
      <trkpt lat="43.61279" lon="6.51876">
        <ele>709.2</ele>
        <time>2021-02-18T15:00:24Z</time>
      </trkpt>
      <trkpt lat="43.61281" lon="6.51867">
        <ele>708.6</ele>
        <time>2021-02-18T15:00:32Z</time>
      </trkpt>
      <trkpt lat="43.61284" lon="6.5186">
        <ele>708.2</ele>
        <time>2021-02-18T15:00:35Z</time>
      </trkpt>
      <trkpt lat="43.61284" lon="6.5185">
        <ele>707.4</ele>
        <time>2021-02-18T15:00:47Z</time>
      </trkpt>
      <trkpt lat="43.61283" lon="6.51844">
        <ele>707.1</ele>
        <time>2021-02-18T15:00:50Z</time>
      </trkpt>
      <trkpt lat="43.61285" lon="6.51836">
        <ele>706.7</ele>
        <time>2021-02-18T15:00:56Z</time>
      </trkpt>
      <trkpt lat="43.61286" lon="6.51828">
        <ele>706.4</ele>
        <time>2021-02-18T15:00:59Z</time>
      </trkpt>
      <trkpt lat="43.61286" lon="6.51818">
        <ele>705.4</ele>
        <time>2021-02-18T15:01:14Z</time>
      </trkpt>
      <trkpt lat="43.61288" lon="6.51811">
        <ele>704.9</ele>
        <time>2021-02-18T15:01:17Z</time>
      </trkpt>
      <trkpt lat="43.61289" lon="6.51801">
        <ele>703.6</ele>
        <time>2021-02-18T15:01:47Z</time>
      </trkpt>
      <trkpt lat="43.61289" lon="6.51794">
        <ele>703.3</ele>
        <time>2021-02-18T15:01:50Z</time>
      </trkpt>
      <trkpt lat="43.61292" lon="6.51786">
        <ele>702.7</ele>
        <time>2021-02-18T15:02:15Z</time>
      </trkpt>
      <trkpt lat="43.61294" lon="6.5178">
        <ele>702.6</ele>
        <time>2021-02-18T15:02:18Z</time>
      </trkpt>
      <trkpt lat="43.61296" lon="6.51771">
        <ele>702.2</ele>
        <time>2021-02-18T15:02:43Z</time>
      </trkpt>
      <trkpt lat="43.61296" lon="6.51764">
        <ele>702.1</ele>
        <time>2021-02-18T15:02:47Z</time>
      </trkpt>
      <trkpt lat="43.61296" lon="6.51757">
        <ele>701.8</ele>
        <time>2021-02-18T15:03:05Z</time>
      </trkpt>
      <trkpt lat="43.61297" lon="6.51748">
        <ele>701.7</ele>
        <time>2021-02-18T15:03:08Z</time>
      </trkpt>
      <trkpt lat="43.61297" lon="6.51738">
        <ele>701.5</ele>
        <time>2021-02-18T15:03:17Z</time>
      </trkpt>
      <trkpt lat="43.61296" lon="6.51731">
        <ele>701.5</ele>
        <time>2021-02-18T15:03:20Z</time>
      </trkpt>
      <trkpt lat="43.61298" lon="6.51721">
        <ele>701.4</ele>
        <time>2021-02-18T15:03:34Z</time>
      </trkpt>
      <trkpt lat="43.61299" lon="6.51715">
        <ele>701.4</ele>
        <time>2021-02-18T15:03:38Z</time>
      </trkpt>
      <trkpt lat="43.61298" lon="6.51707">
        <ele>701.8</ele>
        <time>2021-02-18T15:03:47Z</time>
      </trkpt>
      <trkpt lat="43.61298" lon="6.51699">
        <ele>702</ele>
        <time>2021-02-18T15:03:50Z</time>
      </trkpt>
      <trkpt lat="43.61299" lon="6.5169">
        <ele>702.5</ele>
        <time>2021-02-18T15:04:00Z</time>
      </trkpt>
      <trkpt lat="43.61301" lon="6.51682">
        <ele>702.5</ele>
        <time>2021-02-18T15:04:03Z</time>
      </trkpt>
      <trkpt lat="43.61303" lon="6.51671">
        <ele>702.5</ele>
        <time>2021-02-18T15:04:16Z</time>
      </trkpt>
      <trkpt lat="43.61303" lon="6.51664">
        <ele>702.5</ele>
        <time>2021-02-18T15:04:19Z</time>
      </trkpt>
      <trkpt lat="43.61304" lon="6.51655">
        <ele>702.1</ele>
        <time>2021-02-18T15:04:30Z</time>
      </trkpt>
      <trkpt lat="43.61307" lon="6.51649">
        <ele>701.9</ele>
        <time>2021-02-18T15:04:32Z</time>
      </trkpt>
      <trkpt lat="43.61308" lon="6.5164">
        <ele>700.6</ele>
        <time>2021-02-18T15:04:44Z</time>
      </trkpt>
      <trkpt lat="43.61309" lon="6.51633">
        <ele>700.3</ele>
        <time>2021-02-18T15:04:46Z</time>
      </trkpt>
      <trkpt lat="43.61309" lon="6.51627">
        <ele>699.5</ele>
        <time>2021-02-18T15:04:53Z</time>
      </trkpt>
      <trkpt lat="43.61309" lon="6.51618">
        <ele>699</ele>
        <time>2021-02-18T15:04:55Z</time>
      </trkpt>
      <trkpt lat="43.61311" lon="6.51612">
        <ele>698.5</ele>
        <time>2021-02-18T15:04:59Z</time>
      </trkpt>
      <trkpt lat="43.61313" lon="6.51605">
        <ele>697.1</ele>
        <time>2021-02-18T15:05:16Z</time>
      </trkpt>
      <trkpt lat="43.61315" lon="6.51599">
        <ele>696.4</ele>
        <time>2021-02-18T15:05:19Z</time>
      </trkpt>
      <trkpt lat="43.61314" lon="6.5159">
        <ele>694.9</ele>
        <time>2021-02-18T15:05:29Z</time>
      </trkpt>
      <trkpt lat="43.61313" lon="6.51584">
        <ele>694.3</ele>
        <time>2021-02-18T15:05:33Z</time>
      </trkpt>
      <trkpt lat="43.61311" lon="6.51577">
        <ele>693</ele>
        <time>2021-02-18T15:05:53Z</time>
      </trkpt>
      <trkpt lat="43.61308" lon="6.51571">
        <ele>692.7</ele>
        <time>2021-02-18T15:05:55Z</time>
      </trkpt>
      <trkpt lat="43.61305" lon="6.51568">
        <ele>692.2</ele>
        <time>2021-02-18T15:05:58Z</time>
      </trkpt>
      <trkpt lat="43.61299" lon="6.51565">
        <ele>691.7</ele>
        <time>2021-02-18T15:06:02Z</time>
      </trkpt>
      <trkpt lat="43.61295" lon="6.51562">
        <ele>691.4</ele>
        <time>2021-02-18T15:06:05Z</time>
      </trkpt>
      <trkpt lat="43.61296" lon="6.51555">
        <ele>690.7</ele>
        <time>2021-02-18T15:06:15Z</time>
      </trkpt>
      <trkpt lat="43.61299" lon="6.5155">
        <ele>690.6</ele>
        <time>2021-02-18T15:06:17Z</time>
      </trkpt>
      <trkpt lat="43.61304" lon="6.51541">
        <ele>690.3</ele>
        <time>2021-02-18T15:06:24Z</time>
      </trkpt>
      <trkpt lat="43.61307" lon="6.51536">
        <ele>690.2</ele>
        <time>2021-02-18T15:06:27Z</time>
      </trkpt>
      <trkpt lat="43.6131" lon="6.51527">
        <ele>689.7</ele>
        <time>2021-02-18T15:06:36Z</time>
      </trkpt>
      <trkpt lat="43.6131" lon="6.5152">
        <ele>689.4</ele>
        <time>2021-02-18T15:06:39Z</time>
      </trkpt>
      <trkpt lat="43.61311" lon="6.51511">
        <ele>688.2</ele>
        <time>2021-02-18T15:06:56Z</time>
      </trkpt>
      <trkpt lat="43.61314" lon="6.51505">
        <ele>687.6</ele>
        <time>2021-02-18T15:07:00Z</time>
      </trkpt>
      <trkpt lat="43.61315" lon="6.51498">
        <ele>686.2</ele>
        <time>2021-02-18T15:07:14Z</time>
      </trkpt>
      <trkpt lat="43.61315" lon="6.51492">
        <ele>685.6</ele>
        <time>2021-02-18T15:07:17Z</time>
      </trkpt>
      <trkpt lat="43.61318" lon="6.51485">
        <ele>684.1</ele>
        <time>2021-02-18T15:07:42Z</time>
      </trkpt>
      <trkpt lat="43.61321" lon="6.51481">
        <ele>683.9</ele>
        <time>2021-02-18T15:07:47Z</time>
      </trkpt>
      <trkpt lat="43.61324" lon="6.51475">
        <ele>683.6</ele>
        <time>2021-02-18T15:08:27Z</time>
      </trkpt>
      <trkpt lat="43.61327" lon="6.5147">
        <ele>683.6</ele>
        <time>2021-02-18T15:08:29Z</time>
      </trkpt>
      <trkpt lat="43.6133" lon="6.51465">
        <ele>683.6</ele>
        <time>2021-02-18T15:08:32Z</time>
      </trkpt>
      <trkpt lat="43.61328" lon="6.51456">
        <ele>683.4</ele>
        <time>2021-02-18T15:08:58Z</time>
      </trkpt>
      <trkpt lat="43.61326" lon="6.5145">
        <ele>683.3</ele>
        <time>2021-02-18T15:09:02Z</time>
      </trkpt>
      <trkpt lat="43.61328" lon="6.51444">
        <ele>683.2</ele>
        <time>2021-02-18T15:09:09Z</time>
      </trkpt>
      <trkpt lat="43.61331" lon="6.51439">
        <ele>683.1</ele>
        <time>2021-02-18T15:09:12Z</time>
      </trkpt>
      <trkpt lat="43.61332" lon="6.5143">
        <ele>682.8</ele>
        <time>2021-02-18T15:09:20Z</time>
      </trkpt>
      <trkpt lat="43.61334" lon="6.51423">
        <ele>682.6</ele>
        <time>2021-02-18T15:09:23Z</time>
      </trkpt>
      <trkpt lat="43.61337" lon="6.51414">
        <ele>682</ele>
        <time>2021-02-18T15:09:36Z</time>
      </trkpt>
      <trkpt lat="43.61338" lon="6.51408">
        <ele>681.7</ele>
        <time>2021-02-18T15:09:40Z</time>
      </trkpt>
      <trkpt lat="43.6134" lon="6.514">
        <ele>680.9</ele>
        <time>2021-02-18T15:09:54Z</time>
      </trkpt>
      <trkpt lat="43.61341" lon="6.51394">
        <ele>680.5</ele>
        <time>2021-02-18T15:09:57Z</time>
      </trkpt>
      <trkpt lat="43.61344" lon="6.51388">
        <ele>679.8</ele>
        <time>2021-02-18T15:10:07Z</time>
      </trkpt>
      <trkpt lat="43.61347" lon="6.51382">
        <ele>679.5</ele>
        <time>2021-02-18T15:10:11Z</time>
      </trkpt>
      <trkpt lat="43.61349" lon="6.51373">
        <ele>679</ele>
        <time>2021-02-18T15:10:29Z</time>
      </trkpt>
      <trkpt lat="43.61352" lon="6.51367">
        <ele>678.9</ele>
        <time>2021-02-18T15:10:31Z</time>
      </trkpt>
      <trkpt lat="43.61355" lon="6.51362">
        <ele>678.7</ele>
        <time>2021-02-18T15:10:34Z</time>
      </trkpt>
      <trkpt lat="43.61358" lon="6.51353">
        <ele>678.4</ele>
        <time>2021-02-18T15:10:38Z</time>
      </trkpt>
      <trkpt lat="43.6136" lon="6.51348">
        <ele>678.3</ele>
        <time>2021-02-18T15:10:40Z</time>
      </trkpt>
      <trkpt lat="43.61363" lon="6.51343">
        <ele>678</ele>
        <time>2021-02-18T15:10:45Z</time>
      </trkpt>
      <trkpt lat="43.61361" lon="6.51335">
        <ele>677.7</ele>
        <time>2021-02-18T15:10:53Z</time>
      </trkpt>
      <trkpt lat="43.61359" lon="6.5133">
        <ele>677.5</ele>
        <time>2021-02-18T15:10:55Z</time>
      </trkpt>
      <trkpt lat="43.61354" lon="6.51321">
        <ele>677</ele>
        <time>2021-02-18T15:11:02Z</time>
      </trkpt>
      <trkpt lat="43.61352" lon="6.51315">
        <ele>676.8</ele>
        <time>2021-02-18T15:11:06Z</time>
      </trkpt>
      <trkpt lat="43.61354" lon="6.51308">
        <ele>676.5</ele>
        <time>2021-02-18T15:11:11Z</time>
      </trkpt>
      <trkpt lat="43.61357" lon="6.51302">
        <ele>676.3</ele>
        <time>2021-02-18T15:11:14Z</time>
      </trkpt>
      <trkpt lat="43.61359" lon="6.51294">
        <ele>675.4</ele>
        <time>2021-02-18T15:11:49Z</time>
      </trkpt>
      <trkpt lat="43.61361" lon="6.51287">
        <ele>675</ele>
        <time>2021-02-18T15:11:52Z</time>
      </trkpt>
      <trkpt lat="43.61364" lon="6.51279">
        <ele>674</ele>
        <time>2021-02-18T15:12:02Z</time>
      </trkpt>
      <trkpt lat="43.61367" lon="6.51274">
        <ele>673.5</ele>
        <time>2021-02-18T15:12:06Z</time>
      </trkpt>
      <trkpt lat="43.6137" lon="6.51268">
        <ele>673</ele>
        <time>2021-02-18T15:12:12Z</time>
      </trkpt>
      <trkpt lat="43.61373" lon="6.51261">
        <ele>672.8</ele>
        <time>2021-02-18T15:12:15Z</time>
      </trkpt>
      <trkpt lat="43.61374" lon="6.51252">
        <ele>672.4</ele>
        <time>2021-02-18T15:12:24Z</time>
      </trkpt>
      <trkpt lat="43.61373" lon="6.51245">
        <ele>672.3</ele>
        <time>2021-02-18T15:12:26Z</time>
      </trkpt>
      <trkpt lat="43.61373" lon="6.51239">
        <ele>672</ele>
        <time>2021-02-18T15:12:33Z</time>
      </trkpt>
      <trkpt lat="43.61374" lon="6.51232">
        <ele>671.9</ele>
        <time>2021-02-18T15:12:39Z</time>
      </trkpt>
      <trkpt lat="43.61375" lon="6.51226">
        <ele>671.9</ele>
        <time>2021-02-18T15:12:42Z</time>
      </trkpt>
      <trkpt lat="43.61377" lon="6.51216">
        <ele>671.8</ele>
        <time>2021-02-18T15:12:51Z</time>
      </trkpt>
      <trkpt lat="43.61376" lon="6.5121">
        <ele>671.8</ele>
        <time>2021-02-18T15:12:53Z</time>
      </trkpt>
      <trkpt lat="43.61374" lon="6.51204">
        <ele>671.7</ele>
        <time>2021-02-18T15:12:59Z</time>
      </trkpt>
      <trkpt lat="43.61376" lon="6.51197">
        <ele>671.6</ele>
        <time>2021-02-18T15:13:01Z</time>
      </trkpt>
      <trkpt lat="43.61379" lon="6.51191">
        <ele>671.5</ele>
        <time>2021-02-18T15:13:04Z</time>
      </trkpt>
      <trkpt lat="43.61379" lon="6.51181">
        <ele>671.3</ele>
        <time>2021-02-18T15:13:13Z</time>
      </trkpt>
      <trkpt lat="43.61379" lon="6.51175">
        <ele>671.2</ele>
        <time>2021-02-18T15:13:16Z</time>
      </trkpt>
      <trkpt lat="43.61383" lon="6.51167">
        <ele>670.9</ele>
        <time>2021-02-18T15:13:26Z</time>
      </trkpt>
      <trkpt lat="43.61386" lon="6.51163">
        <ele>670.8</ele>
        <time>2021-02-18T15:13:28Z</time>
      </trkpt>
      <trkpt lat="43.61389" lon="6.51154">
        <ele>670.5</ele>
        <time>2021-02-18T15:13:41Z</time>
      </trkpt>
      <trkpt lat="43.61388" lon="6.51147">
        <ele>670.3</ele>
        <time>2021-02-18T15:13:45Z</time>
      </trkpt>
      <trkpt lat="43.61392" lon="6.51133">
        <ele>669.9</ele>
        <time>2021-02-18T15:13:59Z</time>
      </trkpt>
      <trkpt lat="43.61394" lon="6.51124">
        <ele>669.9</ele>
        <time>2021-02-18T15:14:01Z</time>
      </trkpt>
      <trkpt lat="43.61397" lon="6.51112">
        <ele>669.7</ele>
        <time>2021-02-18T15:14:08Z</time>
      </trkpt>
      <trkpt lat="43.614" lon="6.51106">
        <ele>669.6</ele>
        <time>2021-02-18T15:14:10Z</time>
      </trkpt>
      <trkpt lat="43.61399" lon="6.51095">
        <ele>669</ele>
        <time>2021-02-18T15:14:19Z</time>
      </trkpt>
      <trkpt lat="43.61398" lon="6.51089">
        <ele>668.7</ele>
        <time>2021-02-18T15:14:22Z</time>
      </trkpt>
      <trkpt lat="43.61398" lon="6.51081">
        <ele>667.7</ele>
        <time>2021-02-18T15:14:42Z</time>
      </trkpt>
      <trkpt lat="43.61401" lon="6.51075">
        <ele>667.5</ele>
        <time>2021-02-18T15:14:44Z</time>
      </trkpt>
      <trkpt lat="43.61405" lon="6.5107">
        <ele>667.1</ele>
        <time>2021-02-18T15:14:47Z</time>
      </trkpt>
      <trkpt lat="43.61408" lon="6.51062">
        <ele>666.4</ele>
        <time>2021-02-18T15:14:59Z</time>
      </trkpt>
      <trkpt lat="43.61409" lon="6.51055">
        <ele>666.1</ele>
        <time>2021-02-18T15:15:02Z</time>
      </trkpt>
      <trkpt lat="43.61407" lon="6.51047">
        <ele>665.2</ele>
        <time>2021-02-18T15:15:12Z</time>
      </trkpt>
      <trkpt lat="43.61404" lon="6.51041">
        <ele>664.9</ele>
        <time>2021-02-18T15:15:14Z</time>
      </trkpt>
      <trkpt lat="43.61403" lon="6.51035">
        <ele>664.4</ele>
        <time>2021-02-18T15:15:18Z</time>
      </trkpt>
      <trkpt lat="43.61401" lon="6.51028">
        <ele>664</ele>
        <time>2021-02-18T15:15:21Z</time>
      </trkpt>
      <trkpt lat="43.61398" lon="6.51021">
        <ele>663.7</ele>
        <time>2021-02-18T15:15:24Z</time>
      </trkpt>
      <trkpt lat="43.61401" lon="6.51015">
        <ele>662.8</ele>
        <time>2021-02-18T15:15:36Z</time>
      </trkpt>
      <trkpt lat="43.61405" lon="6.51011">
        <ele>662.3</ele>
        <time>2021-02-18T15:15:39Z</time>
      </trkpt>
      <trkpt lat="43.61411" lon="6.51013">
        <ele>660.6</ele>
        <time>2021-02-18T15:16:00Z</time>
      </trkpt>
      <trkpt lat="43.61416" lon="6.51015">
        <ele>659.9</ele>
        <time>2021-02-18T15:16:03Z</time>
      </trkpt>
      <trkpt lat="43.61412" lon="6.51008">
        <ele>658.4</ele>
        <time>2021-02-18T15:16:10Z</time>
      </trkpt>
      <trkpt lat="43.61409" lon="6.51004">
        <ele>657.7</ele>
        <time>2021-02-18T15:16:13Z</time>
      </trkpt>
      <trkpt lat="43.61411" lon="6.50998">
        <ele>655.9</ele>
        <time>2021-02-18T15:16:33Z</time>
      </trkpt>
      <trkpt lat="43.61415" lon="6.50995">
        <ele>655</ele>
        <time>2021-02-18T15:16:38Z</time>
      </trkpt>
      <trkpt lat="43.6142" lon="6.50994">
        <ele>654</ele>
        <time>2021-02-18T15:16:51Z</time>
      </trkpt>
      <trkpt lat="43.61425" lon="6.50992">
        <ele>653.6</ele>
        <time>2021-02-18T15:16:55Z</time>
      </trkpt>
      <trkpt lat="43.6143" lon="6.5099">
        <ele>652.6</ele>
        <time>2021-02-18T15:17:08Z</time>
      </trkpt>
      <trkpt lat="43.61434" lon="6.50988">
        <ele>652.2</ele>
        <time>2021-02-18T15:17:12Z</time>
      </trkpt>
      <trkpt lat="43.6144" lon="6.50986">
        <ele>651.1</ele>
        <time>2021-02-18T15:17:34Z</time>
      </trkpt>
      <trkpt lat="43.61444" lon="6.50984">
        <ele>650</ele>
        <time>2021-02-18T15:17:44Z</time>
      </trkpt>
      <trkpt lat="43.61439" lon="6.50982">
        <ele>649.5</ele>
        <time>2021-02-18T15:17:53Z</time>
      </trkpt>
      <trkpt lat="43.61434" lon="6.5098">
        <ele>649.2</ele>
        <time>2021-02-18T15:17:55Z</time>
      </trkpt>
      <trkpt lat="43.61426" lon="6.50979">
        <ele>646.9</ele>
        <time>2021-02-18T15:18:39Z</time>
      </trkpt>
      <trkpt lat="43.61421" lon="6.50977">
        <ele>646.1</ele>
        <time>2021-02-18T15:18:41Z</time>
      </trkpt>
      <trkpt lat="43.61421" lon="6.5097">
        <ele>642.5</ele>
        <time>2021-02-18T15:19:04Z</time>
      </trkpt>
      <trkpt lat="43.61434" lon="6.50957">
        <ele>640.5</ele>
        <time>2021-02-18T15:19:14Z</time>
      </trkpt>
      <trkpt lat="43.61437" lon="6.50953">
        <ele>640.3</ele>
        <time>2021-02-18T15:19:18Z</time>
      </trkpt>
      <trkpt lat="43.61442" lon="6.50949">
        <ele>640.1</ele>
        <time>2021-02-18T15:19:25Z</time>
      </trkpt>
      <trkpt lat="43.61453" lon="6.5094">
        <ele>639.4</ele>
        <time>2021-02-18T15:19:38Z</time>
      </trkpt>
      <trkpt lat="43.61458" lon="6.50939">
        <ele>639.1</ele>
        <time>2021-02-18T15:19:41Z</time>
      </trkpt>
      <trkpt lat="43.6145" lon="6.50911">
        <ele>625.1</ele>
        <time>2021-02-18T15:20:34Z</time>
      </trkpt>
      <trkpt lat="43.61473" lon="6.50901">
        <ele>618</ele>
        <time>2021-02-18T15:21:38Z</time>
      </trkpt>
      <trkpt lat="43.61478" lon="6.50895">
        <ele>617.5</ele>
        <time>2021-02-18T15:21:40Z</time>
      </trkpt>
      <trkpt lat="43.61481" lon="6.50891">
        <ele>616.6</ele>
        <time>2021-02-18T15:21:44Z</time>
      </trkpt>
      <trkpt lat="43.61485" lon="6.50885">
        <ele>614.8</ele>
        <time>2021-02-18T15:22:20Z</time>
      </trkpt>
      <trkpt lat="43.61488" lon="6.5088">
        <ele>613.8</ele>
        <time>2021-02-18T15:22:24Z</time>
      </trkpt>
      <trkpt lat="43.61492" lon="6.50875">
        <ele>611.8</ele>
        <time>2021-02-18T15:22:38Z</time>
      </trkpt>
      <trkpt lat="43.61499" lon="6.50861">
        <ele>609.1</ele>
        <time>2021-02-18T15:22:47Z</time>
      </trkpt>
      <trkpt lat="43.61503" lon="6.50856">
        <ele>608.6</ele>
        <time>2021-02-18T15:22:51Z</time>
      </trkpt>
      <trkpt lat="43.61507" lon="6.50852">
        <ele>607.7</ele>
        <time>2021-02-18T15:23:05Z</time>
      </trkpt>
      <trkpt lat="43.61512" lon="6.50849">
        <ele>607.3</ele>
        <time>2021-02-18T15:23:08Z</time>
      </trkpt>
      <trkpt lat="43.61514" lon="6.50841">
        <ele>606.5</ele>
        <time>2021-02-18T15:23:29Z</time>
      </trkpt>
      <trkpt lat="43.61515" lon="6.50835">
        <ele>606.4</ele>
        <time>2021-02-18T15:23:33Z</time>
      </trkpt>
      <trkpt lat="43.6152" lon="6.50833">
        <ele>605.8</ele>
        <time>2021-02-18T15:23:53Z</time>
      </trkpt>
      <trkpt lat="43.61524" lon="6.50831">
        <ele>605.2</ele>
        <time>2021-02-18T15:23:56Z</time>
      </trkpt>
      <trkpt lat="43.61532" lon="6.50827">
        <ele>604.2</ele>
        <time>2021-02-18T15:24:04Z</time>
      </trkpt>
      <trkpt lat="43.61537" lon="6.50824">
        <ele>603.9</ele>
        <time>2021-02-18T15:24:07Z</time>
      </trkpt>
      <trkpt lat="43.61544" lon="6.50821">
        <ele>602.9</ele>
        <time>2021-02-18T15:24:16Z</time>
      </trkpt>
      <trkpt lat="43.61549" lon="6.50818">
        <ele>602.2</ele>
        <time>2021-02-18T15:24:19Z</time>
      </trkpt>
      <trkpt lat="43.61548" lon="6.50811">
        <ele>600.9</ele>
        <time>2021-02-18T15:24:39Z</time>
      </trkpt>
      <trkpt lat="43.61544" lon="6.50804">
        <ele>600.8</ele>
        <time>2021-02-18T15:24:42Z</time>
      </trkpt>
      <trkpt lat="43.61542" lon="6.50795">
        <ele>600.5</ele>
        <time>2021-02-18T15:25:12Z</time>
      </trkpt>
      <trkpt lat="43.6154" lon="6.50789">
        <ele>600.4</ele>
        <time>2021-02-18T15:25:17Z</time>
      </trkpt>
      <trkpt lat="43.61544" lon="6.50796">
        <ele>599.8</ele>
        <time>2021-02-18T15:26:03Z</time>
      </trkpt>
      <trkpt lat="43.61546" lon="6.50801">
        <ele>599.4</ele>
        <time>2021-02-18T15:26:06Z</time>
      </trkpt>
      <trkpt lat="43.61548" lon="6.50796">
        <ele>598.2</ele>
        <time>2021-02-18T15:26:34Z</time>
      </trkpt>
      <trkpt lat="43.61548" lon="6.50789">
        <ele>597.5</ele>
        <time>2021-02-18T15:26:39Z</time>
      </trkpt>
      <trkpt lat="43.61546" lon="6.50796">
        <ele>596.3</ele>
        <time>2021-02-18T15:27:09Z</time>
      </trkpt>
      <trkpt lat="43.61543" lon="6.50803">
        <ele>595.8</ele>
        <time>2021-02-18T15:27:45Z</time>
      </trkpt>
      <trkpt lat="43.61538" lon="6.50808">
        <ele>595.9</ele>
        <time>2021-02-18T15:27:48Z</time>
      </trkpt>
      <trkpt lat="43.61543" lon="6.50803">
        <ele>596.2</ele>
        <time>2021-02-18T15:27:59Z</time>
      </trkpt>
      <trkpt lat="43.61546" lon="6.50799">
        <ele>596.2</ele>
        <time>2021-02-18T15:28:02Z</time>
      </trkpt>
      <trkpt lat="43.61552" lon="6.50798">
        <ele>595.9</ele>
        <time>2021-02-18T15:28:34Z</time>
      </trkpt>
      <trkpt lat="43.61558" lon="6.50797">
        <ele>595.6</ele>
        <time>2021-02-18T15:28:37Z</time>
      </trkpt>
      <trkpt lat="43.61566" lon="6.50792">
        <ele>594.9</ele>
        <time>2021-02-18T15:28:46Z</time>
      </trkpt>
      <trkpt lat="43.61572" lon="6.50792">
        <ele>594.6</ele>
        <time>2021-02-18T15:28:49Z</time>
      </trkpt>
      <trkpt lat="43.61576" lon="6.50798">
        <ele>593.8</ele>
        <time>2021-02-18T15:29:03Z</time>
      </trkpt>
      <trkpt lat="43.61579" lon="6.50808">
        <ele>593.5</ele>
        <time>2021-02-18T15:29:05Z</time>
      </trkpt>
      <trkpt lat="43.6158" lon="6.50815">
        <ele>593.2</ele>
        <time>2021-02-18T15:29:07Z</time>
      </trkpt>
      <trkpt lat="43.61584" lon="6.50824">
        <ele>592.4</ele>
        <time>2021-02-18T15:29:14Z</time>
      </trkpt>
      <trkpt lat="43.61589" lon="6.50827">
        <ele>592.2</ele>
        <time>2021-02-18T15:29:16Z</time>
      </trkpt>
      <trkpt lat="43.61593" lon="6.50829">
        <ele>591.7</ele>
        <time>2021-02-18T15:29:20Z</time>
      </trkpt>
      <trkpt lat="43.61599" lon="6.50829">
        <ele>591.3</ele>
        <time>2021-02-18T15:29:28Z</time>
      </trkpt>
      <trkpt lat="43.61604" lon="6.5083">
        <ele>591.2</ele>
        <time>2021-02-18T15:29:32Z</time>
      </trkpt>
      <trkpt lat="43.6161" lon="6.5083">
        <ele>591</ele>
        <time>2021-02-18T15:29:44Z</time>
      </trkpt>
      <trkpt lat="43.61617" lon="6.50827">
        <ele>591</ele>
        <time>2021-02-18T15:29:46Z</time>
      </trkpt>
      <trkpt lat="43.61622" lon="6.50825">
        <ele>591.1</ele>
        <time>2021-02-18T15:29:48Z</time>
      </trkpt>
      <trkpt lat="43.61628" lon="6.50823">
        <ele>591.1</ele>
        <time>2021-02-18T15:29:50Z</time>
      </trkpt>
      <trkpt lat="43.61633" lon="6.50823">
        <ele>591</ele>
        <time>2021-02-18T15:29:52Z</time>
      </trkpt>
      <trkpt lat="43.61637" lon="6.50824">
        <ele>590.9</ele>
        <time>2021-02-18T15:29:54Z</time>
      </trkpt>
      <trkpt lat="43.61642" lon="6.50825">
        <ele>590.8</ele>
        <time>2021-02-18T15:29:57Z</time>
      </trkpt>
      <trkpt lat="43.61647" lon="6.5083">
        <ele>590.8</ele>
        <time>2021-02-18T15:30:20Z</time>
      </trkpt>
      <trkpt lat="43.61648" lon="6.50838">
        <ele>590.6</ele>
        <time>2021-02-18T15:30:22Z</time>
      </trkpt>
      <trkpt lat="43.61649" lon="6.50844">
        <ele>590.4</ele>
        <time>2021-02-18T15:30:26Z</time>
      </trkpt>
      <trkpt lat="43.61651" lon="6.50851">
        <ele>590.1</ele>
        <time>2021-02-18T15:30:28Z</time>
      </trkpt>
      <trkpt lat="43.61653" lon="6.50857">
        <ele>589.9</ele>
        <time>2021-02-18T15:30:30Z</time>
      </trkpt>
      <trkpt lat="43.61655" lon="6.50863">
        <ele>589.5</ele>
        <time>2021-02-18T15:30:35Z</time>
      </trkpt>
      <trkpt lat="43.61659" lon="6.50867">
        <ele>589.2</ele>
        <time>2021-02-18T15:30:39Z</time>
      </trkpt>
      <trkpt lat="43.61664" lon="6.50871">
        <ele>589</ele>
        <time>2021-02-18T15:30:41Z</time>
      </trkpt>
      <trkpt lat="43.61668" lon="6.50874">
        <ele>588.8</ele>
        <time>2021-02-18T15:30:43Z</time>
      </trkpt>
      <trkpt lat="43.61673" lon="6.50877">
        <ele>588.4</ele>
        <time>2021-02-18T15:30:46Z</time>
      </trkpt>
      <trkpt lat="43.61678" lon="6.50879">
        <ele>587.9</ele>
        <time>2021-02-18T15:30:50Z</time>
      </trkpt>
      <trkpt lat="43.61685" lon="6.5088">
        <ele>587.3</ele>
        <time>2021-02-18T15:31:05Z</time>
      </trkpt>
      <trkpt lat="43.6169" lon="6.50881">
        <ele>587.3</ele>
        <time>2021-02-18T15:31:09Z</time>
      </trkpt>
      <trkpt lat="43.61691" lon="6.50887">
        <ele>587.3</ele>
        <time>2021-02-18T15:31:19Z</time>
      </trkpt>
      <trkpt lat="43.61692" lon="6.50894">
        <ele>587.3</ele>
        <time>2021-02-18T15:31:22Z</time>
      </trkpt>
      <trkpt lat="43.61697" lon="6.50901">
        <ele>587.1</ele>
        <time>2021-02-18T15:31:31Z</time>
      </trkpt>
      <trkpt lat="43.61701" lon="6.50904">
        <ele>587</ele>
        <time>2021-02-18T15:31:33Z</time>
      </trkpt>
      <trkpt lat="43.61708" lon="6.50913">
        <ele>586.6</ele>
        <time>2021-02-18T15:31:41Z</time>
      </trkpt>
      <trkpt lat="43.61712" lon="6.50917">
        <ele>586.4</ele>
        <time>2021-02-18T15:31:44Z</time>
      </trkpt>
      <trkpt lat="43.61717" lon="6.50921">
        <ele>586.1</ele>
        <time>2021-02-18T15:31:56Z</time>
      </trkpt>
      <trkpt lat="43.61722" lon="6.50925">
        <ele>585.9</ele>
        <time>2021-02-18T15:32:00Z</time>
      </trkpt>
      <trkpt lat="43.61726" lon="6.5093">
        <ele>585.7</ele>
        <time>2021-02-18T15:32:12Z</time>
      </trkpt>
      <trkpt lat="43.61732" lon="6.50933">
        <ele>585.7</ele>
        <time>2021-02-18T15:32:15Z</time>
      </trkpt>
      <trkpt lat="43.61738" lon="6.50938">
        <ele>585.4</ele>
        <time>2021-02-18T15:32:48Z</time>
      </trkpt>
      <trkpt lat="43.61741" lon="6.50943">
        <ele>585.1</ele>
        <time>2021-02-18T15:32:53Z</time>
      </trkpt>
      <trkpt lat="43.61746" lon="6.50944">
        <ele>584.7</ele>
        <time>2021-02-18T15:33:05Z</time>
      </trkpt>
      <trkpt lat="43.61751" lon="6.50944">
        <ele>584.6</ele>
        <time>2021-02-18T15:33:08Z</time>
      </trkpt>
      <trkpt lat="43.61757" lon="6.50944">
        <ele>584.3</ele>
        <time>2021-02-18T15:33:25Z</time>
      </trkpt>
      <trkpt lat="43.61762" lon="6.50944">
        <ele>584.2</ele>
        <time>2021-02-18T15:33:28Z</time>
      </trkpt>
      <trkpt lat="43.61768" lon="6.50947">
        <ele>583.9</ele>
        <time>2021-02-18T15:33:36Z</time>
      </trkpt>
      <trkpt lat="43.61774" lon="6.5095">
        <ele>583.6</ele>
        <time>2021-02-18T15:33:39Z</time>
      </trkpt>
      <trkpt lat="43.61779" lon="6.50955">
        <ele>582.5</ele>
        <time>2021-02-18T15:33:53Z</time>
      </trkpt>
      <trkpt lat="43.61783" lon="6.50958">
        <ele>582</ele>
        <time>2021-02-18T15:33:56Z</time>
      </trkpt>
      <trkpt lat="43.61789" lon="6.50961">
        <ele>580.8</ele>
        <time>2021-02-18T15:34:29Z</time>
      </trkpt>
      <trkpt lat="43.61794" lon="6.50962">
        <ele>580.8</ele>
        <time>2021-02-18T15:34:32Z</time>
      </trkpt>
      <trkpt lat="43.61801" lon="6.50965">
        <ele>580.8</ele>
        <time>2021-02-18T15:34:47Z</time>
      </trkpt>
      <trkpt lat="43.61807" lon="6.50967">
        <ele>580.9</ele>
        <time>2021-02-18T15:34:50Z</time>
      </trkpt>
      <trkpt lat="43.61811" lon="6.50974">
        <ele>580.8</ele>
        <time>2021-02-18T15:34:56Z</time>
      </trkpt>
      <trkpt lat="43.61813" lon="6.5098">
        <ele>580.8</ele>
        <time>2021-02-18T15:34:59Z</time>
      </trkpt>
      <trkpt lat="43.61818" lon="6.50987">
        <ele>580.4</ele>
        <time>2021-02-18T15:35:11Z</time>
      </trkpt>
      <trkpt lat="43.6182" lon="6.50993">
        <ele>580.2</ele>
        <time>2021-02-18T15:35:15Z</time>
      </trkpt>
      <trkpt lat="43.61826" lon="6.50995">
        <ele>580</ele>
        <time>2021-02-18T15:35:24Z</time>
      </trkpt>
      <trkpt lat="43.61831" lon="6.50995">
        <ele>580</ele>
        <time>2021-02-18T15:35:27Z</time>
      </trkpt>
      <trkpt lat="43.61838" lon="6.50994">
        <ele>580.1</ele>
        <time>2021-02-18T15:35:34Z</time>
      </trkpt>
      <trkpt lat="43.61843" lon="6.50995">
        <ele>580.2</ele>
        <time>2021-02-18T15:35:37Z</time>
      </trkpt>
      <trkpt lat="43.61849" lon="6.50998">
        <ele>580.3</ele>
        <time>2021-02-18T15:35:44Z</time>
      </trkpt>
      <trkpt lat="43.61854" lon="6.51001">
        <ele>580.3</ele>
        <time>2021-02-18T15:35:47Z</time>
      </trkpt>
      <trkpt lat="43.61862" lon="6.51001">
        <ele>580.2</ele>
        <time>2021-02-18T15:35:56Z</time>
      </trkpt>
      <trkpt lat="43.61868" lon="6.51001">
        <ele>580.2</ele>
        <time>2021-02-18T15:35:59Z</time>
      </trkpt>
      <trkpt lat="43.61875" lon="6.51003">
        <ele>580.3</ele>
        <time>2021-02-18T15:36:11Z</time>
      </trkpt>
      <trkpt lat="43.61877" lon="6.5101">
        <ele>580.4</ele>
        <time>2021-02-18T15:36:14Z</time>
      </trkpt>
      <trkpt lat="43.6188" lon="6.51019">
        <ele>580.2</ele>
        <time>2021-02-18T15:36:19Z</time>
      </trkpt>
      <trkpt lat="43.61884" lon="6.51025">
        <ele>580</ele>
        <time>2021-02-18T15:36:22Z</time>
      </trkpt>
      <trkpt lat="43.61884" lon="6.51035">
        <ele>579.6</ele>
        <time>2021-02-18T15:36:35Z</time>
      </trkpt>
      <trkpt lat="43.61883" lon="6.51042">
        <ele>579.5</ele>
        <time>2021-02-18T15:36:38Z</time>
      </trkpt>
      <trkpt lat="43.61883" lon="6.51051">
        <ele>579.4</ele>
        <time>2021-02-18T15:36:46Z</time>
      </trkpt>
      <trkpt lat="43.61884" lon="6.51058">
        <ele>579.5</ele>
        <time>2021-02-18T15:36:49Z</time>
      </trkpt>
      <trkpt lat="43.61885" lon="6.51067">
        <ele>579.4</ele>
        <time>2021-02-18T15:36:58Z</time>
      </trkpt>
      <trkpt lat="43.61886" lon="6.51073">
        <ele>579.3</ele>
        <time>2021-02-18T15:37:00Z</time>
      </trkpt>
      <trkpt lat="43.61888" lon="6.5108">
        <ele>578.9</ele>
        <time>2021-02-18T15:37:05Z</time>
      </trkpt>
      <trkpt lat="43.6189" lon="6.51086">
        <ele>578.6</ele>
        <time>2021-02-18T15:37:14Z</time>
      </trkpt>
      <trkpt lat="43.61892" lon="6.51093">
        <ele>578.5</ele>
        <time>2021-02-18T15:37:17Z</time>
      </trkpt>
      <trkpt lat="43.61896" lon="6.511">
        <ele>578.5</ele>
        <time>2021-02-18T15:37:25Z</time>
      </trkpt>
      <trkpt lat="43.61898" lon="6.51106">
        <ele>578.6</ele>
        <time>2021-02-18T15:37:27Z</time>
      </trkpt>
      <trkpt lat="43.61899" lon="6.51114">
        <ele>578.8</ele>
        <time>2021-02-18T15:37:30Z</time>
      </trkpt>
      <trkpt lat="43.619" lon="6.51121">
        <ele>578.8</ele>
        <time>2021-02-18T15:37:33Z</time>
      </trkpt>
      <trkpt lat="43.61899" lon="6.51128">
        <ele>578.9</ele>
        <time>2021-02-18T15:37:36Z</time>
      </trkpt>
      <trkpt lat="43.61897" lon="6.51135">
        <ele>578.9</ele>
        <time>2021-02-18T15:37:39Z</time>
      </trkpt>
      <trkpt lat="43.61896" lon="6.51146">
        <ele>578.9</ele>
        <time>2021-02-18T15:37:48Z</time>
      </trkpt>
      <trkpt lat="43.61897" lon="6.51152">
        <ele>578.9</ele>
        <time>2021-02-18T15:37:52Z</time>
      </trkpt>
      <trkpt lat="43.61899" lon="6.5116">
        <ele>579.1</ele>
        <time>2021-02-18T15:38:08Z</time>
      </trkpt>
      <trkpt lat="43.61899" lon="6.51167">
        <ele>579.2</ele>
        <time>2021-02-18T15:38:11Z</time>
      </trkpt>
      <trkpt lat="43.61901" lon="6.51177">
        <ele>579.5</ele>
        <time>2021-02-18T15:38:30Z</time>
      </trkpt>
      <trkpt lat="43.61902" lon="6.51183">
        <ele>580.1</ele>
        <time>2021-02-18T15:38:34Z</time>
      </trkpt>
      <trkpt lat="43.619" lon="6.5119">
        <ele>581.1</ele>
        <time>2021-02-18T15:39:07Z</time>
      </trkpt>
      <trkpt lat="43.61897" lon="6.51196">
        <ele>581.3</ele>
        <time>2021-02-18T15:39:10Z</time>
      </trkpt>
      <trkpt lat="43.61894" lon="6.51204">
        <ele>581.8</ele>
        <time>2021-02-18T15:39:26Z</time>
      </trkpt>
      <trkpt lat="43.61892" lon="6.5121">
        <ele>581.8</ele>
        <time>2021-02-18T15:39:29Z</time>
      </trkpt>
      <trkpt lat="43.6189" lon="6.51218">
        <ele>581.8</ele>
        <time>2021-02-18T15:39:46Z</time>
      </trkpt>
      <trkpt lat="43.61889" lon="6.51225">
        <ele>581.8</ele>
        <time>2021-02-18T15:39:49Z</time>
      </trkpt>
      <trkpt lat="43.61886" lon="6.51233">
        <ele>581.9</ele>
        <time>2021-02-18T15:39:59Z</time>
      </trkpt>
      <trkpt lat="43.61884" lon="6.51238">
        <ele>581.9</ele>
        <time>2021-02-18T15:40:01Z</time>
      </trkpt>
      <trkpt lat="43.61881" lon="6.51244">
        <ele>581.8</ele>
        <time>2021-02-18T15:40:06Z</time>
      </trkpt>
      <trkpt lat="43.61879" lon="6.5125">
        <ele>581.8</ele>
        <time>2021-02-18T15:40:12Z</time>
      </trkpt>
      <trkpt lat="43.61876" lon="6.51256">
        <ele>581.8</ele>
        <time>2021-02-18T15:40:15Z</time>
      </trkpt>
      <trkpt lat="43.61873" lon="6.51264">
        <ele>581.9</ele>
        <time>2021-02-18T15:40:42Z</time>
      </trkpt>
      <trkpt lat="43.61869" lon="6.51269">
        <ele>582</ele>
        <time>2021-02-18T15:40:46Z</time>
      </trkpt>
      <trkpt lat="43.61866" lon="6.51275">
        <ele>581.8</ele>
        <time>2021-02-18T15:41:41Z</time>
      </trkpt>
      <trkpt lat="43.61865" lon="6.51281">
        <ele>581.6</ele>
        <time>2021-02-18T15:41:46Z</time>
      </trkpt>
      <trkpt lat="43.61861" lon="6.51287">
        <ele>581.7</ele>
        <time>2021-02-18T15:41:59Z</time>
      </trkpt>
      <trkpt lat="43.61858" lon="6.51291">
        <ele>582</ele>
        <time>2021-02-18T15:42:02Z</time>
      </trkpt>
      <trkpt lat="43.61855" lon="6.51299">
        <ele>583</ele>
        <time>2021-02-18T15:42:14Z</time>
      </trkpt>
      <trkpt lat="43.61853" lon="6.51306">
        <ele>583.7</ele>
        <time>2021-02-18T15:42:18Z</time>
      </trkpt>
      <trkpt lat="43.61854" lon="6.51314">
        <ele>584.6</ele>
        <time>2021-02-18T15:42:25Z</time>
      </trkpt>
      <trkpt lat="43.61856" lon="6.5132">
        <ele>585.1</ele>
        <time>2021-02-18T15:42:28Z</time>
      </trkpt>
      <trkpt lat="43.61857" lon="6.5133">
        <ele>586.5</ele>
        <time>2021-02-18T15:42:45Z</time>
      </trkpt>
      <trkpt lat="43.61861" lon="6.51337">
        <ele>587.1</ele>
        <time>2021-02-18T15:42:48Z</time>
      </trkpt>
      <trkpt lat="43.61866" lon="6.51344">
        <ele>588.1</ele>
        <time>2021-02-18T15:42:57Z</time>
      </trkpt>
      <trkpt lat="43.6187" lon="6.51349">
        <ele>588.4</ele>
        <time>2021-02-18T15:43:00Z</time>
      </trkpt>
      <trkpt lat="43.61876" lon="6.51357">
        <ele>588.8</ele>
        <time>2021-02-18T15:43:10Z</time>
      </trkpt>
      <trkpt lat="43.61879" lon="6.51362">
        <ele>588.9</ele>
        <time>2021-02-18T15:43:13Z</time>
      </trkpt>
      <trkpt lat="43.61879" lon="6.51371">
        <ele>589.1</ele>
        <time>2021-02-18T15:43:19Z</time>
      </trkpt>
      <trkpt lat="43.61878" lon="6.51377">
        <ele>589.2</ele>
        <time>2021-02-18T15:43:28Z</time>
      </trkpt>
      <trkpt lat="43.61881" lon="6.51381">
        <ele>589.3</ele>
        <time>2021-02-18T15:43:41Z</time>
      </trkpt>
      <trkpt lat="43.61885" lon="6.51385">
        <ele>589.5</ele>
        <time>2021-02-18T15:43:44Z</time>
      </trkpt>
      <trkpt lat="43.61888" lon="6.51393">
        <ele>589.7</ele>
        <time>2021-02-18T15:43:52Z</time>
      </trkpt>
      <trkpt lat="43.61887" lon="6.514">
        <ele>589.8</ele>
        <time>2021-02-18T15:43:54Z</time>
      </trkpt>
      <trkpt lat="43.61887" lon="6.51406">
        <ele>589.9</ele>
        <time>2021-02-18T15:44:00Z</time>
      </trkpt>
      <trkpt lat="43.61887" lon="6.51413">
        <ele>590.2</ele>
        <time>2021-02-18T15:44:16Z</time>
      </trkpt>
      <trkpt lat="43.61886" lon="6.51419">
        <ele>590.4</ele>
        <time>2021-02-18T15:44:19Z</time>
      </trkpt>
      <trkpt lat="43.61885" lon="6.51427">
        <ele>590.6</ele>
        <time>2021-02-18T15:44:28Z</time>
      </trkpt>
      <trkpt lat="43.61885" lon="6.51434">
        <ele>590.7</ele>
        <time>2021-02-18T15:44:31Z</time>
      </trkpt>
      <trkpt lat="43.61881" lon="6.51442">
        <ele>590.6</ele>
        <time>2021-02-18T15:44:40Z</time>
      </trkpt>
      <trkpt lat="43.61876" lon="6.51445">
        <ele>590.5</ele>
        <time>2021-02-18T15:44:42Z</time>
      </trkpt>
      <trkpt lat="43.61872" lon="6.51447">
        <ele>590.3</ele>
        <time>2021-02-18T15:44:48Z</time>
      </trkpt>
      <trkpt lat="43.61868" lon="6.5146">
        <ele>589.7</ele>
        <time>2021-02-18T15:45:08Z</time>
      </trkpt>
      <trkpt lat="43.61872" lon="6.51463">
        <ele>589.5</ele>
        <time>2021-02-18T15:45:12Z</time>
      </trkpt>
      <trkpt lat="43.6187" lon="6.51469">
        <ele>589.9</ele>
        <time>2021-02-18T15:45:54Z</time>
      </trkpt>
      <trkpt lat="43.61866" lon="6.51475">
        <ele>590.4</ele>
        <time>2021-02-18T15:45:57Z</time>
      </trkpt>
      <trkpt lat="43.61862" lon="6.51484">
        <ele>591.5</ele>
        <time>2021-02-18T15:46:07Z</time>
      </trkpt>
      <trkpt lat="43.6186" lon="6.5149">
        <ele>591.9</ele>
        <time>2021-02-18T15:46:10Z</time>
      </trkpt>
      <trkpt lat="43.61859" lon="6.51499">
        <ele>592.9</ele>
        <time>2021-02-18T15:46:20Z</time>
      </trkpt>
      <trkpt lat="43.61858" lon="6.51507">
        <ele>593.2</ele>
        <time>2021-02-18T15:46:23Z</time>
      </trkpt>
      <trkpt lat="43.61855" lon="6.51515">
        <ele>593.8</ele>
        <time>2021-02-18T15:46:32Z</time>
      </trkpt>
      <trkpt lat="43.61852" lon="6.51523">
        <ele>593.9</ele>
        <time>2021-02-18T15:46:35Z</time>
      </trkpt>
      <trkpt lat="43.6185" lon="6.51531">
        <ele>594.2</ele>
        <time>2021-02-18T15:46:45Z</time>
      </trkpt>
      <trkpt lat="43.61848" lon="6.51538">
        <ele>594.2</ele>
        <time>2021-02-18T15:46:47Z</time>
      </trkpt>
      <trkpt lat="43.61846" lon="6.51543">
        <ele>594.3</ele>
        <time>2021-02-18T15:46:54Z</time>
      </trkpt>
      <trkpt lat="43.61845" lon="6.51549">
        <ele>594.3</ele>
        <time>2021-02-18T15:47:00Z</time>
      </trkpt>
      <trkpt lat="43.61844" lon="6.51558">
        <ele>594.2</ele>
        <time>2021-02-18T15:47:03Z</time>
      </trkpt>
      <trkpt lat="43.61843" lon="6.51568">
        <ele>593.8</ele>
        <time>2021-02-18T15:47:10Z</time>
      </trkpt>
      <trkpt lat="43.61843" lon="6.51575">
        <ele>593.6</ele>
        <time>2021-02-18T15:47:13Z</time>
      </trkpt>
      <trkpt lat="43.61846" lon="6.51583">
        <ele>592.7</ele>
        <time>2021-02-18T15:47:24Z</time>
      </trkpt>
      <trkpt lat="43.61848" lon="6.5159">
        <ele>592</ele>
        <time>2021-02-18T15:47:28Z</time>
      </trkpt>
      <trkpt lat="43.61846" lon="6.51597">
        <ele>591.4</ele>
        <time>2021-02-18T15:48:18Z</time>
      </trkpt>
      <trkpt lat="43.61844" lon="6.51602">
        <ele>591.5</ele>
        <time>2021-02-18T15:48:23Z</time>
      </trkpt>
      <trkpt lat="43.61843" lon="6.5161">
        <ele>591.7</ele>
        <time>2021-02-18T15:48:48Z</time>
      </trkpt>
      <trkpt lat="43.61843" lon="6.51616">
        <ele>591.6</ele>
        <time>2021-02-18T15:48:51Z</time>
      </trkpt>
      <trkpt lat="43.61842" lon="6.51626">
        <ele>591</ele>
        <time>2021-02-18T15:49:00Z</time>
      </trkpt>
      <trkpt lat="43.6184" lon="6.51634">
        <ele>590.5</ele>
        <time>2021-02-18T15:49:03Z</time>
      </trkpt>
      <trkpt lat="43.61839" lon="6.51645">
        <ele>588.9</ele>
        <time>2021-02-18T15:49:14Z</time>
      </trkpt>
      <trkpt lat="43.61839" lon="6.51652">
        <ele>588.3</ele>
        <time>2021-02-18T15:49:17Z</time>
      </trkpt>
      <trkpt lat="43.61838" lon="6.5166">
        <ele>586.7</ele>
        <time>2021-02-18T15:49:29Z</time>
      </trkpt>
      <trkpt lat="43.61837" lon="6.51668">
        <ele>586.2</ele>
        <time>2021-02-18T15:49:32Z</time>
      </trkpt>
      <trkpt lat="43.61834" lon="6.51674">
        <ele>585.5</ele>
        <time>2021-02-18T15:49:36Z</time>
      </trkpt>
      <trkpt lat="43.61832" lon="6.5168">
        <ele>584.6</ele>
        <time>2021-02-18T15:49:42Z</time>
      </trkpt>
      <trkpt lat="43.6183" lon="6.51686">
        <ele>583.9</ele>
        <time>2021-02-18T15:49:49Z</time>
      </trkpt>
      <trkpt lat="43.61827" lon="6.51691">
        <ele>583.5</ele>
        <time>2021-02-18T15:49:52Z</time>
      </trkpt>
      <trkpt lat="43.61825" lon="6.51698">
        <ele>582.9</ele>
        <time>2021-02-18T15:49:57Z</time>
      </trkpt>
      <trkpt lat="43.61827" lon="6.51704">
        <ele>582.4</ele>
        <time>2021-02-18T15:50:02Z</time>
      </trkpt>
      <trkpt lat="43.61829" lon="6.51711">
        <ele>581.9</ele>
        <time>2021-02-18T15:50:14Z</time>
      </trkpt>
      <trkpt lat="43.6183" lon="6.51718">
        <ele>581.9</ele>
        <time>2021-02-18T15:50:18Z</time>
      </trkpt>
      <trkpt lat="43.61832" lon="6.51726">
        <ele>581.9</ele>
        <time>2021-02-18T15:50:26Z</time>
      </trkpt>
      <trkpt lat="43.61835" lon="6.51731">
        <ele>582</ele>
        <time>2021-02-18T15:50:29Z</time>
      </trkpt>
      <trkpt lat="43.61839" lon="6.51734">
        <ele>582.2</ele>
        <time>2021-02-18T15:50:33Z</time>
      </trkpt>
      <trkpt lat="43.61842" lon="6.51743">
        <ele>582.6</ele>
        <time>2021-02-18T15:50:43Z</time>
      </trkpt>
      <trkpt lat="43.61844" lon="6.51749">
        <ele>582.9</ele>
        <time>2021-02-18T15:50:46Z</time>
      </trkpt>
      <trkpt lat="43.61844" lon="6.51758">
        <ele>583.3</ele>
        <time>2021-02-18T15:50:53Z</time>
      </trkpt>
      <trkpt lat="43.61844" lon="6.51766">
        <ele>583.4</ele>
        <time>2021-02-18T15:50:56Z</time>
      </trkpt>
      <trkpt lat="43.61846" lon="6.51775">
        <ele>583.9</ele>
        <time>2021-02-18T15:51:08Z</time>
      </trkpt>
      <trkpt lat="43.61847" lon="6.51782">
        <ele>584.1</ele>
        <time>2021-02-18T15:51:10Z</time>
      </trkpt>
      <trkpt lat="43.61847" lon="6.51793">
        <ele>584.8</ele>
        <time>2021-02-18T15:51:23Z</time>
      </trkpt>
      <trkpt lat="43.61847" lon="6.51801">
        <ele>585.1</ele>
        <time>2021-02-18T15:51:26Z</time>
      </trkpt>
      <trkpt lat="43.61847" lon="6.51811">
        <ele>586.1</ele>
        <time>2021-02-18T15:51:40Z</time>
      </trkpt>
      <trkpt lat="43.61846" lon="6.51819">
        <ele>586.7</ele>
        <time>2021-02-18T15:51:43Z</time>
      </trkpt>
      <trkpt lat="43.61844" lon="6.51826">
        <ele>587.6</ele>
        <time>2021-02-18T15:51:49Z</time>
      </trkpt>
      <trkpt lat="43.61843" lon="6.51832">
        <ele>588.2</ele>
        <time>2021-02-18T15:51:53Z</time>
      </trkpt>
      <trkpt lat="43.61842" lon="6.5184">
        <ele>588.8</ele>
        <time>2021-02-18T15:51:58Z</time>
      </trkpt>
      <trkpt lat="43.61843" lon="6.51846">
        <ele>589.4</ele>
        <time>2021-02-18T15:52:07Z</time>
      </trkpt>
      <trkpt lat="43.61841" lon="6.51856">
        <ele>590.2</ele>
        <time>2021-02-18T15:52:21Z</time>
      </trkpt>
      <trkpt lat="43.61837" lon="6.51862">
        <ele>590.4</ele>
        <time>2021-02-18T15:52:23Z</time>
      </trkpt>
      <trkpt lat="43.61833" lon="6.51867">
        <ele>590.8</ele>
        <time>2021-02-18T15:52:26Z</time>
      </trkpt>
      <trkpt lat="43.61829" lon="6.51872">
        <ele>591.2</ele>
        <time>2021-02-18T15:52:29Z</time>
      </trkpt>
      <trkpt lat="43.61826" lon="6.51877">
        <ele>591.8</ele>
        <time>2021-02-18T15:52:33Z</time>
      </trkpt>
      <trkpt lat="43.61821" lon="6.51882">
        <ele>592.5</ele>
        <time>2021-02-18T15:52:37Z</time>
      </trkpt>
      <trkpt lat="43.61818" lon="6.51886">
        <ele>593.1</ele>
        <time>2021-02-18T15:52:41Z</time>
      </trkpt>
      <trkpt lat="43.61814" lon="6.51892">
        <ele>593.7</ele>
        <time>2021-02-18T15:52:46Z</time>
      </trkpt>
      <trkpt lat="43.6181" lon="6.51897">
        <ele>594.4</ele>
        <time>2021-02-18T15:52:51Z</time>
      </trkpt>
      <trkpt lat="43.61807" lon="6.51902">
        <ele>595</ele>
        <time>2021-02-18T15:52:55Z</time>
      </trkpt>
      <trkpt lat="43.61805" lon="6.51908">
        <ele>595.6</ele>
        <time>2021-02-18T15:52:59Z</time>
      </trkpt>
      <trkpt lat="43.61803" lon="6.51914">
        <ele>596.4</ele>
        <time>2021-02-18T15:53:04Z</time>
      </trkpt>
      <trkpt lat="43.61801" lon="6.5192">
        <ele>597.4</ele>
        <time>2021-02-18T15:53:08Z</time>
      </trkpt>
      <trkpt lat="43.61799" lon="6.51926">
        <ele>598.9</ele>
        <time>2021-02-18T15:53:14Z</time>
      </trkpt>
      <trkpt lat="43.61797" lon="6.51932">
        <ele>600</ele>
        <time>2021-02-18T15:53:19Z</time>
      </trkpt>
      <trkpt lat="43.61795" lon="6.51939">
        <ele>600.7</ele>
        <time>2021-02-18T15:53:23Z</time>
      </trkpt>
      <trkpt lat="43.61793" lon="6.51945">
        <ele>601.5</ele>
        <time>2021-02-18T15:53:27Z</time>
      </trkpt>
      <trkpt lat="43.61791" lon="6.51952">
        <ele>602.3</ele>
        <time>2021-02-18T15:53:31Z</time>
      </trkpt>
      <trkpt lat="43.61791" lon="6.51958">
        <ele>603.4</ele>
        <time>2021-02-18T15:53:36Z</time>
      </trkpt>
      <trkpt lat="43.6179" lon="6.51965">
        <ele>604.4</ele>
        <time>2021-02-18T15:53:41Z</time>
      </trkpt>
      <trkpt lat="43.61789" lon="6.51972">
        <ele>605.2</ele>
        <time>2021-02-18T15:53:46Z</time>
      </trkpt>
      <trkpt lat="43.61788" lon="6.51979">
        <ele>605.4</ele>
        <time>2021-02-18T15:53:51Z</time>
      </trkpt>
      <trkpt lat="43.61786" lon="6.51986">
        <ele>605.1</ele>
        <time>2021-02-18T15:53:56Z</time>
      </trkpt>
      <trkpt lat="43.61786" lon="6.51994">
        <ele>605.3</ele>
        <time>2021-02-18T15:54:01Z</time>
      </trkpt>
      <trkpt lat="43.61784" lon="6.52">
        <ele>604.5</ele>
        <time>2021-02-18T15:54:06Z</time>
      </trkpt>
      <trkpt lat="43.61782" lon="6.52006">
        <ele>604</ele>
        <time>2021-02-18T15:54:11Z</time>
      </trkpt>
      <trkpt lat="43.61778" lon="6.52012">
        <ele>604.1</ele>
        <time>2021-02-18T15:54:22Z</time>
      </trkpt>
      <trkpt lat="43.61775" lon="6.52017">
        <ele>604.6</ele>
        <time>2021-02-18T15:54:25Z</time>
      </trkpt>
      <trkpt lat="43.61773" lon="6.52023">
        <ele>605.5</ele>
        <time>2021-02-18T15:54:29Z</time>
      </trkpt>
      <trkpt lat="43.61772" lon="6.5203">
        <ele>605.6</ele>
        <time>2021-02-18T15:54:32Z</time>
      </trkpt>
      <trkpt lat="43.61771" lon="6.52037">
        <ele>606</ele>
        <time>2021-02-18T15:54:36Z</time>
      </trkpt>
      <trkpt lat="43.6177" lon="6.52044">
        <ele>606.1</ele>
        <time>2021-02-18T15:54:40Z</time>
      </trkpt>
      <trkpt lat="43.61769" lon="6.52051">
        <ele>606.2</ele>
        <time>2021-02-18T15:54:44Z</time>
      </trkpt>
      <trkpt lat="43.61769" lon="6.52057">
        <ele>606.4</ele>
        <time>2021-02-18T15:54:48Z</time>
      </trkpt>
      <trkpt lat="43.61769" lon="6.52065">
        <ele>606.6</ele>
        <time>2021-02-18T15:54:53Z</time>
      </trkpt>
      <trkpt lat="43.61769" lon="6.52072">
        <ele>606.6</ele>
        <time>2021-02-18T15:54:58Z</time>
      </trkpt>
      <trkpt lat="43.61769" lon="6.52079">
        <ele>606.6</ele>
        <time>2021-02-18T15:55:02Z</time>
      </trkpt>
      <trkpt lat="43.61768" lon="6.52085">
        <ele>606.6</ele>
        <time>2021-02-18T15:55:06Z</time>
      </trkpt>
      <trkpt lat="43.61767" lon="6.52093">
        <ele>606.8</ele>
        <time>2021-02-18T15:55:10Z</time>
      </trkpt>
      <trkpt lat="43.61764" lon="6.521">
        <ele>607.5</ele>
        <time>2021-02-18T15:55:16Z</time>
      </trkpt>
      <trkpt lat="43.61763" lon="6.52107">
        <ele>608.7</ele>
        <time>2021-02-18T15:55:21Z</time>
      </trkpt>
      <trkpt lat="43.61761" lon="6.52114">
        <ele>609.5</ele>
        <time>2021-02-18T15:55:26Z</time>
      </trkpt>
      <trkpt lat="43.61759" lon="6.52121">
        <ele>610</ele>
        <time>2021-02-18T15:55:31Z</time>
      </trkpt>
      <trkpt lat="43.61759" lon="6.52127">
        <ele>610.5</ele>
        <time>2021-02-18T15:55:35Z</time>
      </trkpt>
      <trkpt lat="43.61759" lon="6.52134">
        <ele>610.9</ele>
        <time>2021-02-18T15:55:39Z</time>
      </trkpt>
      <trkpt lat="43.61756" lon="6.52141">
        <ele>611.9</ele>
        <time>2021-02-18T15:55:46Z</time>
      </trkpt>
      <trkpt lat="43.61754" lon="6.52147">
        <ele>612.5</ele>
        <time>2021-02-18T15:55:50Z</time>
      </trkpt>
      <trkpt lat="43.61751" lon="6.52153">
        <ele>613.2</ele>
        <time>2021-02-18T15:55:54Z</time>
      </trkpt>
      <trkpt lat="43.61751" lon="6.52159">
        <ele>613.9</ele>
        <time>2021-02-18T15:55:58Z</time>
      </trkpt>
      <trkpt lat="43.6175" lon="6.52166">
        <ele>614.7</ele>
        <time>2021-02-18T15:56:02Z</time>
      </trkpt>
      <trkpt lat="43.61749" lon="6.52172">
        <ele>615.4</ele>
        <time>2021-02-18T15:56:06Z</time>
      </trkpt>
      <trkpt lat="43.61748" lon="6.52179">
        <ele>616.1</ele>
        <time>2021-02-18T15:56:10Z</time>
      </trkpt>
      <trkpt lat="43.61747" lon="6.52187">
        <ele>616.9</ele>
        <time>2021-02-18T15:56:15Z</time>
      </trkpt>
      <trkpt lat="43.61745" lon="6.52193">
        <ele>617.6</ele>
        <time>2021-02-18T15:56:19Z</time>
      </trkpt>
      <trkpt lat="43.61744" lon="6.52199">
        <ele>618.2</ele>
        <time>2021-02-18T15:56:23Z</time>
      </trkpt>
      <trkpt lat="43.61745" lon="6.52206">
        <ele>618.9</ele>
        <time>2021-02-18T15:56:28Z</time>
      </trkpt>
      <trkpt lat="43.61744" lon="6.52215">
        <ele>619.8</ele>
        <time>2021-02-18T15:56:39Z</time>
      </trkpt>
      <trkpt lat="43.61743" lon="6.52222">
        <ele>620.2</ele>
        <time>2021-02-18T15:56:42Z</time>
      </trkpt>
      <trkpt lat="43.61743" lon="6.52228">
        <ele>621.4</ele>
        <time>2021-02-18T15:56:48Z</time>
      </trkpt>
      <trkpt lat="43.61745" lon="6.52236">
        <ele>623.1</ele>
        <time>2021-02-18T15:57:01Z</time>
      </trkpt>
      <trkpt lat="43.61746" lon="6.52243">
        <ele>623.9</ele>
        <time>2021-02-18T15:57:05Z</time>
      </trkpt>
      <trkpt lat="43.6175" lon="6.52248">
        <ele>624.4</ele>
        <time>2021-02-18T15:57:31Z</time>
      </trkpt>
      <trkpt lat="43.61753" lon="6.52253">
        <ele>623.7</ele>
        <time>2021-02-18T15:57:36Z</time>
      </trkpt>
      <trkpt lat="43.61757" lon="6.5225">
        <ele>621.3</ele>
        <time>2021-02-18T15:59:15Z</time>
      </trkpt>
      <trkpt lat="43.61761" lon="6.52247">
        <ele>620.2</ele>
        <time>2021-02-18T15:59:18Z</time>
      </trkpt>
      <trkpt lat="43.61766" lon="6.52241">
        <ele>618</ele>
        <time>2021-02-18T15:59:36Z</time>
      </trkpt>
      <trkpt lat="43.6177" lon="6.52235">
        <ele>618.2</ele>
        <time>2021-02-18T15:59:39Z</time>
      </trkpt>
      <trkpt lat="43.61775" lon="6.52228">
        <ele>618.5</ele>
        <time>2021-02-18T15:59:47Z</time>
      </trkpt>
      <trkpt lat="43.61779" lon="6.52224">
        <ele>618.6</ele>
        <time>2021-02-18T15:59:49Z</time>
      </trkpt>
      <trkpt lat="43.61783" lon="6.52219">
        <ele>618.8</ele>
        <time>2021-02-18T15:59:52Z</time>
      </trkpt>
      <trkpt lat="43.61786" lon="6.52214">
        <ele>619</ele>
        <time>2021-02-18T15:59:57Z</time>
      </trkpt>
      <trkpt lat="43.6179" lon="6.52208">
        <ele>619.4</ele>
        <time>2021-02-18T16:00:10Z</time>
      </trkpt>
      <trkpt lat="43.61793" lon="6.52204">
        <ele>619.6</ele>
        <time>2021-02-18T16:00:13Z</time>
      </trkpt>
      <trkpt lat="43.61799" lon="6.52197">
        <ele>620.1</ele>
        <time>2021-02-18T16:00:24Z</time>
      </trkpt>
      <trkpt lat="43.61804" lon="6.52192">
        <ele>620.2</ele>
        <time>2021-02-18T16:00:26Z</time>
      </trkpt>
      <trkpt lat="43.61809" lon="6.52187">
        <ele>620.3</ele>
        <time>2021-02-18T16:00:29Z</time>
      </trkpt>
      <trkpt lat="43.61813" lon="6.52182">
        <ele>620.4</ele>
        <time>2021-02-18T16:00:33Z</time>
      </trkpt>
      <trkpt lat="43.6182" lon="6.52176">
        <ele>621.1</ele>
        <time>2021-02-18T16:00:54Z</time>
      </trkpt>
      <trkpt lat="43.61824" lon="6.52173">
        <ele>621.5</ele>
        <time>2021-02-18T16:00:58Z</time>
      </trkpt>
      <trkpt lat="43.61828" lon="6.52167">
        <ele>621.9</ele>
        <time>2021-02-18T16:01:05Z</time>
      </trkpt>
      <trkpt lat="43.61831" lon="6.52162">
        <ele>622</ele>
        <time>2021-02-18T16:01:08Z</time>
      </trkpt>
      <trkpt lat="43.61835" lon="6.52155">
        <ele>622.1</ele>
        <time>2021-02-18T16:01:24Z</time>
      </trkpt>
      <trkpt lat="43.61838" lon="6.5215">
        <ele>622.2</ele>
        <time>2021-02-18T16:01:28Z</time>
      </trkpt>
      <trkpt lat="43.61841" lon="6.52142">
        <ele>622.5</ele>
        <time>2021-02-18T16:01:39Z</time>
      </trkpt>
      <trkpt lat="43.61843" lon="6.52136">
        <ele>622.7</ele>
        <time>2021-02-18T16:01:42Z</time>
      </trkpt>
      <trkpt lat="43.61844" lon="6.52126">
        <ele>623.6</ele>
        <time>2021-02-18T16:01:54Z</time>
      </trkpt>
      <trkpt lat="43.61845" lon="6.52119">
        <ele>624</ele>
        <time>2021-02-18T16:01:57Z</time>
      </trkpt>
      <trkpt lat="43.61847" lon="6.5211">
        <ele>624.8</ele>
        <time>2021-02-18T16:02:07Z</time>
      </trkpt>
      <trkpt lat="43.61849" lon="6.52103">
        <ele>625.3</ele>
        <time>2021-02-18T16:02:10Z</time>
      </trkpt>
      <trkpt lat="43.61852" lon="6.52094">
        <ele>626.1</ele>
        <time>2021-02-18T16:02:18Z</time>
      </trkpt>
      <trkpt lat="43.61855" lon="6.52088">
        <ele>626.6</ele>
        <time>2021-02-18T16:02:21Z</time>
      </trkpt>
      <trkpt lat="43.6186" lon="6.52079">
        <ele>627.4</ele>
        <time>2021-02-18T16:02:29Z</time>
      </trkpt>
      <trkpt lat="43.61864" lon="6.52073">
        <ele>627.5</ele>
        <time>2021-02-18T16:02:31Z</time>
      </trkpt>
      <trkpt lat="43.61867" lon="6.52067">
        <ele>627.7</ele>
        <time>2021-02-18T16:02:34Z</time>
      </trkpt>
      <trkpt lat="43.61871" lon="6.5206">
        <ele>628</ele>
        <time>2021-02-18T16:02:42Z</time>
      </trkpt>
      <trkpt lat="43.61875" lon="6.52054">
        <ele>628.1</ele>
        <time>2021-02-18T16:02:45Z</time>
      </trkpt>
      <trkpt lat="43.6188" lon="6.52047">
        <ele>628.7</ele>
        <time>2021-02-18T16:02:55Z</time>
      </trkpt>
      <trkpt lat="43.61884" lon="6.52042">
        <ele>629</ele>
        <time>2021-02-18T16:02:58Z</time>
      </trkpt>
      <trkpt lat="43.61889" lon="6.52037">
        <ele>629.7</ele>
        <time>2021-02-18T16:03:05Z</time>
      </trkpt>
      <trkpt lat="43.61893" lon="6.52032">
        <ele>630.4</ele>
        <time>2021-02-18T16:03:09Z</time>
      </trkpt>
      <trkpt lat="43.61897" lon="6.52029">
        <ele>630.9</ele>
        <time>2021-02-18T16:03:13Z</time>
      </trkpt>
      <trkpt lat="43.61902" lon="6.52025">
        <ele>631.4</ele>
        <time>2021-02-18T16:03:18Z</time>
      </trkpt>
      <trkpt lat="43.61906" lon="6.52021">
        <ele>632.1</ele>
        <time>2021-02-18T16:03:24Z</time>
      </trkpt>
      <trkpt lat="43.6191" lon="6.52017">
        <ele>632.7</ele>
        <time>2021-02-18T16:03:31Z</time>
      </trkpt>
      <trkpt lat="43.61914" lon="6.52013">
        <ele>633.1</ele>
        <time>2021-02-18T16:03:36Z</time>
      </trkpt>
      <trkpt lat="43.61919" lon="6.52008">
        <ele>633.4</ele>
        <time>2021-02-18T16:03:38Z</time>
      </trkpt>
      <trkpt lat="43.61923" lon="6.52003">
        <ele>633.8</ele>
        <time>2021-02-18T16:03:41Z</time>
      </trkpt>
      <trkpt lat="43.61927" lon="6.52">
        <ele>634.5</ele>
        <time>2021-02-18T16:03:53Z</time>
      </trkpt>
      <trkpt lat="43.61931" lon="6.51997">
        <ele>634.9</ele>
        <time>2021-02-18T16:03:56Z</time>
      </trkpt>
      <trkpt lat="43.61936" lon="6.51994">
        <ele>635.2</ele>
        <time>2021-02-18T16:03:59Z</time>
      </trkpt>
      <trkpt lat="43.61943" lon="6.51992">
        <ele>636.3</ele>
        <time>2021-02-18T16:04:08Z</time>
      </trkpt>
      <trkpt lat="43.61947" lon="6.51991">
        <ele>636.7</ele>
        <time>2021-02-18T16:04:10Z</time>
      </trkpt>
      <trkpt lat="43.61956" lon="6.51991">
        <ele>638.1</ele>
        <time>2021-02-18T16:04:20Z</time>
      </trkpt>
      <trkpt lat="43.61961" lon="6.51991">
        <ele>638.4</ele>
        <time>2021-02-18T16:04:23Z</time>
      </trkpt>
      <trkpt lat="43.61967" lon="6.51988">
        <ele>639.2</ele>
        <time>2021-02-18T16:04:42Z</time>
      </trkpt>
      <trkpt lat="43.61972" lon="6.51984">
        <ele>639.5</ele>
        <time>2021-02-18T16:04:45Z</time>
      </trkpt>
      <trkpt lat="43.61978" lon="6.51979">
        <ele>640.3</ele>
        <time>2021-02-18T16:04:57Z</time>
      </trkpt>
      <trkpt lat="43.61982" lon="6.51974">
        <ele>640.7</ele>
        <time>2021-02-18T16:05:00Z</time>
      </trkpt>
      <trkpt lat="43.61986" lon="6.51967">
        <ele>641.6</ele>
        <time>2021-02-18T16:05:09Z</time>
      </trkpt>
      <trkpt lat="43.61989" lon="6.51961">
        <ele>641.9</ele>
        <time>2021-02-18T16:05:12Z</time>
      </trkpt>
      <trkpt lat="43.61993" lon="6.51952">
        <ele>642.1</ele>
        <time>2021-02-18T16:05:20Z</time>
      </trkpt>
      <trkpt lat="43.61995" lon="6.51946">
        <ele>642.1</ele>
        <time>2021-02-18T16:05:23Z</time>
      </trkpt>
      <trkpt lat="43.62" lon="6.51939">
        <ele>641.7</ele>
        <time>2021-02-18T16:05:39Z</time>
      </trkpt>
      <trkpt lat="43.62003" lon="6.51935">
        <ele>641.5</ele>
        <time>2021-02-18T16:05:43Z</time>
      </trkpt>
      <trkpt lat="43.62004" lon="6.51927">
        <ele>641.4</ele>
        <time>2021-02-18T16:06:03Z</time>
      </trkpt>
      <trkpt lat="43.62003" lon="6.51919">
        <ele>641.6</ele>
        <time>2021-02-18T16:06:06Z</time>
      </trkpt>
      <trkpt lat="43.62001" lon="6.51912">
        <ele>641.9</ele>
        <time>2021-02-18T16:06:10Z</time>
      </trkpt>
      <trkpt lat="43.62" lon="6.51905">
        <ele>642.1</ele>
        <time>2021-02-18T16:06:15Z</time>
      </trkpt>
      <trkpt lat="43.62003" lon="6.51899">
        <ele>642.7</ele>
        <time>2021-02-18T16:06:30Z</time>
      </trkpt>
      <trkpt lat="43.62007" lon="6.51893">
        <ele>643.1</ele>
        <time>2021-02-18T16:06:33Z</time>
      </trkpt>
      <trkpt lat="43.62011" lon="6.51885">
        <ele>644.1</ele>
        <time>2021-02-18T16:06:42Z</time>
      </trkpt>
      <trkpt lat="43.62014" lon="6.51879">
        <ele>644.5</ele>
        <time>2021-02-18T16:06:45Z</time>
      </trkpt>
      <trkpt lat="43.6202" lon="6.51873">
        <ele>645.4</ele>
        <time>2021-02-18T16:06:57Z</time>
      </trkpt>
      <trkpt lat="43.62025" lon="6.51871">
        <ele>645.8</ele>
        <time>2021-02-18T16:07:01Z</time>
      </trkpt>
      <trkpt lat="43.62031" lon="6.5187">
        <ele>646.6</ele>
        <time>2021-02-18T16:07:11Z</time>
      </trkpt>
      <trkpt lat="43.62036" lon="6.51871">
        <ele>647</ele>
        <time>2021-02-18T16:07:15Z</time>
      </trkpt>
      <trkpt lat="43.6204" lon="6.51875">
        <ele>647.7</ele>
        <time>2021-02-18T16:07:23Z</time>
      </trkpt>
      <trkpt lat="43.62044" lon="6.51879">
        <ele>648.1</ele>
        <time>2021-02-18T16:07:26Z</time>
      </trkpt>
      <trkpt lat="43.6205" lon="6.51884">
        <ele>649</ele>
        <time>2021-02-18T16:07:36Z</time>
      </trkpt>
      <trkpt lat="43.62054" lon="6.51889">
        <ele>649.4</ele>
        <time>2021-02-18T16:07:39Z</time>
      </trkpt>
      <trkpt lat="43.6206" lon="6.51894">
        <ele>650</ele>
        <time>2021-02-18T16:07:46Z</time>
      </trkpt>
      <trkpt lat="43.62066" lon="6.51897">
        <ele>650.2</ele>
        <time>2021-02-18T16:07:49Z</time>
      </trkpt>
      <trkpt lat="43.62073" lon="6.51895">
        <ele>650.8</ele>
        <time>2021-02-18T16:07:59Z</time>
      </trkpt>
      <trkpt lat="43.62077" lon="6.51892">
        <ele>651</ele>
        <time>2021-02-18T16:08:01Z</time>
      </trkpt>
      <trkpt lat="43.62082" lon="6.51891">
        <ele>651.2</ele>
        <time>2021-02-18T16:08:03Z</time>
      </trkpt>
      <trkpt lat="43.62087" lon="6.51888">
        <ele>651.4</ele>
        <time>2021-02-18T16:08:06Z</time>
      </trkpt>
      <trkpt lat="43.62094" lon="6.51883">
        <ele>652.3</ele>
        <time>2021-02-18T16:08:22Z</time>
      </trkpt>
      <trkpt lat="43.62099" lon="6.5188">
        <ele>652.5</ele>
        <time>2021-02-18T16:08:25Z</time>
      </trkpt>
      <trkpt lat="43.62105" lon="6.51876">
        <ele>652.6</ele>
        <time>2021-02-18T16:08:43Z</time>
      </trkpt>
      <trkpt lat="43.62109" lon="6.51873">
        <ele>652.2</ele>
        <time>2021-02-18T16:08:47Z</time>
      </trkpt>
      <trkpt lat="43.62114" lon="6.51872">
        <ele>651.6</ele>
        <time>2021-02-18T16:08:56Z</time>
      </trkpt>
      <trkpt lat="43.6212" lon="6.5187">
        <ele>651.5</ele>
        <time>2021-02-18T16:08:59Z</time>
      </trkpt>
      <trkpt lat="43.62129" lon="6.51868">
        <ele>651.2</ele>
        <time>2021-02-18T16:09:05Z</time>
      </trkpt>
      <trkpt lat="43.62135" lon="6.51864">
        <ele>651.1</ele>
        <time>2021-02-18T16:09:07Z</time>
      </trkpt>
      <trkpt lat="43.62139" lon="6.51861">
        <ele>651</ele>
        <time>2021-02-18T16:09:09Z</time>
      </trkpt>
      <trkpt lat="43.62144" lon="6.51858">
        <ele>650.7</ele>
        <time>2021-02-18T16:09:13Z</time>
      </trkpt>
      <trkpt lat="43.62149" lon="6.51855">
        <ele>650.4</ele>
        <time>2021-02-18T16:09:17Z</time>
      </trkpt>
      <trkpt lat="43.62155" lon="6.51848">
        <ele>649.8</ele>
        <time>2021-02-18T16:09:35Z</time>
      </trkpt>
      <trkpt lat="43.62159" lon="6.51843">
        <ele>649.7</ele>
        <time>2021-02-18T16:09:39Z</time>
      </trkpt>
      <trkpt lat="43.62164" lon="6.51841">
        <ele>649.8</ele>
        <time>2021-02-18T16:09:54Z</time>
      </trkpt>
      <trkpt lat="43.62169" lon="6.51839">
        <ele>650.1</ele>
        <time>2021-02-18T16:09:57Z</time>
      </trkpt>
      <trkpt lat="43.62176" lon="6.51837">
        <ele>650.5</ele>
        <time>2021-02-18T16:10:05Z</time>
      </trkpt>
      <trkpt lat="43.62181" lon="6.51837">
        <ele>650.5</ele>
        <time>2021-02-18T16:10:07Z</time>
      </trkpt>
      <trkpt lat="43.62185" lon="6.51837">
        <ele>650.6</ele>
        <time>2021-02-18T16:10:11Z</time>
      </trkpt>
      <trkpt lat="43.62191" lon="6.51837">
        <ele>650.6</ele>
        <time>2021-02-18T16:10:19Z</time>
      </trkpt>
      <trkpt lat="43.62195" lon="6.51834">
        <ele>650.6</ele>
        <time>2021-02-18T16:10:23Z</time>
      </trkpt>
      <trkpt lat="43.62201" lon="6.51834">
        <ele>650.8</ele>
        <time>2021-02-18T16:10:34Z</time>
      </trkpt>
      <trkpt lat="43.62207" lon="6.51836">
        <ele>651</ele>
        <time>2021-02-18T16:10:37Z</time>
      </trkpt>
      <trkpt lat="43.62215" lon="6.51837">
        <ele>651.2</ele>
        <time>2021-02-18T16:10:45Z</time>
      </trkpt>
      <trkpt lat="43.6222" lon="6.51838">
        <ele>651.3</ele>
        <time>2021-02-18T16:10:48Z</time>
      </trkpt>
      <trkpt lat="43.62227" lon="6.51841">
        <ele>651.5</ele>
        <time>2021-02-18T16:10:57Z</time>
      </trkpt>
      <trkpt lat="43.62232" lon="6.51843">
        <ele>651.5</ele>
        <time>2021-02-18T16:10:59Z</time>
      </trkpt>
      <trkpt lat="43.62237" lon="6.51844">
        <ele>651.6</ele>
        <time>2021-02-18T16:11:06Z</time>
      </trkpt>
      <trkpt lat="43.62244" lon="6.51847">
        <ele>651.6</ele>
        <time>2021-02-18T16:11:08Z</time>
      </trkpt>
      <trkpt lat="43.62249" lon="6.51849">
        <ele>651.6</ele>
        <time>2021-02-18T16:11:10Z</time>
      </trkpt>
      <trkpt lat="43.62253" lon="6.51849">
        <ele>651.4</ele>
        <time>2021-02-18T16:11:14Z</time>
      </trkpt>
      <trkpt lat="43.62259" lon="6.51851">
        <ele>651.2</ele>
        <time>2021-02-18T16:11:19Z</time>
      </trkpt>
      <trkpt lat="43.62265" lon="6.51855">
        <ele>650.9</ele>
        <time>2021-02-18T16:11:21Z</time>
      </trkpt>
      <trkpt lat="43.6227" lon="6.51857">
        <ele>650.5</ele>
        <time>2021-02-18T16:11:24Z</time>
      </trkpt>
      <trkpt lat="43.62276" lon="6.51858">
        <ele>649</ele>
        <time>2021-02-18T16:11:50Z</time>
      </trkpt>
    </trkseg>
  </trk>
</gpx>